<?xml version="1.0" encoding="UTF-8" standalone="no" ?>
<gpx xmlns="http://www.topografix.com/GPX/1/1" xmlns:xsi="http://www.w3.org/2001/XMLSchema-instance" xsi:schemaLocation="http://www.topografix.com/GPX/1/1 http://www.topografix.com/GPX/1/1/gpx.xsd" version="1.1" creator="VisuGPX - https://www.visugpx.com">
  <metadata>
    <name>Font Blanche</name>
    <desc><![CDATA[Ballade dans la Forêt de Font Blanche,parcours en dents de scie,difficulté moyenne.]]></desc>
  </metadata>
  <trk>
    <name><![CDATA[Font Blanche_2]]></name>
    <trkseg>
      <trkpt lat="43.25297" lon="5.67519">
        <ele>306.8</ele>
        <time>2013-11-20T11:54:13Z</time>
      </trkpt>
      <trkpt lat="43.25298" lon="5.67519">
        <ele>310.8</ele>
        <time>2013-11-20T11:54:14Z</time>
      </trkpt>
      <trkpt lat="43.25294" lon="5.67516">
        <ele>297.6</ele>
        <time>2013-11-20T11:55:01Z</time>
      </trkpt>
      <trkpt lat="43.25294" lon="5.6751">
        <ele>296.5</ele>
        <time>2013-11-20T11:55:09Z</time>
      </trkpt>
      <trkpt lat="43.25296" lon="5.67505">
        <ele>300.3</ele>
        <time>2013-11-20T11:55:26Z</time>
      </trkpt>
      <trkpt lat="43.25296" lon="5.67505">
        <ele>300.2</ele>
        <time>2013-11-20T11:55:27Z</time>
      </trkpt>
      <trkpt lat="43.25297" lon="5.675">
        <ele>299</ele>
        <time>2013-11-20T11:58:59Z</time>
      </trkpt>
      <trkpt lat="43.25298" lon="5.675">
        <ele>298.8</ele>
        <time>2013-11-20T11:59:00Z</time>
      </trkpt>
      <trkpt lat="43.25303" lon="5.67495">
        <ele>298.2</ele>
        <time>2013-11-20T11:59:11Z</time>
      </trkpt>
      <trkpt lat="43.25303" lon="5.67489">
        <ele>297.2</ele>
        <time>2013-11-20T11:59:28Z</time>
      </trkpt>
      <trkpt lat="43.25307" lon="5.67486">
        <ele>295</ele>
        <time>2013-11-20T11:59:53Z</time>
      </trkpt>
      <trkpt lat="43.2531" lon="5.67489">
        <ele>293.3</ele>
        <time>2013-11-20T11:59:57Z</time>
      </trkpt>
      <trkpt lat="43.25312" lon="5.67494">
        <ele>293.5</ele>
        <time>2013-11-20T12:00:04Z</time>
      </trkpt>
      <trkpt lat="43.25312" lon="5.67495">
        <ele>293.1</ele>
        <time>2013-11-20T12:00:05Z</time>
      </trkpt>
      <trkpt lat="43.25313" lon="5.67506">
        <ele>293.2</ele>
        <time>2013-11-20T12:00:17Z</time>
      </trkpt>
      <trkpt lat="43.25313" lon="5.67511">
        <ele>293.2</ele>
        <time>2013-11-20T12:00:23Z</time>
      </trkpt>
      <trkpt lat="43.25314" lon="5.67517">
        <ele>293</ele>
        <time>2013-11-20T12:00:28Z</time>
      </trkpt>
      <trkpt lat="43.25314" lon="5.67522">
        <ele>293.3</ele>
        <time>2013-11-20T12:00:35Z</time>
      </trkpt>
      <trkpt lat="43.25315" lon="5.67528">
        <ele>293.3</ele>
        <time>2013-11-20T12:00:42Z</time>
      </trkpt>
      <trkpt lat="43.25317" lon="5.67533">
        <ele>293</ele>
        <time>2013-11-20T12:00:48Z</time>
      </trkpt>
      <trkpt lat="43.25318" lon="5.67538">
        <ele>293.6</ele>
        <time>2013-11-20T12:00:53Z</time>
      </trkpt>
      <trkpt lat="43.25318" lon="5.67544">
        <ele>295.3</ele>
        <time>2013-11-20T12:00:58Z</time>
      </trkpt>
      <trkpt lat="43.25319" lon="5.67549">
        <ele>296.7</ele>
        <time>2013-11-20T12:01:02Z</time>
      </trkpt>
      <trkpt lat="43.25321" lon="5.67554">
        <ele>296</ele>
        <time>2013-11-20T12:01:07Z</time>
      </trkpt>
      <trkpt lat="43.25321" lon="5.67555">
        <ele>295.5</ele>
        <time>2013-11-20T12:01:08Z</time>
      </trkpt>
      <trkpt lat="43.25322" lon="5.67564">
        <ele>292.2</ele>
        <time>2013-11-20T12:01:18Z</time>
      </trkpt>
      <trkpt lat="43.25321" lon="5.6757">
        <ele>292.3</ele>
        <time>2013-11-20T12:01:22Z</time>
      </trkpt>
      <trkpt lat="43.25321" lon="5.67575">
        <ele>292.2</ele>
        <time>2013-11-20T12:01:26Z</time>
      </trkpt>
      <trkpt lat="43.25321" lon="5.67581">
        <ele>292.2</ele>
        <time>2013-11-20T12:01:31Z</time>
      </trkpt>
      <trkpt lat="43.2532" lon="5.67587">
        <ele>291.5</ele>
        <time>2013-11-20T12:01:37Z</time>
      </trkpt>
      <trkpt lat="43.25318" lon="5.67592">
        <ele>292.2</ele>
        <time>2013-11-20T12:01:42Z</time>
      </trkpt>
      <trkpt lat="43.25316" lon="5.67597">
        <ele>293.8</ele>
        <time>2013-11-20T12:01:47Z</time>
      </trkpt>
      <trkpt lat="43.25315" lon="5.67602">
        <ele>295.3</ele>
        <time>2013-11-20T12:01:52Z</time>
      </trkpt>
      <trkpt lat="43.25313" lon="5.67607">
        <ele>297.2</ele>
        <time>2013-11-20T12:01:57Z</time>
      </trkpt>
      <trkpt lat="43.25312" lon="5.67613">
        <ele>298.8</ele>
        <time>2013-11-20T12:02:02Z</time>
      </trkpt>
      <trkpt lat="43.2531" lon="5.67618">
        <ele>298.7</ele>
        <time>2013-11-20T12:02:08Z</time>
      </trkpt>
      <trkpt lat="43.2531" lon="5.67619">
        <ele>298.7</ele>
        <time>2013-11-20T12:02:09Z</time>
      </trkpt>
      <trkpt lat="43.25308" lon="5.67628">
        <ele>299.3</ele>
        <time>2013-11-20T12:02:16Z</time>
      </trkpt>
      <trkpt lat="43.25307" lon="5.67632">
        <ele>299.8</ele>
        <time>2013-11-20T12:02:19Z</time>
      </trkpt>
      <trkpt lat="43.25306" lon="5.67638">
        <ele>302.7</ele>
        <time>2013-11-20T12:02:23Z</time>
      </trkpt>
      <trkpt lat="43.25306" lon="5.67643">
        <ele>303.7</ele>
        <time>2013-11-20T12:02:28Z</time>
      </trkpt>
      <trkpt lat="43.25304" lon="5.67649">
        <ele>302.8</ele>
        <time>2013-11-20T12:02:34Z</time>
      </trkpt>
      <trkpt lat="43.25302" lon="5.67654">
        <ele>302.2</ele>
        <time>2013-11-20T12:02:40Z</time>
      </trkpt>
      <trkpt lat="43.253" lon="5.67659">
        <ele>301.7</ele>
        <time>2013-11-20T12:02:46Z</time>
      </trkpt>
      <trkpt lat="43.25298" lon="5.67664">
        <ele>301.5</ele>
        <time>2013-11-20T12:02:51Z</time>
      </trkpt>
      <trkpt lat="43.25297" lon="5.67669">
        <ele>302.3</ele>
        <time>2013-11-20T12:02:55Z</time>
      </trkpt>
      <trkpt lat="43.25295" lon="5.67674">
        <ele>302.3</ele>
        <time>2013-11-20T12:03:01Z</time>
      </trkpt>
      <trkpt lat="43.25292" lon="5.67678">
        <ele>302.3</ele>
        <time>2013-11-20T12:03:07Z</time>
      </trkpt>
      <trkpt lat="43.2529" lon="5.67683">
        <ele>303.5</ele>
        <time>2013-11-20T12:03:11Z</time>
      </trkpt>
      <trkpt lat="43.2529" lon="5.67684">
        <ele>303.5</ele>
        <time>2013-11-20T12:03:12Z</time>
      </trkpt>
      <trkpt lat="43.25286" lon="5.67693">
        <ele>305.8</ele>
        <time>2013-11-20T12:03:19Z</time>
      </trkpt>
      <trkpt lat="43.25285" lon="5.67699">
        <ele>306.1</ele>
        <time>2013-11-20T12:03:23Z</time>
      </trkpt>
      <trkpt lat="43.25284" lon="5.67704">
        <ele>305.7</ele>
        <time>2013-11-20T12:03:27Z</time>
      </trkpt>
      <trkpt lat="43.25283" lon="5.6771">
        <ele>304.8</ele>
        <time>2013-11-20T12:03:32Z</time>
      </trkpt>
      <trkpt lat="43.25284" lon="5.67715">
        <ele>304.3</ele>
        <time>2013-11-20T12:03:36Z</time>
      </trkpt>
      <trkpt lat="43.25284" lon="5.6772">
        <ele>304</ele>
        <time>2013-11-20T12:03:40Z</time>
      </trkpt>
      <trkpt lat="43.25283" lon="5.67726">
        <ele>303.7</ele>
        <time>2013-11-20T12:03:44Z</time>
      </trkpt>
      <trkpt lat="43.25282" lon="5.67731">
        <ele>303.7</ele>
        <time>2013-11-20T12:03:48Z</time>
      </trkpt>
      <trkpt lat="43.25281" lon="5.67737">
        <ele>303.7</ele>
        <time>2013-11-20T12:03:52Z</time>
      </trkpt>
      <trkpt lat="43.25281" lon="5.67742">
        <ele>303.6</ele>
        <time>2013-11-20T12:03:56Z</time>
      </trkpt>
      <trkpt lat="43.2528" lon="5.67748">
        <ele>301</ele>
        <time>2013-11-20T12:04:02Z</time>
      </trkpt>
      <trkpt lat="43.25279" lon="5.67753">
        <ele>304</ele>
        <time>2013-11-20T12:04:04Z</time>
      </trkpt>
      <trkpt lat="43.25279" lon="5.67757">
        <ele>305.7</ele>
        <time>2013-11-20T12:04:06Z</time>
      </trkpt>
      <trkpt lat="43.25279" lon="5.67764">
        <ele>307.3</ele>
        <time>2013-11-20T12:04:09Z</time>
      </trkpt>
      <trkpt lat="43.2528" lon="5.67769">
        <ele>308.8</ele>
        <time>2013-11-20T12:04:13Z</time>
      </trkpt>
      <trkpt lat="43.2528" lon="5.6777">
        <ele>309.3</ele>
        <time>2013-11-20T12:04:14Z</time>
      </trkpt>
      <trkpt lat="43.25281" lon="5.6778">
        <ele>308.6</ele>
        <time>2013-11-20T12:04:23Z</time>
      </trkpt>
      <trkpt lat="43.25282" lon="5.67786">
        <ele>309</ele>
        <time>2013-11-20T12:04:28Z</time>
      </trkpt>
      <trkpt lat="43.25283" lon="5.67792">
        <ele>309.8</ele>
        <time>2013-11-20T12:04:33Z</time>
      </trkpt>
      <trkpt lat="43.25285" lon="5.67797">
        <ele>312.1</ele>
        <time>2013-11-20T12:04:37Z</time>
      </trkpt>
      <trkpt lat="43.25286" lon="5.67802">
        <ele>313.3</ele>
        <time>2013-11-20T12:04:41Z</time>
      </trkpt>
      <trkpt lat="43.25287" lon="5.67807">
        <ele>313.3</ele>
        <time>2013-11-20T12:04:45Z</time>
      </trkpt>
      <trkpt lat="43.25288" lon="5.67812">
        <ele>315.7</ele>
        <time>2013-11-20T12:04:49Z</time>
      </trkpt>
      <trkpt lat="43.2529" lon="5.67817">
        <ele>315</ele>
        <time>2013-11-20T12:04:53Z</time>
      </trkpt>
      <trkpt lat="43.25292" lon="5.67822">
        <ele>313.7</ele>
        <time>2013-11-20T12:04:57Z</time>
      </trkpt>
      <trkpt lat="43.25293" lon="5.67827">
        <ele>311.8</ele>
        <time>2013-11-20T12:05:02Z</time>
      </trkpt>
      <trkpt lat="43.25292" lon="5.67832">
        <ele>311.6</ele>
        <time>2013-11-20T12:05:06Z</time>
      </trkpt>
      <trkpt lat="43.25291" lon="5.67837">
        <ele>311.7</ele>
        <time>2013-11-20T12:05:13Z</time>
      </trkpt>
      <trkpt lat="43.2529" lon="5.67843">
        <ele>310.7</ele>
        <time>2013-11-20T12:05:20Z</time>
      </trkpt>
      <trkpt lat="43.2529" lon="5.67845">
        <ele>311.7</ele>
        <time>2013-11-20T12:05:21Z</time>
      </trkpt>
      <trkpt lat="43.25289" lon="5.67854">
        <ele>310.5</ele>
        <time>2013-11-20T12:05:32Z</time>
      </trkpt>
      <trkpt lat="43.25292" lon="5.67859">
        <ele>310.5</ele>
        <time>2013-11-20T12:05:37Z</time>
      </trkpt>
      <trkpt lat="43.25293" lon="5.67864">
        <ele>310.7</ele>
        <time>2013-11-20T12:05:41Z</time>
      </trkpt>
      <trkpt lat="43.25293" lon="5.6787">
        <ele>313.7</ele>
        <time>2013-11-20T12:05:44Z</time>
      </trkpt>
      <trkpt lat="43.25292" lon="5.67876">
        <ele>315.7</ele>
        <time>2013-11-20T12:05:48Z</time>
      </trkpt>
      <trkpt lat="43.25292" lon="5.67882">
        <ele>316.2</ele>
        <time>2013-11-20T12:05:52Z</time>
      </trkpt>
      <trkpt lat="43.25291" lon="5.67887">
        <ele>316.7</ele>
        <time>2013-11-20T12:05:57Z</time>
      </trkpt>
      <trkpt lat="43.25292" lon="5.67893">
        <ele>316.6</ele>
        <time>2013-11-20T12:06:03Z</time>
      </trkpt>
      <trkpt lat="43.25291" lon="5.67899">
        <ele>317.2</ele>
        <time>2013-11-20T12:06:08Z</time>
      </trkpt>
      <trkpt lat="43.2529" lon="5.67904">
        <ele>316.8</ele>
        <time>2013-11-20T12:06:12Z</time>
      </trkpt>
      <trkpt lat="43.2529" lon="5.6791">
        <ele>315.8</ele>
        <time>2013-11-20T12:06:17Z</time>
      </trkpt>
      <trkpt lat="43.2529" lon="5.67916">
        <ele>314.7</ele>
        <time>2013-11-20T12:06:24Z</time>
      </trkpt>
      <trkpt lat="43.2529" lon="5.67917">
        <ele>314.7</ele>
        <time>2013-11-20T12:06:25Z</time>
      </trkpt>
      <trkpt lat="43.25288" lon="5.67926">
        <ele>316.7</ele>
        <time>2013-11-20T12:06:32Z</time>
      </trkpt>
      <trkpt lat="43.25288" lon="5.67932">
        <ele>317.8</ele>
        <time>2013-11-20T12:06:36Z</time>
      </trkpt>
      <trkpt lat="43.25286" lon="5.67937">
        <ele>318.2</ele>
        <time>2013-11-20T12:06:40Z</time>
      </trkpt>
      <trkpt lat="43.25285" lon="5.67942">
        <ele>318.6</ele>
        <time>2013-11-20T12:06:43Z</time>
      </trkpt>
      <trkpt lat="43.25283" lon="5.67947">
        <ele>319.2</ele>
        <time>2013-11-20T12:06:47Z</time>
      </trkpt>
      <trkpt lat="43.25281" lon="5.67952">
        <ele>318.7</ele>
        <time>2013-11-20T12:06:52Z</time>
      </trkpt>
      <trkpt lat="43.25279" lon="5.67956">
        <ele>318.7</ele>
        <time>2013-11-20T12:06:56Z</time>
      </trkpt>
      <trkpt lat="43.25276" lon="5.6796">
        <ele>319.1</ele>
        <time>2013-11-20T12:06:59Z</time>
      </trkpt>
      <trkpt lat="43.25274" lon="5.67965">
        <ele>319.3</ele>
        <time>2013-11-20T12:07:03Z</time>
      </trkpt>
      <trkpt lat="43.25272" lon="5.67969">
        <ele>319.8</ele>
        <time>2013-11-20T12:07:06Z</time>
      </trkpt>
      <trkpt lat="43.2527" lon="5.67974">
        <ele>320.1</ele>
        <time>2013-11-20T12:07:10Z</time>
      </trkpt>
      <trkpt lat="43.25268" lon="5.67978">
        <ele>320.7</ele>
        <time>2013-11-20T12:07:14Z</time>
      </trkpt>
      <trkpt lat="43.25267" lon="5.67984">
        <ele>321.3</ele>
        <time>2013-11-20T12:07:17Z</time>
      </trkpt>
      <trkpt lat="43.25265" lon="5.67989">
        <ele>321.7</ele>
        <time>2013-11-20T12:07:21Z</time>
      </trkpt>
      <trkpt lat="43.25263" lon="5.67994">
        <ele>322.2</ele>
        <time>2013-11-20T12:07:25Z</time>
      </trkpt>
      <trkpt lat="43.25263" lon="5.67995">
        <ele>322.2</ele>
        <time>2013-11-20T12:07:26Z</time>
      </trkpt>
      <trkpt lat="43.2526" lon="5.68003">
        <ele>322.8</ele>
        <time>2013-11-20T12:07:31Z</time>
      </trkpt>
      <trkpt lat="43.25259" lon="5.68009">
        <ele>323.6</ele>
        <time>2013-11-20T12:07:35Z</time>
      </trkpt>
      <trkpt lat="43.25258" lon="5.68014">
        <ele>323.2</ele>
        <time>2013-11-20T12:07:39Z</time>
      </trkpt>
      <trkpt lat="43.25257" lon="5.68019">
        <ele>322.7</ele>
        <time>2013-11-20T12:07:43Z</time>
      </trkpt>
      <trkpt lat="43.25256" lon="5.68024">
        <ele>322.3</ele>
        <time>2013-11-20T12:07:47Z</time>
      </trkpt>
      <trkpt lat="43.25256" lon="5.68029">
        <ele>322.7</ele>
        <time>2013-11-20T12:07:50Z</time>
      </trkpt>
      <trkpt lat="43.25255" lon="5.68035">
        <ele>323</ele>
        <time>2013-11-20T12:07:54Z</time>
      </trkpt>
      <trkpt lat="43.25255" lon="5.6804">
        <ele>322.5</ele>
        <time>2013-11-20T12:07:59Z</time>
      </trkpt>
      <trkpt lat="43.25254" lon="5.68045">
        <ele>322.1</ele>
        <time>2013-11-20T12:08:03Z</time>
      </trkpt>
      <trkpt lat="43.25254" lon="5.6805">
        <ele>322.2</ele>
        <time>2013-11-20T12:08:06Z</time>
      </trkpt>
      <trkpt lat="43.25254" lon="5.68056">
        <ele>322.5</ele>
        <time>2013-11-20T12:08:10Z</time>
      </trkpt>
      <trkpt lat="43.25253" lon="5.68061">
        <ele>324</ele>
        <time>2013-11-20T12:08:13Z</time>
      </trkpt>
      <trkpt lat="43.25253" lon="5.68066">
        <ele>324.2</ele>
        <time>2013-11-20T12:08:17Z</time>
      </trkpt>
      <trkpt lat="43.25253" lon="5.68071">
        <ele>324.5</ele>
        <time>2013-11-20T12:08:21Z</time>
      </trkpt>
      <trkpt lat="43.25254" lon="5.68076">
        <ele>324.5</ele>
        <time>2013-11-20T12:08:25Z</time>
      </trkpt>
      <trkpt lat="43.25254" lon="5.68081">
        <ele>324.2</ele>
        <time>2013-11-20T12:08:29Z</time>
      </trkpt>
      <trkpt lat="43.25254" lon="5.68082">
        <ele>324</ele>
        <time>2013-11-20T12:08:30Z</time>
      </trkpt>
      <trkpt lat="43.25254" lon="5.6809">
        <ele>324.8</ele>
        <time>2013-11-20T12:08:35Z</time>
      </trkpt>
      <trkpt lat="43.25254" lon="5.68096">
        <ele>325.7</ele>
        <time>2013-11-20T12:08:38Z</time>
      </trkpt>
      <trkpt lat="43.25254" lon="5.68102">
        <ele>326.6</ele>
        <time>2013-11-20T12:08:42Z</time>
      </trkpt>
      <trkpt lat="43.25254" lon="5.68106">
        <ele>327.7</ele>
        <time>2013-11-20T12:08:44Z</time>
      </trkpt>
      <trkpt lat="43.25253" lon="5.68111">
        <ele>329</ele>
        <time>2013-11-20T12:08:46Z</time>
      </trkpt>
      <trkpt lat="43.25253" lon="5.68117">
        <ele>332.5</ele>
        <time>2013-11-20T12:08:48Z</time>
      </trkpt>
      <trkpt lat="43.25253" lon="5.68122">
        <ele>332.7</ele>
        <time>2013-11-20T12:08:51Z</time>
      </trkpt>
      <trkpt lat="43.25253" lon="5.68128">
        <ele>333.3</ele>
        <time>2013-11-20T12:08:54Z</time>
      </trkpt>
      <trkpt lat="43.25254" lon="5.68133">
        <ele>334</ele>
        <time>2013-11-20T12:08:57Z</time>
      </trkpt>
      <trkpt lat="43.25254" lon="5.68139">
        <ele>333.7</ele>
        <time>2013-11-20T12:09:00Z</time>
      </trkpt>
      <trkpt lat="43.25254" lon="5.68145">
        <ele>332</ele>
        <time>2013-11-20T12:09:04Z</time>
      </trkpt>
      <trkpt lat="43.25255" lon="5.68151">
        <ele>331.7</ele>
        <time>2013-11-20T12:09:08Z</time>
      </trkpt>
      <trkpt lat="43.25257" lon="5.68156">
        <ele>332</ele>
        <time>2013-11-20T12:09:11Z</time>
      </trkpt>
      <trkpt lat="43.25258" lon="5.68161">
        <ele>332.6</ele>
        <time>2013-11-20T12:09:14Z</time>
      </trkpt>
      <trkpt lat="43.25258" lon="5.68166">
        <ele>333</ele>
        <time>2013-11-20T12:09:17Z</time>
      </trkpt>
      <trkpt lat="43.25259" lon="5.68171">
        <ele>334.8</ele>
        <time>2013-11-20T12:09:20Z</time>
      </trkpt>
      <trkpt lat="43.2526" lon="5.68176">
        <ele>335.7</ele>
        <time>2013-11-20T12:09:23Z</time>
      </trkpt>
      <trkpt lat="43.25261" lon="5.68181">
        <ele>336.5</ele>
        <time>2013-11-20T12:09:27Z</time>
      </trkpt>
      <trkpt lat="43.25263" lon="5.68186">
        <ele>337.7</ele>
        <time>2013-11-20T12:09:31Z</time>
      </trkpt>
      <trkpt lat="43.25263" lon="5.68188">
        <ele>338</ele>
        <time>2013-11-20T12:09:32Z</time>
      </trkpt>
      <trkpt lat="43.25264" lon="5.68196">
        <ele>338.6</ele>
        <time>2013-11-20T12:09:38Z</time>
      </trkpt>
      <trkpt lat="43.25265" lon="5.68201">
        <ele>339.7</ele>
        <time>2013-11-20T12:09:41Z</time>
      </trkpt>
      <trkpt lat="43.25265" lon="5.68207">
        <ele>340.5</ele>
        <time>2013-11-20T12:09:45Z</time>
      </trkpt>
      <trkpt lat="43.25266" lon="5.68211">
        <ele>341.2</ele>
        <time>2013-11-20T12:09:48Z</time>
      </trkpt>
      <trkpt lat="43.25267" lon="5.68217">
        <ele>342.5</ele>
        <time>2013-11-20T12:09:52Z</time>
      </trkpt>
      <trkpt lat="43.25267" lon="5.68223">
        <ele>341.7</ele>
        <time>2013-11-20T12:09:56Z</time>
      </trkpt>
      <trkpt lat="43.25268" lon="5.68228">
        <ele>341.3</ele>
        <time>2013-11-20T12:10:00Z</time>
      </trkpt>
      <trkpt lat="43.25268" lon="5.68234">
        <ele>341.3</ele>
        <time>2013-11-20T12:10:05Z</time>
      </trkpt>
      <trkpt lat="43.25269" lon="5.6824">
        <ele>342.1</ele>
        <time>2013-11-20T12:10:09Z</time>
      </trkpt>
      <trkpt lat="43.2527" lon="5.68246">
        <ele>342.5</ele>
        <time>2013-11-20T12:10:13Z</time>
      </trkpt>
      <trkpt lat="43.2527" lon="5.68251">
        <ele>342.7</ele>
        <time>2013-11-20T12:10:17Z</time>
      </trkpt>
      <trkpt lat="43.25271" lon="5.68257">
        <ele>343.1</ele>
        <time>2013-11-20T12:10:21Z</time>
      </trkpt>
      <trkpt lat="43.25272" lon="5.68262">
        <ele>343.5</ele>
        <time>2013-11-20T12:10:25Z</time>
      </trkpt>
      <trkpt lat="43.25273" lon="5.68268">
        <ele>344.3</ele>
        <time>2013-11-20T12:10:29Z</time>
      </trkpt>
      <trkpt lat="43.25274" lon="5.68273">
        <ele>345.5</ele>
        <time>2013-11-20T12:10:33Z</time>
      </trkpt>
      <trkpt lat="43.25274" lon="5.68274">
        <ele>345.7</ele>
        <time>2013-11-20T12:10:34Z</time>
      </trkpt>
      <trkpt lat="43.25275" lon="5.68285">
        <ele>346.1</ele>
        <time>2013-11-20T12:10:43Z</time>
      </trkpt>
      <trkpt lat="43.25276" lon="5.68291">
        <ele>344.7</ele>
        <time>2013-11-20T12:10:49Z</time>
      </trkpt>
      <trkpt lat="43.25277" lon="5.68296">
        <ele>344.6</ele>
        <time>2013-11-20T12:10:53Z</time>
      </trkpt>
      <trkpt lat="43.25277" lon="5.68302">
        <ele>341.3</ele>
        <time>2013-11-20T12:10:59Z</time>
      </trkpt>
      <trkpt lat="43.25277" lon="5.68307">
        <ele>343</ele>
        <time>2013-11-20T12:11:04Z</time>
      </trkpt>
      <trkpt lat="43.25277" lon="5.68313">
        <ele>345.7</ele>
        <time>2013-11-20T12:11:09Z</time>
      </trkpt>
      <trkpt lat="43.25278" lon="5.68318">
        <ele>346.8</ele>
        <time>2013-11-20T12:11:14Z</time>
      </trkpt>
      <trkpt lat="43.25278" lon="5.68325">
        <ele>348.3</ele>
        <time>2013-11-20T12:11:20Z</time>
      </trkpt>
      <trkpt lat="43.25278" lon="5.6833">
        <ele>350.6</ele>
        <time>2013-11-20T12:11:23Z</time>
      </trkpt>
      <trkpt lat="43.2528" lon="5.68335">
        <ele>350.7</ele>
        <time>2013-11-20T12:11:27Z</time>
      </trkpt>
      <trkpt lat="43.25281" lon="5.6834">
        <ele>350.2</ele>
        <time>2013-11-20T12:11:31Z</time>
      </trkpt>
      <trkpt lat="43.25283" lon="5.68345">
        <ele>349.3</ele>
        <time>2013-11-20T12:11:36Z</time>
      </trkpt>
      <trkpt lat="43.25283" lon="5.68346">
        <ele>349.7</ele>
        <time>2013-11-20T12:11:37Z</time>
      </trkpt>
      <trkpt lat="43.25284" lon="5.68356">
        <ele>349.6</ele>
        <time>2013-11-20T12:11:46Z</time>
      </trkpt>
      <trkpt lat="43.25284" lon="5.68362">
        <ele>350.8</ele>
        <time>2013-11-20T12:11:51Z</time>
      </trkpt>
      <trkpt lat="43.25286" lon="5.68367">
        <ele>349.7</ele>
        <time>2013-11-20T12:11:56Z</time>
      </trkpt>
      <trkpt lat="43.25285" lon="5.68373">
        <ele>348.7</ele>
        <time>2013-11-20T12:12:01Z</time>
      </trkpt>
      <trkpt lat="43.25286" lon="5.68378">
        <ele>349.2</ele>
        <time>2013-11-20T12:12:06Z</time>
      </trkpt>
      <trkpt lat="43.25286" lon="5.68384">
        <ele>351.1</ele>
        <time>2013-11-20T12:12:12Z</time>
      </trkpt>
      <trkpt lat="43.25286" lon="5.6839">
        <ele>351.3</ele>
        <time>2013-11-20T12:12:17Z</time>
      </trkpt>
      <trkpt lat="43.25287" lon="5.68395">
        <ele>351.7</ele>
        <time>2013-11-20T12:12:20Z</time>
      </trkpt>
      <trkpt lat="43.25287" lon="5.684">
        <ele>352.2</ele>
        <time>2013-11-20T12:12:23Z</time>
      </trkpt>
      <trkpt lat="43.25287" lon="5.68404">
        <ele>352.5</ele>
        <time>2013-11-20T12:12:26Z</time>
      </trkpt>
      <trkpt lat="43.25286" lon="5.6841">
        <ele>352.5</ele>
        <time>2013-11-20T12:12:30Z</time>
      </trkpt>
      <trkpt lat="43.25286" lon="5.68416">
        <ele>353.1</ele>
        <time>2013-11-20T12:12:34Z</time>
      </trkpt>
      <trkpt lat="43.25285" lon="5.6842">
        <ele>354.1</ele>
        <time>2013-11-20T12:12:37Z</time>
      </trkpt>
      <trkpt lat="43.25285" lon="5.68422">
        <ele>354.3</ele>
        <time>2013-11-20T12:12:38Z</time>
      </trkpt>
      <trkpt lat="43.25283" lon="5.68431">
        <ele>356.1</ele>
        <time>2013-11-20T12:12:45Z</time>
      </trkpt>
      <trkpt lat="43.25282" lon="5.68437">
        <ele>356.2</ele>
        <time>2013-11-20T12:12:50Z</time>
      </trkpt>
      <trkpt lat="43.25282" lon="5.68442">
        <ele>356.1</ele>
        <time>2013-11-20T12:12:54Z</time>
      </trkpt>
      <trkpt lat="43.25282" lon="5.68448">
        <ele>356.1</ele>
        <time>2013-11-20T12:12:59Z</time>
      </trkpt>
      <trkpt lat="43.25282" lon="5.68453">
        <ele>355.7</ele>
        <time>2013-11-20T12:13:03Z</time>
      </trkpt>
      <trkpt lat="43.25282" lon="5.68459">
        <ele>356.1</ele>
        <time>2013-11-20T12:13:07Z</time>
      </trkpt>
      <trkpt lat="43.25282" lon="5.68465">
        <ele>356.7</ele>
        <time>2013-11-20T12:13:11Z</time>
      </trkpt>
      <trkpt lat="43.25282" lon="5.68471">
        <ele>357.3</ele>
        <time>2013-11-20T12:13:15Z</time>
      </trkpt>
      <trkpt lat="43.25282" lon="5.68477">
        <ele>357</ele>
        <time>2013-11-20T12:13:20Z</time>
      </trkpt>
      <trkpt lat="43.25282" lon="5.68482">
        <ele>357</ele>
        <time>2013-11-20T12:13:24Z</time>
      </trkpt>
      <trkpt lat="43.25282" lon="5.68487">
        <ele>356.7</ele>
        <time>2013-11-20T12:13:28Z</time>
      </trkpt>
      <trkpt lat="43.25282" lon="5.68492">
        <ele>357.3</ele>
        <time>2013-11-20T12:13:31Z</time>
      </trkpt>
      <trkpt lat="43.25281" lon="5.68495">
        <ele>359.3</ele>
        <time>2013-11-20T12:13:32Z</time>
      </trkpt>
      <trkpt lat="43.2528" lon="5.68501">
        <ele>361.7</ele>
        <time>2013-11-20T12:13:34Z</time>
      </trkpt>
      <trkpt lat="43.25281" lon="5.68506">
        <ele>362.2</ele>
        <time>2013-11-20T12:13:37Z</time>
      </trkpt>
      <trkpt lat="43.2528" lon="5.68511">
        <ele>364.2</ele>
        <time>2013-11-20T12:13:39Z</time>
      </trkpt>
      <trkpt lat="43.2528" lon="5.68513">
        <ele>364.2</ele>
        <time>2013-11-20T12:13:40Z</time>
      </trkpt>
      <trkpt lat="43.25279" lon="5.68522">
        <ele>363.5</ele>
        <time>2013-11-20T12:13:46Z</time>
      </trkpt>
      <trkpt lat="43.25279" lon="5.68528">
        <ele>363.2</ele>
        <time>2013-11-20T12:13:50Z</time>
      </trkpt>
      <trkpt lat="43.25279" lon="5.68534">
        <ele>362.8</ele>
        <time>2013-11-20T12:13:53Z</time>
      </trkpt>
      <trkpt lat="43.2528" lon="5.68539">
        <ele>363</ele>
        <time>2013-11-20T12:13:56Z</time>
      </trkpt>
      <trkpt lat="43.2528" lon="5.68544">
        <ele>363.6</ele>
        <time>2013-11-20T12:14:00Z</time>
      </trkpt>
      <trkpt lat="43.25281" lon="5.68549">
        <ele>363.7</ele>
        <time>2013-11-20T12:14:03Z</time>
      </trkpt>
      <trkpt lat="43.25281" lon="5.68554">
        <ele>363.7</ele>
        <time>2013-11-20T12:14:06Z</time>
      </trkpt>
      <trkpt lat="43.25281" lon="5.68559">
        <ele>364.7</ele>
        <time>2013-11-20T12:14:09Z</time>
      </trkpt>
      <trkpt lat="43.25282" lon="5.68565">
        <ele>366.7</ele>
        <time>2013-11-20T12:14:12Z</time>
      </trkpt>
      <trkpt lat="43.25282" lon="5.6857">
        <ele>368.2</ele>
        <time>2013-11-20T12:14:15Z</time>
      </trkpt>
      <trkpt lat="43.25283" lon="5.68575">
        <ele>369.2</ele>
        <time>2013-11-20T12:14:18Z</time>
      </trkpt>
      <trkpt lat="43.25283" lon="5.6858">
        <ele>370.1</ele>
        <time>2013-11-20T12:14:21Z</time>
      </trkpt>
      <trkpt lat="43.25284" lon="5.68584">
        <ele>370.7</ele>
        <time>2013-11-20T12:14:24Z</time>
      </trkpt>
      <trkpt lat="43.25284" lon="5.6859">
        <ele>370.3</ele>
        <time>2013-11-20T12:14:27Z</time>
      </trkpt>
      <trkpt lat="43.25285" lon="5.68594">
        <ele>370.2</ele>
        <time>2013-11-20T12:14:30Z</time>
      </trkpt>
      <trkpt lat="43.25284" lon="5.68599">
        <ele>370.8</ele>
        <time>2013-11-20T12:14:33Z</time>
      </trkpt>
      <trkpt lat="43.25285" lon="5.68605">
        <ele>371.3</ele>
        <time>2013-11-20T12:14:37Z</time>
      </trkpt>
      <trkpt lat="43.25286" lon="5.6861">
        <ele>370.8</ele>
        <time>2013-11-20T12:14:41Z</time>
      </trkpt>
      <trkpt lat="43.25286" lon="5.68611">
        <ele>370.8</ele>
        <time>2013-11-20T12:14:42Z</time>
      </trkpt>
      <trkpt lat="43.25285" lon="5.68622">
        <ele>369.8</ele>
        <time>2013-11-20T12:14:50Z</time>
      </trkpt>
      <trkpt lat="43.25285" lon="5.68627">
        <ele>369.2</ele>
        <time>2013-11-20T12:14:54Z</time>
      </trkpt>
      <trkpt lat="43.25283" lon="5.68633">
        <ele>368.7</ele>
        <time>2013-11-20T12:14:58Z</time>
      </trkpt>
      <trkpt lat="43.25281" lon="5.68637">
        <ele>368.5</ele>
        <time>2013-11-20T12:15:01Z</time>
      </trkpt>
      <trkpt lat="43.25279" lon="5.68641">
        <ele>368.5</ele>
        <time>2013-11-20T12:15:04Z</time>
      </trkpt>
      <trkpt lat="43.25277" lon="5.68645">
        <ele>369.2</ele>
        <time>2013-11-20T12:15:07Z</time>
      </trkpt>
      <trkpt lat="43.25275" lon="5.6865">
        <ele>371</ele>
        <time>2013-11-20T12:15:10Z</time>
      </trkpt>
      <trkpt lat="43.25272" lon="5.68654">
        <ele>372.2</ele>
        <time>2013-11-20T12:15:13Z</time>
      </trkpt>
      <trkpt lat="43.25269" lon="5.68658">
        <ele>370.7</ele>
        <time>2013-11-20T12:15:20Z</time>
      </trkpt>
      <trkpt lat="43.25266" lon="5.68661">
        <ele>372.2</ele>
        <time>2013-11-20T12:15:24Z</time>
      </trkpt>
      <trkpt lat="43.25263" lon="5.68665">
        <ele>372.6</ele>
        <time>2013-11-20T12:15:28Z</time>
      </trkpt>
      <trkpt lat="43.2526" lon="5.68668">
        <ele>372.1</ele>
        <time>2013-11-20T12:15:32Z</time>
      </trkpt>
      <trkpt lat="43.25258" lon="5.68673">
        <ele>372.1</ele>
        <time>2013-11-20T12:15:36Z</time>
      </trkpt>
      <trkpt lat="43.25256" lon="5.68677">
        <ele>372.2</ele>
        <time>2013-11-20T12:15:40Z</time>
      </trkpt>
      <trkpt lat="43.25253" lon="5.68682">
        <ele>372.3</ele>
        <time>2013-11-20T12:15:44Z</time>
      </trkpt>
      <trkpt lat="43.25253" lon="5.68683">
        <ele>372.2</ele>
        <time>2013-11-20T12:15:45Z</time>
      </trkpt>
      <trkpt lat="43.25248" lon="5.6869">
        <ele>371.6</ele>
        <time>2013-11-20T12:15:52Z</time>
      </trkpt>
      <trkpt lat="43.25245" lon="5.68694">
        <ele>371.2</ele>
        <time>2013-11-20T12:15:56Z</time>
      </trkpt>
      <trkpt lat="43.25242" lon="5.68699">
        <ele>370.3</ele>
        <time>2013-11-20T12:16:00Z</time>
      </trkpt>
      <trkpt lat="43.2524" lon="5.68703">
        <ele>370</ele>
        <time>2013-11-20T12:16:03Z</time>
      </trkpt>
      <trkpt lat="43.25237" lon="5.68707">
        <ele>369.5</ele>
        <time>2013-11-20T12:16:07Z</time>
      </trkpt>
      <trkpt lat="43.25235" lon="5.68711">
        <ele>368.8</ele>
        <time>2013-11-20T12:16:11Z</time>
      </trkpt>
      <trkpt lat="43.25233" lon="5.68715">
        <ele>368.7</ele>
        <time>2013-11-20T12:16:14Z</time>
      </trkpt>
      <trkpt lat="43.2523" lon="5.68718">
        <ele>370</ele>
        <time>2013-11-20T12:16:17Z</time>
      </trkpt>
      <trkpt lat="43.25227" lon="5.68722">
        <ele>370.5</ele>
        <time>2013-11-20T12:16:20Z</time>
      </trkpt>
      <trkpt lat="43.25224" lon="5.68724">
        <ele>370.5</ele>
        <time>2013-11-20T12:16:23Z</time>
      </trkpt>
      <trkpt lat="43.25221" lon="5.68727">
        <ele>370.7</ele>
        <time>2013-11-20T12:16:26Z</time>
      </trkpt>
      <trkpt lat="43.25218" lon="5.6873">
        <ele>370.7</ele>
        <time>2013-11-20T12:16:29Z</time>
      </trkpt>
      <trkpt lat="43.25215" lon="5.68733">
        <ele>371.1</ele>
        <time>2013-11-20T12:16:33Z</time>
      </trkpt>
      <trkpt lat="43.25212" lon="5.68736">
        <ele>371.2</ele>
        <time>2013-11-20T12:16:36Z</time>
      </trkpt>
      <trkpt lat="43.2521" lon="5.6874">
        <ele>371</ele>
        <time>2013-11-20T12:16:39Z</time>
      </trkpt>
      <trkpt lat="43.25207" lon="5.68743">
        <ele>370.8</ele>
        <time>2013-11-20T12:16:42Z</time>
      </trkpt>
      <trkpt lat="43.25204" lon="5.68746">
        <ele>370.8</ele>
        <time>2013-11-20T12:16:46Z</time>
      </trkpt>
      <trkpt lat="43.25203" lon="5.68747">
        <ele>370.7</ele>
        <time>2013-11-20T12:16:47Z</time>
      </trkpt>
      <trkpt lat="43.25197" lon="5.68753">
        <ele>371.2</ele>
        <time>2013-11-20T12:16:54Z</time>
      </trkpt>
      <trkpt lat="43.25194" lon="5.68756">
        <ele>372</ele>
        <time>2013-11-20T12:16:58Z</time>
      </trkpt>
      <trkpt lat="43.2519" lon="5.6876">
        <ele>372.8</ele>
        <time>2013-11-20T12:17:03Z</time>
      </trkpt>
      <trkpt lat="43.25187" lon="5.68763">
        <ele>375.2</ele>
        <time>2013-11-20T12:17:08Z</time>
      </trkpt>
      <trkpt lat="43.25185" lon="5.68768">
        <ele>378.3</ele>
        <time>2013-11-20T12:17:15Z</time>
      </trkpt>
      <trkpt lat="43.25183" lon="5.68773">
        <ele>377.3</ele>
        <time>2013-11-20T12:17:20Z</time>
      </trkpt>
      <trkpt lat="43.25181" lon="5.68778">
        <ele>376.7</ele>
        <time>2013-11-20T12:17:24Z</time>
      </trkpt>
      <trkpt lat="43.25179" lon="5.68782">
        <ele>376.3</ele>
        <time>2013-11-20T12:17:27Z</time>
      </trkpt>
      <trkpt lat="43.25176" lon="5.68786">
        <ele>376.6</ele>
        <time>2013-11-20T12:17:31Z</time>
      </trkpt>
      <trkpt lat="43.25173" lon="5.6879">
        <ele>377.3</ele>
        <time>2013-11-20T12:17:35Z</time>
      </trkpt>
      <trkpt lat="43.2517" lon="5.68794">
        <ele>376.7</ele>
        <time>2013-11-20T12:17:39Z</time>
      </trkpt>
      <trkpt lat="43.25167" lon="5.68797">
        <ele>377.2</ele>
        <time>2013-11-20T12:17:42Z</time>
      </trkpt>
      <trkpt lat="43.25163" lon="5.688">
        <ele>376.6</ele>
        <time>2013-11-20T12:17:46Z</time>
      </trkpt>
      <trkpt lat="43.2516" lon="5.68803">
        <ele>375.8</ele>
        <time>2013-11-20T12:17:50Z</time>
      </trkpt>
      <trkpt lat="43.25159" lon="5.68804">
        <ele>375.8</ele>
        <time>2013-11-20T12:17:51Z</time>
      </trkpt>
      <trkpt lat="43.25153" lon="5.68808">
        <ele>375.3</ele>
        <time>2013-11-20T12:17:57Z</time>
      </trkpt>
      <trkpt lat="43.2515" lon="5.68812">
        <ele>374.6</ele>
        <time>2013-11-20T12:18:01Z</time>
      </trkpt>
      <trkpt lat="43.25147" lon="5.68815">
        <ele>374.2</ele>
        <time>2013-11-20T12:18:05Z</time>
      </trkpt>
      <trkpt lat="43.25143" lon="5.68818">
        <ele>374.5</ele>
        <time>2013-11-20T12:18:09Z</time>
      </trkpt>
      <trkpt lat="43.2514" lon="5.68822">
        <ele>373.7</ele>
        <time>2013-11-20T12:18:13Z</time>
      </trkpt>
      <trkpt lat="43.25137" lon="5.68825">
        <ele>372.8</ele>
        <time>2013-11-20T12:18:17Z</time>
      </trkpt>
      <trkpt lat="43.25133" lon="5.68827">
        <ele>371.6</ele>
        <time>2013-11-20T12:18:21Z</time>
      </trkpt>
      <trkpt lat="43.2513" lon="5.6883">
        <ele>370</ele>
        <time>2013-11-20T12:18:25Z</time>
      </trkpt>
      <trkpt lat="43.25126" lon="5.68832">
        <ele>367.2</ele>
        <time>2013-11-20T12:18:29Z</time>
      </trkpt>
      <trkpt lat="43.25122" lon="5.68834">
        <ele>364.2</ele>
        <time>2013-11-20T12:18:33Z</time>
      </trkpt>
      <trkpt lat="43.25119" lon="5.68836">
        <ele>362.8</ele>
        <time>2013-11-20T12:18:37Z</time>
      </trkpt>
      <trkpt lat="43.25115" lon="5.68838">
        <ele>363.3</ele>
        <time>2013-11-20T12:18:40Z</time>
      </trkpt>
      <trkpt lat="43.25111" lon="5.68841">
        <ele>362.7</ele>
        <time>2013-11-20T12:18:44Z</time>
      </trkpt>
      <trkpt lat="43.25108" lon="5.68843">
        <ele>363.3</ele>
        <time>2013-11-20T12:18:47Z</time>
      </trkpt>
      <trkpt lat="43.25104" lon="5.68845">
        <ele>362.7</ele>
        <time>2013-11-20T12:18:51Z</time>
      </trkpt>
      <trkpt lat="43.25103" lon="5.68846">
        <ele>362.7</ele>
        <time>2013-11-20T12:18:52Z</time>
      </trkpt>
      <trkpt lat="43.25096" lon="5.68849">
        <ele>363</ele>
        <time>2013-11-20T12:18:58Z</time>
      </trkpt>
      <trkpt lat="43.25093" lon="5.68851">
        <ele>363.7</ele>
        <time>2013-11-20T12:19:01Z</time>
      </trkpt>
      <trkpt lat="43.25088" lon="5.68852">
        <ele>363.2</ele>
        <time>2013-11-20T12:19:05Z</time>
      </trkpt>
      <trkpt lat="43.25085" lon="5.68854">
        <ele>363.8</ele>
        <time>2013-11-20T12:19:08Z</time>
      </trkpt>
      <trkpt lat="43.25081" lon="5.68856">
        <ele>364.3</ele>
        <time>2013-11-20T12:19:11Z</time>
      </trkpt>
      <trkpt lat="43.25077" lon="5.68858">
        <ele>365.2</ele>
        <time>2013-11-20T12:19:14Z</time>
      </trkpt>
      <trkpt lat="43.25074" lon="5.6886">
        <ele>365.7</ele>
        <time>2013-11-20T12:19:17Z</time>
      </trkpt>
      <trkpt lat="43.2507" lon="5.68862">
        <ele>365</ele>
        <time>2013-11-20T12:19:21Z</time>
      </trkpt>
      <trkpt lat="43.25067" lon="5.68865">
        <ele>364.7</ele>
        <time>2013-11-20T12:19:24Z</time>
      </trkpt>
      <trkpt lat="43.25064" lon="5.68868">
        <ele>364.8</ele>
        <time>2013-11-20T12:19:27Z</time>
      </trkpt>
      <trkpt lat="43.25061" lon="5.6887">
        <ele>365.2</ele>
        <time>2013-11-20T12:19:30Z</time>
      </trkpt>
      <trkpt lat="43.25057" lon="5.68872">
        <ele>365.2</ele>
        <time>2013-11-20T12:19:34Z</time>
      </trkpt>
      <trkpt lat="43.25054" lon="5.68876">
        <ele>365.7</ele>
        <time>2013-11-20T12:19:37Z</time>
      </trkpt>
      <trkpt lat="43.25051" lon="5.68879">
        <ele>366.1</ele>
        <time>2013-11-20T12:19:40Z</time>
      </trkpt>
      <trkpt lat="43.25048" lon="5.68883">
        <ele>366.6</ele>
        <time>2013-11-20T12:19:43Z</time>
      </trkpt>
      <trkpt lat="43.25046" lon="5.68886">
        <ele>366.7</ele>
        <time>2013-11-20T12:19:46Z</time>
      </trkpt>
      <trkpt lat="43.25044" lon="5.6889">
        <ele>366.2</ele>
        <time>2013-11-20T12:19:49Z</time>
      </trkpt>
      <trkpt lat="43.25041" lon="5.68893">
        <ele>366.1</ele>
        <time>2013-11-20T12:19:52Z</time>
      </trkpt>
      <trkpt lat="43.2504" lon="5.68894">
        <ele>365.7</ele>
        <time>2013-11-20T12:19:53Z</time>
      </trkpt>
      <trkpt lat="43.25035" lon="5.68899">
        <ele>365.8</ele>
        <time>2013-11-20T12:19:58Z</time>
      </trkpt>
      <trkpt lat="43.25032" lon="5.68902">
        <ele>366</ele>
        <time>2013-11-20T12:20:01Z</time>
      </trkpt>
      <trkpt lat="43.25029" lon="5.68904">
        <ele>364.5</ele>
        <time>2013-11-20T12:20:05Z</time>
      </trkpt>
      <trkpt lat="43.25025" lon="5.68906">
        <ele>363.3</ele>
        <time>2013-11-20T12:20:09Z</time>
      </trkpt>
      <trkpt lat="43.25021" lon="5.68908">
        <ele>362.6</ele>
        <time>2013-11-20T12:20:13Z</time>
      </trkpt>
      <trkpt lat="43.25018" lon="5.68911">
        <ele>362.6</ele>
        <time>2013-11-20T12:20:16Z</time>
      </trkpt>
      <trkpt lat="43.25015" lon="5.68913">
        <ele>362.1</ele>
        <time>2013-11-20T12:20:19Z</time>
      </trkpt>
      <trkpt lat="43.25012" lon="5.68916">
        <ele>362.1</ele>
        <time>2013-11-20T12:20:22Z</time>
      </trkpt>
      <trkpt lat="43.25008" lon="5.68918">
        <ele>363.1</ele>
        <time>2013-11-20T12:20:25Z</time>
      </trkpt>
      <trkpt lat="43.25004" lon="5.6892">
        <ele>362.2</ele>
        <time>2013-11-20T12:20:29Z</time>
      </trkpt>
      <trkpt lat="43.25001" lon="5.68922">
        <ele>361.7</ele>
        <time>2013-11-20T12:20:32Z</time>
      </trkpt>
      <trkpt lat="43.24998" lon="5.68924">
        <ele>361.6</ele>
        <time>2013-11-20T12:20:35Z</time>
      </trkpt>
      <trkpt lat="43.24994" lon="5.68927">
        <ele>362.5</ele>
        <time>2013-11-20T12:20:38Z</time>
      </trkpt>
      <trkpt lat="43.24991" lon="5.6893">
        <ele>363.2</ele>
        <time>2013-11-20T12:20:41Z</time>
      </trkpt>
      <trkpt lat="43.24988" lon="5.68932">
        <ele>363.2</ele>
        <time>2013-11-20T12:20:44Z</time>
      </trkpt>
      <trkpt lat="43.24985" lon="5.68934">
        <ele>363.3</ele>
        <time>2013-11-20T12:20:47Z</time>
      </trkpt>
      <trkpt lat="43.24981" lon="5.68937">
        <ele>363.8</ele>
        <time>2013-11-20T12:20:50Z</time>
      </trkpt>
      <trkpt lat="43.24978" lon="5.6894">
        <ele>364.2</ele>
        <time>2013-11-20T12:20:53Z</time>
      </trkpt>
      <trkpt lat="43.24977" lon="5.68941">
        <ele>364.3</ele>
        <time>2013-11-20T12:20:54Z</time>
      </trkpt>
      <trkpt lat="43.24972" lon="5.68945">
        <ele>364.5</ele>
        <time>2013-11-20T12:20:59Z</time>
      </trkpt>
      <trkpt lat="43.24968" lon="5.68948">
        <ele>363.6</ele>
        <time>2013-11-20T12:21:03Z</time>
      </trkpt>
      <trkpt lat="43.24964" lon="5.6895">
        <ele>362.3</ele>
        <time>2013-11-20T12:21:07Z</time>
      </trkpt>
      <trkpt lat="43.24961" lon="5.68952">
        <ele>362.5</ele>
        <time>2013-11-20T12:21:10Z</time>
      </trkpt>
      <trkpt lat="43.24958" lon="5.68955">
        <ele>363</ele>
        <time>2013-11-20T12:21:13Z</time>
      </trkpt>
      <trkpt lat="43.24954" lon="5.68958">
        <ele>363.3</ele>
        <time>2013-11-20T12:21:16Z</time>
      </trkpt>
      <trkpt lat="43.24951" lon="5.6896">
        <ele>363.2</ele>
        <time>2013-11-20T12:21:19Z</time>
      </trkpt>
      <trkpt lat="43.24948" lon="5.68963">
        <ele>363.3</ele>
        <time>2013-11-20T12:21:22Z</time>
      </trkpt>
      <trkpt lat="43.24944" lon="5.68965">
        <ele>363.1</ele>
        <time>2013-11-20T12:21:26Z</time>
      </trkpt>
      <trkpt lat="43.24941" lon="5.68966">
        <ele>363.1</ele>
        <time>2013-11-20T12:21:29Z</time>
      </trkpt>
      <trkpt lat="43.24938" lon="5.68969">
        <ele>362.7</ele>
        <time>2013-11-20T12:21:32Z</time>
      </trkpt>
      <trkpt lat="43.24934" lon="5.68972">
        <ele>362.1</ele>
        <time>2013-11-20T12:21:36Z</time>
      </trkpt>
      <trkpt lat="43.24931" lon="5.68974">
        <ele>361.6</ele>
        <time>2013-11-20T12:21:39Z</time>
      </trkpt>
      <trkpt lat="43.24928" lon="5.68977">
        <ele>361.7</ele>
        <time>2013-11-20T12:21:42Z</time>
      </trkpt>
      <trkpt lat="43.24924" lon="5.68979">
        <ele>361</ele>
        <time>2013-11-20T12:21:46Z</time>
      </trkpt>
      <trkpt lat="43.24921" lon="5.68981">
        <ele>361.3</ele>
        <time>2013-11-20T12:21:49Z</time>
      </trkpt>
      <trkpt lat="43.24917" lon="5.68984">
        <ele>361.7</ele>
        <time>2013-11-20T12:21:52Z</time>
      </trkpt>
      <trkpt lat="43.24914" lon="5.68986">
        <ele>361.2</ele>
        <time>2013-11-20T12:21:55Z</time>
      </trkpt>
      <trkpt lat="43.24913" lon="5.68987">
        <ele>361.2</ele>
        <time>2013-11-20T12:21:56Z</time>
      </trkpt>
      <trkpt lat="43.24907" lon="5.68991">
        <ele>361.5</ele>
        <time>2013-11-20T12:22:01Z</time>
      </trkpt>
      <trkpt lat="43.24903" lon="5.68993">
        <ele>361</ele>
        <time>2013-11-20T12:22:05Z</time>
      </trkpt>
      <trkpt lat="43.249" lon="5.68995">
        <ele>360.8</ele>
        <time>2013-11-20T12:22:08Z</time>
      </trkpt>
      <trkpt lat="43.24896" lon="5.68997">
        <ele>360.7</ele>
        <time>2013-11-20T12:22:11Z</time>
      </trkpt>
      <trkpt lat="43.24893" lon="5.68999">
        <ele>360.2</ele>
        <time>2013-11-20T12:22:14Z</time>
      </trkpt>
      <trkpt lat="43.24889" lon="5.69001">
        <ele>359.6</ele>
        <time>2013-11-20T12:22:18Z</time>
      </trkpt>
      <trkpt lat="43.24886" lon="5.69003">
        <ele>359.6</ele>
        <time>2013-11-20T12:22:21Z</time>
      </trkpt>
      <trkpt lat="43.24882" lon="5.69005">
        <ele>358.5</ele>
        <time>2013-11-20T12:22:25Z</time>
      </trkpt>
      <trkpt lat="43.24878" lon="5.69007">
        <ele>357.6</ele>
        <time>2013-11-20T12:22:29Z</time>
      </trkpt>
      <trkpt lat="43.24875" lon="5.6901">
        <ele>357.1</ele>
        <time>2013-11-20T12:22:33Z</time>
      </trkpt>
      <trkpt lat="43.24871" lon="5.69012">
        <ele>356.6</ele>
        <time>2013-11-20T12:22:37Z</time>
      </trkpt>
      <trkpt lat="43.24867" lon="5.69015">
        <ele>356.7</ele>
        <time>2013-11-20T12:22:41Z</time>
      </trkpt>
      <trkpt lat="43.24864" lon="5.69016">
        <ele>357.2</ele>
        <time>2013-11-20T12:22:44Z</time>
      </trkpt>
      <trkpt lat="43.2486" lon="5.69018">
        <ele>357.3</ele>
        <time>2013-11-20T12:22:47Z</time>
      </trkpt>
      <trkpt lat="43.24857" lon="5.69019">
        <ele>357</ele>
        <time>2013-11-20T12:22:50Z</time>
      </trkpt>
      <trkpt lat="43.24854" lon="5.69021">
        <ele>357</ele>
        <time>2013-11-20T12:22:53Z</time>
      </trkpt>
      <trkpt lat="43.2485" lon="5.69023">
        <ele>356.8</ele>
        <time>2013-11-20T12:22:56Z</time>
      </trkpt>
      <trkpt lat="43.24849" lon="5.69023">
        <ele>356.8</ele>
        <time>2013-11-20T12:22:57Z</time>
      </trkpt>
      <trkpt lat="43.24842" lon="5.69026">
        <ele>355.6</ele>
        <time>2013-11-20T12:23:04Z</time>
      </trkpt>
      <trkpt lat="43.24838" lon="5.69028">
        <ele>355.3</ele>
        <time>2013-11-20T12:23:07Z</time>
      </trkpt>
      <trkpt lat="43.24834" lon="5.6903">
        <ele>355.3</ele>
        <time>2013-11-20T12:23:11Z</time>
      </trkpt>
      <trkpt lat="43.2483" lon="5.69031">
        <ele>354.7</ele>
        <time>2013-11-20T12:23:15Z</time>
      </trkpt>
      <trkpt lat="43.24827" lon="5.69032">
        <ele>354.7</ele>
        <time>2013-11-20T12:23:18Z</time>
      </trkpt>
      <trkpt lat="43.24823" lon="5.69033">
        <ele>354.5</ele>
        <time>2013-11-20T12:23:22Z</time>
      </trkpt>
      <trkpt lat="43.24819" lon="5.69033">
        <ele>353.2</ele>
        <time>2013-11-20T12:23:26Z</time>
      </trkpt>
      <trkpt lat="43.24816" lon="5.69034">
        <ele>353</ele>
        <time>2013-11-20T12:23:29Z</time>
      </trkpt>
      <trkpt lat="43.24813" lon="5.69038">
        <ele>354.7</ele>
        <time>2013-11-20T12:23:31Z</time>
      </trkpt>
      <trkpt lat="43.2481" lon="5.69039">
        <ele>354.6</ele>
        <time>2013-11-20T12:23:34Z</time>
      </trkpt>
      <trkpt lat="43.24805" lon="5.69039">
        <ele>353.5</ele>
        <time>2013-11-20T12:23:38Z</time>
      </trkpt>
      <trkpt lat="43.24801" lon="5.69039">
        <ele>352.7</ele>
        <time>2013-11-20T12:23:42Z</time>
      </trkpt>
      <trkpt lat="43.24797" lon="5.69039">
        <ele>351.7</ele>
        <time>2013-11-20T12:23:46Z</time>
      </trkpt>
      <trkpt lat="43.24793" lon="5.69039">
        <ele>351.3</ele>
        <time>2013-11-20T12:23:49Z</time>
      </trkpt>
      <trkpt lat="43.24788" lon="5.69038">
        <ele>350.5</ele>
        <time>2013-11-20T12:23:53Z</time>
      </trkpt>
      <trkpt lat="43.24784" lon="5.69039">
        <ele>349.7</ele>
        <time>2013-11-20T12:23:57Z</time>
      </trkpt>
      <trkpt lat="43.24783" lon="5.69039">
        <ele>349.6</ele>
        <time>2013-11-20T12:23:58Z</time>
      </trkpt>
      <trkpt lat="43.24777" lon="5.69041">
        <ele>349.3</ele>
        <time>2013-11-20T12:24:04Z</time>
      </trkpt>
      <trkpt lat="43.24773" lon="5.69042">
        <ele>349.2</ele>
        <time>2013-11-20T12:24:07Z</time>
      </trkpt>
      <trkpt lat="43.24769" lon="5.69043">
        <ele>349</ele>
        <time>2013-11-20T12:24:10Z</time>
      </trkpt>
      <trkpt lat="43.24765" lon="5.69044">
        <ele>347.7</ele>
        <time>2013-11-20T12:24:14Z</time>
      </trkpt>
      <trkpt lat="43.24761" lon="5.69044">
        <ele>347.7</ele>
        <time>2013-11-20T12:24:17Z</time>
      </trkpt>
      <trkpt lat="43.24758" lon="5.69046">
        <ele>346.8</ele>
        <time>2013-11-20T12:24:21Z</time>
      </trkpt>
      <trkpt lat="43.24754" lon="5.69049">
        <ele>346</ele>
        <time>2013-11-20T12:24:25Z</time>
      </trkpt>
      <trkpt lat="43.2475" lon="5.69051">
        <ele>346.1</ele>
        <time>2013-11-20T12:24:28Z</time>
      </trkpt>
      <trkpt lat="43.24748" lon="5.69055">
        <ele>347.8</ele>
        <time>2013-11-20T12:24:30Z</time>
      </trkpt>
      <trkpt lat="43.24745" lon="5.69059">
        <ele>347.2</ele>
        <time>2013-11-20T12:24:35Z</time>
      </trkpt>
      <trkpt lat="43.24742" lon="5.69063">
        <ele>350.2</ele>
        <time>2013-11-20T12:24:38Z</time>
      </trkpt>
      <trkpt lat="43.2474" lon="5.69068">
        <ele>349.7</ele>
        <time>2013-11-20T12:24:54Z</time>
      </trkpt>
      <trkpt lat="43.24736" lon="5.6907">
        <ele>350.1</ele>
        <time>2013-11-20T12:25:01Z</time>
      </trkpt>
      <trkpt lat="43.24735" lon="5.69071">
        <ele>350.7</ele>
        <time>2013-11-20T12:25:02Z</time>
      </trkpt>
      <trkpt lat="43.24727" lon="5.69072">
        <ele>361.2</ele>
        <time>2013-11-20T12:25:20Z</time>
      </trkpt>
      <trkpt lat="43.24723" lon="5.69071">
        <ele>361.8</ele>
        <time>2013-11-20T12:25:26Z</time>
      </trkpt>
      <trkpt lat="43.2472" lon="5.69068">
        <ele>364.6</ele>
        <time>2013-11-20T12:25:32Z</time>
      </trkpt>
      <trkpt lat="43.24716" lon="5.69065">
        <ele>364.5</ele>
        <time>2013-11-20T12:25:40Z</time>
      </trkpt>
      <trkpt lat="43.24712" lon="5.69066">
        <ele>366.3</ele>
        <time>2013-11-20T12:25:45Z</time>
      </trkpt>
      <trkpt lat="43.24708" lon="5.69062">
        <ele>367</ele>
        <time>2013-11-20T12:25:51Z</time>
      </trkpt>
      <trkpt lat="43.24705" lon="5.69059">
        <ele>366.2</ele>
        <time>2013-11-20T12:25:57Z</time>
      </trkpt>
      <trkpt lat="43.24701" lon="5.69056">
        <ele>366</ele>
        <time>2013-11-20T12:26:03Z</time>
      </trkpt>
      <trkpt lat="43.247" lon="5.69056">
        <ele>365.7</ele>
        <time>2013-11-20T12:26:04Z</time>
      </trkpt>
      <trkpt lat="43.24694" lon="5.69052">
        <ele>368.5</ele>
        <time>2013-11-20T12:26:14Z</time>
      </trkpt>
      <trkpt lat="43.24689" lon="5.6905">
        <ele>369.5</ele>
        <time>2013-11-20T12:26:20Z</time>
      </trkpt>
      <trkpt lat="43.24685" lon="5.69049">
        <ele>367.8</ele>
        <time>2013-11-20T12:26:26Z</time>
      </trkpt>
      <trkpt lat="43.24681" lon="5.69048">
        <ele>366.5</ele>
        <time>2013-11-20T12:26:33Z</time>
      </trkpt>
      <trkpt lat="43.24677" lon="5.69048">
        <ele>365.2</ele>
        <time>2013-11-20T12:26:39Z</time>
      </trkpt>
      <trkpt lat="43.24673" lon="5.69046">
        <ele>365.3</ele>
        <time>2013-11-20T12:26:44Z</time>
      </trkpt>
      <trkpt lat="43.24669" lon="5.69046">
        <ele>367.3</ele>
        <time>2013-11-20T12:26:52Z</time>
      </trkpt>
      <trkpt lat="43.24665" lon="5.69049">
        <ele>367.2</ele>
        <time>2013-11-20T12:27:00Z</time>
      </trkpt>
      <trkpt lat="43.24661" lon="5.69049">
        <ele>365.7</ele>
        <time>2013-11-20T12:27:05Z</time>
      </trkpt>
      <trkpt lat="43.2466" lon="5.69049">
        <ele>365.5</ele>
        <time>2013-11-20T12:27:06Z</time>
      </trkpt>
      <trkpt lat="43.24653" lon="5.69054">
        <ele>364.1</ele>
        <time>2013-11-20T12:27:18Z</time>
      </trkpt>
      <trkpt lat="43.24649" lon="5.69056">
        <ele>364</ele>
        <time>2013-11-20T12:27:23Z</time>
      </trkpt>
      <trkpt lat="43.24646" lon="5.69059">
        <ele>365.2</ele>
        <time>2013-11-20T12:27:28Z</time>
      </trkpt>
      <trkpt lat="43.24644" lon="5.69064">
        <ele>365.5</ele>
        <time>2013-11-20T12:27:34Z</time>
      </trkpt>
      <trkpt lat="43.2464" lon="5.69066">
        <ele>367.2</ele>
        <time>2013-11-20T12:27:39Z</time>
      </trkpt>
      <trkpt lat="43.24637" lon="5.69066">
        <ele>367.7</ele>
        <time>2013-11-20T12:27:43Z</time>
      </trkpt>
      <trkpt lat="43.24633" lon="5.69065">
        <ele>367.6</ele>
        <time>2013-11-20T12:27:48Z</time>
      </trkpt>
      <trkpt lat="43.24629" lon="5.69063">
        <ele>368.3</ele>
        <time>2013-11-20T12:27:54Z</time>
      </trkpt>
      <trkpt lat="43.24625" lon="5.69063">
        <ele>367.5</ele>
        <time>2013-11-20T12:28:00Z</time>
      </trkpt>
      <trkpt lat="43.24621" lon="5.69061">
        <ele>368.5</ele>
        <time>2013-11-20T12:28:03Z</time>
      </trkpt>
      <trkpt lat="43.24617" lon="5.69058">
        <ele>369.7</ele>
        <time>2013-11-20T12:28:07Z</time>
      </trkpt>
      <trkpt lat="43.24617" lon="5.69058">
        <ele>369.5</ele>
        <time>2013-11-20T12:28:08Z</time>
      </trkpt>
      <trkpt lat="43.24613" lon="5.69049">
        <ele>370.8</ele>
        <time>2013-11-20T12:28:20Z</time>
      </trkpt>
      <trkpt lat="43.2461" lon="5.69045">
        <ele>371</ele>
        <time>2013-11-20T12:28:26Z</time>
      </trkpt>
      <trkpt lat="43.24606" lon="5.69042">
        <ele>371.2</ele>
        <time>2013-11-20T12:28:34Z</time>
      </trkpt>
      <trkpt lat="43.24602" lon="5.69042">
        <ele>370.2</ele>
        <time>2013-11-20T12:28:40Z</time>
      </trkpt>
      <trkpt lat="43.24599" lon="5.69039">
        <ele>367.6</ele>
        <time>2013-11-20T12:28:45Z</time>
      </trkpt>
      <trkpt lat="43.24595" lon="5.69037">
        <ele>368.2</ele>
        <time>2013-11-20T12:28:47Z</time>
      </trkpt>
      <trkpt lat="43.24593" lon="5.69035">
        <ele>368.6</ele>
        <time>2013-11-20T12:28:48Z</time>
      </trkpt>
      <trkpt lat="43.2459" lon="5.69033">
        <ele>369.7</ele>
        <time>2013-11-20T12:28:50Z</time>
      </trkpt>
      <trkpt lat="43.24587" lon="5.69031">
        <ele>370.3</ele>
        <time>2013-11-20T12:28:52Z</time>
      </trkpt>
      <trkpt lat="43.24584" lon="5.6903">
        <ele>371</ele>
        <time>2013-11-20T12:28:54Z</time>
      </trkpt>
      <trkpt lat="43.24581" lon="5.69029">
        <ele>371.5</ele>
        <time>2013-11-20T12:28:56Z</time>
      </trkpt>
      <trkpt lat="43.24576" lon="5.69028">
        <ele>371.8</ele>
        <time>2013-11-20T12:28:59Z</time>
      </trkpt>
      <trkpt lat="43.24573" lon="5.69027">
        <ele>371.7</ele>
        <time>2013-11-20T12:29:02Z</time>
      </trkpt>
      <trkpt lat="43.24569" lon="5.69028">
        <ele>371.8</ele>
        <time>2013-11-20T12:29:05Z</time>
      </trkpt>
      <trkpt lat="43.24565" lon="5.69028">
        <ele>371.8</ele>
        <time>2013-11-20T12:29:09Z</time>
      </trkpt>
      <trkpt lat="43.24564" lon="5.69028">
        <ele>371.7</ele>
        <time>2013-11-20T12:29:10Z</time>
      </trkpt>
      <trkpt lat="43.24558" lon="5.6903">
        <ele>371.5</ele>
        <time>2013-11-20T12:29:17Z</time>
      </trkpt>
      <trkpt lat="43.24553" lon="5.6903">
        <ele>372</ele>
        <time>2013-11-20T12:29:20Z</time>
      </trkpt>
      <trkpt lat="43.24549" lon="5.69031">
        <ele>372.7</ele>
        <time>2013-11-20T12:29:23Z</time>
      </trkpt>
      <trkpt lat="43.24545" lon="5.6903">
        <ele>373.1</ele>
        <time>2013-11-20T12:29:26Z</time>
      </trkpt>
      <trkpt lat="43.24541" lon="5.69031">
        <ele>372.2</ele>
        <time>2013-11-20T12:29:30Z</time>
      </trkpt>
      <trkpt lat="43.24537" lon="5.69032">
        <ele>371.5</ele>
        <time>2013-11-20T12:29:34Z</time>
      </trkpt>
      <trkpt lat="43.24533" lon="5.69032">
        <ele>370.6</ele>
        <time>2013-11-20T12:29:38Z</time>
      </trkpt>
      <trkpt lat="43.2453" lon="5.69033">
        <ele>370.2</ele>
        <time>2013-11-20T12:29:42Z</time>
      </trkpt>
      <trkpt lat="43.24527" lon="5.69033">
        <ele>370.7</ele>
        <time>2013-11-20T12:29:45Z</time>
      </trkpt>
      <trkpt lat="43.24523" lon="5.69034">
        <ele>371.2</ele>
        <time>2013-11-20T12:29:48Z</time>
      </trkpt>
      <trkpt lat="43.2452" lon="5.69034">
        <ele>371.3</ele>
        <time>2013-11-20T12:29:51Z</time>
      </trkpt>
      <trkpt lat="43.24515" lon="5.69034">
        <ele>372.2</ele>
        <time>2013-11-20T12:29:57Z</time>
      </trkpt>
      <trkpt lat="43.24511" lon="5.69032">
        <ele>375.6</ele>
        <time>2013-11-20T12:30:14Z</time>
      </trkpt>
      <trkpt lat="43.24511" lon="5.69032">
        <ele>375.8</ele>
        <time>2013-11-20T12:30:15Z</time>
      </trkpt>
      <trkpt lat="43.24507" lon="5.69032">
        <ele>379.2</ele>
        <time>2013-11-20T12:31:16Z</time>
      </trkpt>
      <trkpt lat="43.24505" lon="5.69038">
        <ele>377.5</ele>
        <time>2013-11-20T12:32:46Z</time>
      </trkpt>
      <trkpt lat="43.24502" lon="5.69048">
        <ele>378.6</ele>
        <time>2013-11-20T12:32:57Z</time>
      </trkpt>
      <trkpt lat="43.24501" lon="5.69053">
        <ele>379.1</ele>
        <time>2013-11-20T12:33:02Z</time>
      </trkpt>
      <trkpt lat="43.24499" lon="5.69058">
        <ele>379.6</ele>
        <time>2013-11-20T12:33:07Z</time>
      </trkpt>
      <trkpt lat="43.24497" lon="5.69063">
        <ele>379.6</ele>
        <time>2013-11-20T12:33:14Z</time>
      </trkpt>
      <trkpt lat="43.24496" lon="5.69069">
        <ele>379.7</ele>
        <time>2013-11-20T12:33:23Z</time>
      </trkpt>
      <trkpt lat="43.24495" lon="5.69075">
        <ele>380</ele>
        <time>2013-11-20T12:33:29Z</time>
      </trkpt>
      <trkpt lat="43.24494" lon="5.6908">
        <ele>381</ele>
        <time>2013-11-20T12:33:34Z</time>
      </trkpt>
      <trkpt lat="43.24494" lon="5.69086">
        <ele>381.6</ele>
        <time>2013-11-20T12:33:40Z</time>
      </trkpt>
      <trkpt lat="43.24493" lon="5.69091">
        <ele>380.5</ele>
        <time>2013-11-20T12:33:45Z</time>
      </trkpt>
      <trkpt lat="43.24494" lon="5.69097">
        <ele>379.5</ele>
        <time>2013-11-20T12:33:50Z</time>
      </trkpt>
      <trkpt lat="43.24494" lon="5.69098">
        <ele>379.3</ele>
        <time>2013-11-20T12:33:51Z</time>
      </trkpt>
      <trkpt lat="43.24494" lon="5.69109">
        <ele>379.2</ele>
        <time>2013-11-20T12:34:00Z</time>
      </trkpt>
      <trkpt lat="43.24494" lon="5.69115">
        <ele>379.6</ele>
        <time>2013-11-20T12:34:04Z</time>
      </trkpt>
      <trkpt lat="43.24494" lon="5.69121">
        <ele>379.7</ele>
        <time>2013-11-20T12:34:09Z</time>
      </trkpt>
      <trkpt lat="43.24496" lon="5.69127">
        <ele>379.6</ele>
        <time>2013-11-20T12:34:14Z</time>
      </trkpt>
      <trkpt lat="43.24496" lon="5.69132">
        <ele>379.7</ele>
        <time>2013-11-20T12:34:19Z</time>
      </trkpt>
      <trkpt lat="43.24497" lon="5.69138">
        <ele>380.6</ele>
        <time>2013-11-20T12:34:23Z</time>
      </trkpt>
      <trkpt lat="43.24498" lon="5.69144">
        <ele>382.6</ele>
        <time>2013-11-20T12:34:28Z</time>
      </trkpt>
      <trkpt lat="43.245" lon="5.69149">
        <ele>382.7</ele>
        <time>2013-11-20T12:34:33Z</time>
      </trkpt>
      <trkpt lat="43.245" lon="5.69155">
        <ele>383</ele>
        <time>2013-11-20T12:34:38Z</time>
      </trkpt>
      <trkpt lat="43.24501" lon="5.6916">
        <ele>385</ele>
        <time>2013-11-20T12:34:50Z</time>
      </trkpt>
      <trkpt lat="43.24502" lon="5.69166">
        <ele>387.2</ele>
        <time>2013-11-20T12:34:57Z</time>
      </trkpt>
      <trkpt lat="43.24503" lon="5.69167">
        <ele>387.2</ele>
        <time>2013-11-20T12:34:58Z</time>
      </trkpt>
      <trkpt lat="43.24506" lon="5.69176">
        <ele>385.7</ele>
        <time>2013-11-20T12:35:09Z</time>
      </trkpt>
      <trkpt lat="43.24507" lon="5.6918">
        <ele>385.7</ele>
        <time>2013-11-20T12:35:15Z</time>
      </trkpt>
      <trkpt lat="43.24509" lon="5.69186">
        <ele>388.5</ele>
        <time>2013-11-20T12:35:20Z</time>
      </trkpt>
      <trkpt lat="43.24511" lon="5.6919">
        <ele>387.2</ele>
        <time>2013-11-20T12:35:25Z</time>
      </trkpt>
      <trkpt lat="43.24513" lon="5.69195">
        <ele>386.8</ele>
        <time>2013-11-20T12:35:31Z</time>
      </trkpt>
      <trkpt lat="43.24514" lon="5.69201">
        <ele>386.2</ele>
        <time>2013-11-20T12:35:37Z</time>
      </trkpt>
      <trkpt lat="43.24515" lon="5.69207">
        <ele>386.6</ele>
        <time>2013-11-20T12:35:44Z</time>
      </trkpt>
      <trkpt lat="43.24516" lon="5.69212">
        <ele>389.3</ele>
        <time>2013-11-20T12:35:48Z</time>
      </trkpt>
      <trkpt lat="43.24516" lon="5.69217">
        <ele>390.5</ele>
        <time>2013-11-20T12:35:54Z</time>
      </trkpt>
      <trkpt lat="43.24519" lon="5.69222">
        <ele>390.3</ele>
        <time>2013-11-20T12:35:58Z</time>
      </trkpt>
      <trkpt lat="43.2452" lon="5.69223">
        <ele>389.6</ele>
        <time>2013-11-20T12:35:59Z</time>
      </trkpt>
      <trkpt lat="43.24527" lon="5.69223">
        <ele>393.1</ele>
        <time>2013-11-20T12:36:10Z</time>
      </trkpt>
      <trkpt lat="43.2453" lon="5.69219">
        <ele>392.7</ele>
        <time>2013-11-20T12:36:16Z</time>
      </trkpt>
      <trkpt lat="43.24533" lon="5.69217">
        <ele>390.1</ele>
        <time>2013-11-20T12:36:20Z</time>
      </trkpt>
      <trkpt lat="43.24536" lon="5.69213">
        <ele>390.2</ele>
        <time>2013-11-20T12:36:25Z</time>
      </trkpt>
      <trkpt lat="43.24539" lon="5.69209">
        <ele>391.6</ele>
        <time>2013-11-20T12:36:30Z</time>
      </trkpt>
      <trkpt lat="43.24542" lon="5.69205">
        <ele>393</ele>
        <time>2013-11-20T12:36:37Z</time>
      </trkpt>
      <trkpt lat="43.24545" lon="5.69202">
        <ele>394.5</ele>
        <time>2013-11-20T12:36:43Z</time>
      </trkpt>
      <trkpt lat="43.24549" lon="5.69201">
        <ele>395.3</ele>
        <time>2013-11-20T12:36:52Z</time>
      </trkpt>
      <trkpt lat="43.24553" lon="5.69203">
        <ele>395.5</ele>
        <time>2013-11-20T12:36:56Z</time>
      </trkpt>
      <trkpt lat="43.24556" lon="5.69206">
        <ele>395.8</ele>
        <time>2013-11-20T12:37:02Z</time>
      </trkpt>
      <trkpt lat="43.24557" lon="5.69206">
        <ele>395.5</ele>
        <time>2013-11-20T12:37:03Z</time>
      </trkpt>
      <trkpt lat="43.24561" lon="5.69214">
        <ele>398.5</ele>
        <time>2013-11-20T12:37:14Z</time>
      </trkpt>
      <trkpt lat="43.24563" lon="5.69219">
        <ele>400.2</ele>
        <time>2013-11-20T12:37:21Z</time>
      </trkpt>
      <trkpt lat="43.24564" lon="5.69224">
        <ele>401.2</ele>
        <time>2013-11-20T12:37:28Z</time>
      </trkpt>
      <trkpt lat="43.24566" lon="5.69229">
        <ele>402.6</ele>
        <time>2013-11-20T12:37:33Z</time>
      </trkpt>
      <trkpt lat="43.24568" lon="5.69234">
        <ele>404.7</ele>
        <time>2013-11-20T12:37:39Z</time>
      </trkpt>
      <trkpt lat="43.24572" lon="5.69237">
        <ele>405.7</ele>
        <time>2013-11-20T12:37:47Z</time>
      </trkpt>
      <trkpt lat="43.24576" lon="5.6924">
        <ele>407.3</ele>
        <time>2013-11-20T12:37:53Z</time>
      </trkpt>
      <trkpt lat="43.24579" lon="5.69243">
        <ele>406</ele>
        <time>2013-11-20T12:38:02Z</time>
      </trkpt>
      <trkpt lat="43.24583" lon="5.69242">
        <ele>404.5</ele>
        <time>2013-11-20T12:38:10Z</time>
      </trkpt>
      <trkpt lat="43.24584" lon="5.69242">
        <ele>404.1</ele>
        <time>2013-11-20T12:38:11Z</time>
      </trkpt>
      <trkpt lat="43.24589" lon="5.6925">
        <ele>407.6</ele>
        <time>2013-11-20T12:38:24Z</time>
      </trkpt>
      <trkpt lat="43.2459" lon="5.69256">
        <ele>408.8</ele>
        <time>2013-11-20T12:38:32Z</time>
      </trkpt>
      <trkpt lat="43.24589" lon="5.69261">
        <ele>409.8</ele>
        <time>2013-11-20T12:38:38Z</time>
      </trkpt>
      <trkpt lat="43.24589" lon="5.69267">
        <ele>411.1</ele>
        <time>2013-11-20T12:38:45Z</time>
      </trkpt>
      <trkpt lat="43.24591" lon="5.69272">
        <ele>412.2</ele>
        <time>2013-11-20T12:38:52Z</time>
      </trkpt>
      <trkpt lat="43.24591" lon="5.69278">
        <ele>412.2</ele>
        <time>2013-11-20T12:39:01Z</time>
      </trkpt>
      <trkpt lat="43.2459" lon="5.69284">
        <ele>412.7</ele>
        <time>2013-11-20T12:39:07Z</time>
      </trkpt>
      <trkpt lat="43.24589" lon="5.69289">
        <ele>414.2</ele>
        <time>2013-11-20T12:39:12Z</time>
      </trkpt>
      <trkpt lat="43.24589" lon="5.6929">
        <ele>414.6</ele>
        <time>2013-11-20T12:39:13Z</time>
      </trkpt>
      <trkpt lat="43.24588" lon="5.693">
        <ele>414.7</ele>
        <time>2013-11-20T12:39:25Z</time>
      </trkpt>
      <trkpt lat="43.24587" lon="5.69306">
        <ele>416.2</ele>
        <time>2013-11-20T12:39:30Z</time>
      </trkpt>
      <trkpt lat="43.24586" lon="5.69312">
        <ele>417.1</ele>
        <time>2013-11-20T12:39:35Z</time>
      </trkpt>
      <trkpt lat="43.24585" lon="5.69317">
        <ele>418</ele>
        <time>2013-11-20T12:39:41Z</time>
      </trkpt>
      <trkpt lat="43.24584" lon="5.69323">
        <ele>419.2</ele>
        <time>2013-11-20T12:39:46Z</time>
      </trkpt>
      <trkpt lat="43.24584" lon="5.69329">
        <ele>419.7</ele>
        <time>2013-11-20T12:39:52Z</time>
      </trkpt>
      <trkpt lat="43.24583" lon="5.69334">
        <ele>420.1</ele>
        <time>2013-11-20T12:39:58Z</time>
      </trkpt>
      <trkpt lat="43.24581" lon="5.6934">
        <ele>421.6</ele>
        <time>2013-11-20T12:40:04Z</time>
      </trkpt>
      <trkpt lat="43.24579" lon="5.69345">
        <ele>422.5</ele>
        <time>2013-11-20T12:40:09Z</time>
      </trkpt>
      <trkpt lat="43.24578" lon="5.6935">
        <ele>422.3</ele>
        <time>2013-11-20T12:40:15Z</time>
      </trkpt>
      <trkpt lat="43.24578" lon="5.69351">
        <ele>422.7</ele>
        <time>2013-11-20T12:40:16Z</time>
      </trkpt>
      <trkpt lat="43.24577" lon="5.69361">
        <ele>423.8</ele>
        <time>2013-11-20T12:40:26Z</time>
      </trkpt>
      <trkpt lat="43.24577" lon="5.69367">
        <ele>423.2</ele>
        <time>2013-11-20T12:40:33Z</time>
      </trkpt>
      <trkpt lat="43.24576" lon="5.69372">
        <ele>422.3</ele>
        <time>2013-11-20T12:40:39Z</time>
      </trkpt>
      <trkpt lat="43.24575" lon="5.69377">
        <ele>423.3</ele>
        <time>2013-11-20T12:40:44Z</time>
      </trkpt>
      <trkpt lat="43.24573" lon="5.69383">
        <ele>425.2</ele>
        <time>2013-11-20T12:41:04Z</time>
      </trkpt>
      <trkpt lat="43.24573" lon="5.69389">
        <ele>424.2</ele>
        <time>2013-11-20T12:41:12Z</time>
      </trkpt>
      <trkpt lat="43.24577" lon="5.69391">
        <ele>428</ele>
        <time>2013-11-20T12:44:03Z</time>
      </trkpt>
      <trkpt lat="43.24577" lon="5.69391">
        <ele>427.7</ele>
        <time>2013-11-20T12:44:04Z</time>
      </trkpt>
      <trkpt lat="43.24584" lon="5.69397">
        <ele>424.7</ele>
        <time>2013-11-20T12:44:14Z</time>
      </trkpt>
      <trkpt lat="43.24588" lon="5.694">
        <ele>424.7</ele>
        <time>2013-11-20T12:44:18Z</time>
      </trkpt>
      <trkpt lat="43.24591" lon="5.69404">
        <ele>424</ele>
        <time>2013-11-20T12:44:22Z</time>
      </trkpt>
      <trkpt lat="43.24594" lon="5.69408">
        <ele>423.7</ele>
        <time>2013-11-20T12:44:26Z</time>
      </trkpt>
      <trkpt lat="43.24597" lon="5.69412">
        <ele>423.7</ele>
        <time>2013-11-20T12:44:30Z</time>
      </trkpt>
      <trkpt lat="43.246" lon="5.69415">
        <ele>423.3</ele>
        <time>2013-11-20T12:44:34Z</time>
      </trkpt>
      <trkpt lat="43.24604" lon="5.69418">
        <ele>422.6</ele>
        <time>2013-11-20T12:44:38Z</time>
      </trkpt>
      <trkpt lat="43.24607" lon="5.69421">
        <ele>422.2</ele>
        <time>2013-11-20T12:44:42Z</time>
      </trkpt>
      <trkpt lat="43.24611" lon="5.69423">
        <ele>422.1</ele>
        <time>2013-11-20T12:44:46Z</time>
      </trkpt>
      <trkpt lat="43.24615" lon="5.69426">
        <ele>420.8</ele>
        <time>2013-11-20T12:44:50Z</time>
      </trkpt>
      <trkpt lat="43.24619" lon="5.69427">
        <ele>420</ele>
        <time>2013-11-20T12:44:54Z</time>
      </trkpt>
      <trkpt lat="43.24623" lon="5.69428">
        <ele>419</ele>
        <time>2013-11-20T12:44:58Z</time>
      </trkpt>
      <trkpt lat="43.24627" lon="5.69428">
        <ele>418.2</ele>
        <time>2013-11-20T12:45:03Z</time>
      </trkpt>
      <trkpt lat="43.24631" lon="5.69425">
        <ele>417</ele>
        <time>2013-11-20T12:45:08Z</time>
      </trkpt>
      <trkpt lat="43.24632" lon="5.69426">
        <ele>417.2</ele>
        <time>2013-11-20T12:45:09Z</time>
      </trkpt>
      <trkpt lat="43.24639" lon="5.69426">
        <ele>418.7</ele>
        <time>2013-11-20T12:45:15Z</time>
      </trkpt>
      <trkpt lat="43.24643" lon="5.69426">
        <ele>418.7</ele>
        <time>2013-11-20T12:45:19Z</time>
      </trkpt>
      <trkpt lat="43.24646" lon="5.69426">
        <ele>418.3</ele>
        <time>2013-11-20T12:45:23Z</time>
      </trkpt>
      <trkpt lat="43.2465" lon="5.69428">
        <ele>419</ele>
        <time>2013-11-20T12:45:26Z</time>
      </trkpt>
      <trkpt lat="43.24653" lon="5.6943">
        <ele>419.7</ele>
        <time>2013-11-20T12:45:30Z</time>
      </trkpt>
      <trkpt lat="43.24657" lon="5.69434">
        <ele>421</ele>
        <time>2013-11-20T12:45:34Z</time>
      </trkpt>
      <trkpt lat="43.2466" lon="5.69438">
        <ele>421.2</ele>
        <time>2013-11-20T12:45:38Z</time>
      </trkpt>
      <trkpt lat="43.24662" lon="5.69443">
        <ele>420.3</ele>
        <time>2013-11-20T12:45:42Z</time>
      </trkpt>
      <trkpt lat="43.24664" lon="5.69448">
        <ele>419.6</ele>
        <time>2013-11-20T12:45:46Z</time>
      </trkpt>
      <trkpt lat="43.24664" lon="5.69454">
        <ele>418.2</ele>
        <time>2013-11-20T12:45:51Z</time>
      </trkpt>
      <trkpt lat="43.24663" lon="5.69459">
        <ele>417.7</ele>
        <time>2013-11-20T12:45:55Z</time>
      </trkpt>
      <trkpt lat="43.24662" lon="5.69464">
        <ele>418.3</ele>
        <time>2013-11-20T12:45:58Z</time>
      </trkpt>
      <trkpt lat="43.24663" lon="5.69469">
        <ele>418.5</ele>
        <time>2013-11-20T12:46:02Z</time>
      </trkpt>
      <trkpt lat="43.24665" lon="5.69474">
        <ele>417.6</ele>
        <time>2013-11-20T12:46:06Z</time>
      </trkpt>
      <trkpt lat="43.24667" lon="5.6948">
        <ele>416.7</ele>
        <time>2013-11-20T12:46:11Z</time>
      </trkpt>
      <trkpt lat="43.24668" lon="5.6948">
        <ele>416.5</ele>
        <time>2013-11-20T12:46:12Z</time>
      </trkpt>
      <trkpt lat="43.2467" lon="5.6949">
        <ele>416.2</ele>
        <time>2013-11-20T12:46:20Z</time>
      </trkpt>
      <trkpt lat="43.24672" lon="5.69494">
        <ele>415.1</ele>
        <time>2013-11-20T12:46:25Z</time>
      </trkpt>
      <trkpt lat="43.24674" lon="5.69499">
        <ele>414.8</ele>
        <time>2013-11-20T12:46:29Z</time>
      </trkpt>
      <trkpt lat="43.24674" lon="5.69504">
        <ele>416.2</ele>
        <time>2013-11-20T12:46:32Z</time>
      </trkpt>
      <trkpt lat="43.24675" lon="5.69509">
        <ele>416.7</ele>
        <time>2013-11-20T12:46:36Z</time>
      </trkpt>
      <trkpt lat="43.24676" lon="5.69515">
        <ele>417.8</ele>
        <time>2013-11-20T12:46:40Z</time>
      </trkpt>
      <trkpt lat="43.24678" lon="5.69519">
        <ele>417.5</ele>
        <time>2013-11-20T12:46:44Z</time>
      </trkpt>
      <trkpt lat="43.24678" lon="5.69523">
        <ele>417.2</ele>
        <time>2013-11-20T12:46:47Z</time>
      </trkpt>
      <trkpt lat="43.24679" lon="5.69527">
        <ele>418.5</ele>
        <time>2013-11-20T12:46:50Z</time>
      </trkpt>
      <trkpt lat="43.2468" lon="5.69533">
        <ele>421.2</ele>
        <time>2013-11-20T12:46:53Z</time>
      </trkpt>
      <trkpt lat="43.24682" lon="5.69539">
        <ele>420.1</ele>
        <time>2013-11-20T12:46:58Z</time>
      </trkpt>
      <trkpt lat="43.24682" lon="5.69545">
        <ele>422.7</ele>
        <time>2013-11-20T12:47:01Z</time>
      </trkpt>
      <trkpt lat="43.24682" lon="5.6955">
        <ele>422.6</ele>
        <time>2013-11-20T12:47:05Z</time>
      </trkpt>
      <trkpt lat="43.24683" lon="5.69556">
        <ele>423.5</ele>
        <time>2013-11-20T12:47:09Z</time>
      </trkpt>
      <trkpt lat="43.24683" lon="5.6956">
        <ele>424.2</ele>
        <time>2013-11-20T12:47:12Z</time>
      </trkpt>
      <trkpt lat="43.24683" lon="5.69562">
        <ele>424.5</ele>
        <time>2013-11-20T12:47:13Z</time>
      </trkpt>
      <trkpt lat="43.24684" lon="5.69571">
        <ele>425.2</ele>
        <time>2013-11-20T12:47:19Z</time>
      </trkpt>
      <trkpt lat="43.24684" lon="5.69576">
        <ele>426.6</ele>
        <time>2013-11-20T12:47:22Z</time>
      </trkpt>
      <trkpt lat="43.24685" lon="5.69581">
        <ele>427</ele>
        <time>2013-11-20T12:47:25Z</time>
      </trkpt>
      <trkpt lat="43.24686" lon="5.69587">
        <ele>425.8</ele>
        <time>2013-11-20T12:47:30Z</time>
      </trkpt>
      <trkpt lat="43.24688" lon="5.69592">
        <ele>420.8</ele>
        <time>2013-11-20T12:47:37Z</time>
      </trkpt>
      <trkpt lat="43.24689" lon="5.69596">
        <ele>420.3</ele>
        <time>2013-11-20T12:47:40Z</time>
      </trkpt>
      <trkpt lat="43.24689" lon="5.69602">
        <ele>419.8</ele>
        <time>2013-11-20T12:47:43Z</time>
      </trkpt>
      <trkpt lat="43.2469" lon="5.69607">
        <ele>420.8</ele>
        <time>2013-11-20T12:47:46Z</time>
      </trkpt>
      <trkpt lat="43.24691" lon="5.69613">
        <ele>422.7</ele>
        <time>2013-11-20T12:47:49Z</time>
      </trkpt>
      <trkpt lat="43.24694" lon="5.69617">
        <ele>419.2</ele>
        <time>2013-11-20T12:47:55Z</time>
      </trkpt>
      <trkpt lat="43.24695" lon="5.69621">
        <ele>419.6</ele>
        <time>2013-11-20T12:47:58Z</time>
      </trkpt>
      <trkpt lat="43.24697" lon="5.69626">
        <ele>419.5</ele>
        <time>2013-11-20T12:48:02Z</time>
      </trkpt>
      <trkpt lat="43.24699" lon="5.69631">
        <ele>418.3</ele>
        <time>2013-11-20T12:48:06Z</time>
      </trkpt>
      <trkpt lat="43.24701" lon="5.69635">
        <ele>419.3</ele>
        <time>2013-11-20T12:48:10Z</time>
      </trkpt>
      <trkpt lat="43.24705" lon="5.69639">
        <ele>416</ele>
        <time>2013-11-20T12:48:16Z</time>
      </trkpt>
      <trkpt lat="43.24705" lon="5.69639">
        <ele>415.1</ele>
        <time>2013-11-20T12:48:17Z</time>
      </trkpt>
      <trkpt lat="43.24711" lon="5.69642">
        <ele>409.3</ele>
        <time>2013-11-20T12:48:25Z</time>
      </trkpt>
      <trkpt lat="43.24716" lon="5.69644">
        <ele>411.7</ele>
        <time>2013-11-20T12:48:28Z</time>
      </trkpt>
      <trkpt lat="43.24719" lon="5.69646">
        <ele>412.5</ele>
        <time>2013-11-20T12:48:32Z</time>
      </trkpt>
      <trkpt lat="43.24723" lon="5.69648">
        <ele>414.5</ele>
        <time>2013-11-20T12:48:35Z</time>
      </trkpt>
      <trkpt lat="43.24726" lon="5.6965">
        <ele>414.2</ele>
        <time>2013-11-20T12:48:40Z</time>
      </trkpt>
      <trkpt lat="43.2473" lon="5.69652">
        <ele>415.3</ele>
        <time>2013-11-20T12:48:43Z</time>
      </trkpt>
      <trkpt lat="43.24733" lon="5.69651">
        <ele>416</ele>
        <time>2013-11-20T12:48:45Z</time>
      </trkpt>
      <trkpt lat="43.24737" lon="5.69651">
        <ele>416</ele>
        <time>2013-11-20T12:48:48Z</time>
      </trkpt>
      <trkpt lat="43.2474" lon="5.69652">
        <ele>416.8</ele>
        <time>2013-11-20T12:48:52Z</time>
      </trkpt>
      <trkpt lat="43.24744" lon="5.69652">
        <ele>416</ele>
        <time>2013-11-20T12:48:56Z</time>
      </trkpt>
      <trkpt lat="43.24749" lon="5.69651">
        <ele>414.5</ele>
        <time>2013-11-20T12:49:00Z</time>
      </trkpt>
      <trkpt lat="43.24752" lon="5.69651">
        <ele>414.3</ele>
        <time>2013-11-20T12:49:04Z</time>
      </trkpt>
      <trkpt lat="43.24756" lon="5.69654">
        <ele>415.7</ele>
        <time>2013-11-20T12:49:09Z</time>
      </trkpt>
      <trkpt lat="43.24761" lon="5.69654">
        <ele>415.2</ele>
        <time>2013-11-20T12:49:14Z</time>
      </trkpt>
      <trkpt lat="43.24765" lon="5.69654">
        <ele>413.7</ele>
        <time>2013-11-20T12:49:19Z</time>
      </trkpt>
      <trkpt lat="43.24766" lon="5.69654">
        <ele>413.7</ele>
        <time>2013-11-20T12:49:20Z</time>
      </trkpt>
      <trkpt lat="43.24772" lon="5.69655">
        <ele>415.2</ele>
        <time>2013-11-20T12:49:26Z</time>
      </trkpt>
      <trkpt lat="43.24776" lon="5.69655">
        <ele>417</ele>
        <time>2013-11-20T12:49:29Z</time>
      </trkpt>
      <trkpt lat="43.2478" lon="5.69656">
        <ele>418.2</ele>
        <time>2013-11-20T12:49:32Z</time>
      </trkpt>
      <trkpt lat="43.24784" lon="5.69657">
        <ele>416.7</ele>
        <time>2013-11-20T12:49:37Z</time>
      </trkpt>
      <trkpt lat="43.24788" lon="5.69659">
        <ele>415.7</ele>
        <time>2013-11-20T12:49:42Z</time>
      </trkpt>
      <trkpt lat="43.24792" lon="5.6966">
        <ele>415.5</ele>
        <time>2013-11-20T12:49:46Z</time>
      </trkpt>
      <trkpt lat="43.24795" lon="5.69662">
        <ele>416.7</ele>
        <time>2013-11-20T12:49:49Z</time>
      </trkpt>
      <trkpt lat="43.24798" lon="5.69664">
        <ele>417.2</ele>
        <time>2013-11-20T12:49:52Z</time>
      </trkpt>
      <trkpt lat="43.24801" lon="5.69667">
        <ele>417.8</ele>
        <time>2013-11-20T12:49:55Z</time>
      </trkpt>
      <trkpt lat="43.24803" lon="5.6967">
        <ele>418.1</ele>
        <time>2013-11-20T12:49:59Z</time>
      </trkpt>
      <trkpt lat="43.24805" lon="5.69675">
        <ele>417.6</ele>
        <time>2013-11-20T12:50:04Z</time>
      </trkpt>
      <trkpt lat="43.24807" lon="5.6968">
        <ele>418.7</ele>
        <time>2013-11-20T12:50:08Z</time>
      </trkpt>
      <trkpt lat="43.24809" lon="5.69685">
        <ele>421</ele>
        <time>2013-11-20T12:50:11Z</time>
      </trkpt>
      <trkpt lat="43.24811" lon="5.6969">
        <ele>419.7</ele>
        <time>2013-11-20T12:50:16Z</time>
      </trkpt>
      <trkpt lat="43.24812" lon="5.69696">
        <ele>421.2</ele>
        <time>2013-11-20T12:50:20Z</time>
      </trkpt>
      <trkpt lat="43.24812" lon="5.69697">
        <ele>422</ele>
        <time>2013-11-20T12:50:21Z</time>
      </trkpt>
      <trkpt lat="43.24814" lon="5.69706">
        <ele>425.7</ele>
        <time>2013-11-20T12:50:27Z</time>
      </trkpt>
      <trkpt lat="43.24816" lon="5.69711">
        <ele>428.1</ele>
        <time>2013-11-20T12:50:31Z</time>
      </trkpt>
      <trkpt lat="43.24817" lon="5.69716">
        <ele>428.7</ele>
        <time>2013-11-20T12:50:35Z</time>
      </trkpt>
      <trkpt lat="43.24818" lon="5.69721">
        <ele>430.1</ele>
        <time>2013-11-20T12:50:40Z</time>
      </trkpt>
      <trkpt lat="43.24818" lon="5.69727">
        <ele>429.7</ele>
        <time>2013-11-20T12:50:45Z</time>
      </trkpt>
      <trkpt lat="43.24818" lon="5.69732">
        <ele>429.8</ele>
        <time>2013-11-20T12:50:49Z</time>
      </trkpt>
      <trkpt lat="43.24818" lon="5.69737">
        <ele>429.7</ele>
        <time>2013-11-20T12:50:53Z</time>
      </trkpt>
      <trkpt lat="43.24819" lon="5.69743">
        <ele>429.6</ele>
        <time>2013-11-20T12:50:57Z</time>
      </trkpt>
      <trkpt lat="43.24821" lon="5.69748">
        <ele>428.7</ele>
        <time>2013-11-20T12:51:02Z</time>
      </trkpt>
      <trkpt lat="43.24821" lon="5.69753">
        <ele>429.3</ele>
        <time>2013-11-20T12:51:06Z</time>
      </trkpt>
      <trkpt lat="43.24822" lon="5.69758">
        <ele>429.3</ele>
        <time>2013-11-20T12:51:10Z</time>
      </trkpt>
      <trkpt lat="43.24824" lon="5.69762">
        <ele>429.1</ele>
        <time>2013-11-20T12:51:14Z</time>
      </trkpt>
      <trkpt lat="43.24827" lon="5.69766">
        <ele>429.1</ele>
        <time>2013-11-20T12:51:18Z</time>
      </trkpt>
      <trkpt lat="43.2483" lon="5.69769">
        <ele>428.7</ele>
        <time>2013-11-20T12:51:22Z</time>
      </trkpt>
      <trkpt lat="43.2483" lon="5.6977">
        <ele>428.5</ele>
        <time>2013-11-20T12:51:23Z</time>
      </trkpt>
      <trkpt lat="43.24835" lon="5.69778">
        <ele>431</ele>
        <time>2013-11-20T12:51:33Z</time>
      </trkpt>
      <trkpt lat="43.24839" lon="5.69779">
        <ele>434.5</ele>
        <time>2013-11-20T12:51:46Z</time>
      </trkpt>
      <trkpt lat="43.24843" lon="5.6978">
        <ele>433.7</ele>
        <time>2013-11-20T12:51:59Z</time>
      </trkpt>
      <trkpt lat="43.24847" lon="5.6978">
        <ele>432.2</ele>
        <time>2013-11-20T12:52:06Z</time>
      </trkpt>
      <trkpt lat="43.2485" lon="5.69777">
        <ele>432.5</ele>
        <time>2013-11-20T12:52:12Z</time>
      </trkpt>
      <trkpt lat="43.24854" lon="5.69775">
        <ele>431.7</ele>
        <time>2013-11-20T12:52:16Z</time>
      </trkpt>
      <trkpt lat="43.24857" lon="5.69772">
        <ele>431.8</ele>
        <time>2013-11-20T12:52:22Z</time>
      </trkpt>
      <trkpt lat="43.24859" lon="5.69767">
        <ele>431.7</ele>
        <time>2013-11-20T12:52:29Z</time>
      </trkpt>
      <trkpt lat="43.2486" lon="5.69767">
        <ele>431.7</ele>
        <time>2013-11-20T12:52:30Z</time>
      </trkpt>
      <trkpt lat="43.24865" lon="5.69759">
        <ele>432.3</ele>
        <time>2013-11-20T12:52:41Z</time>
      </trkpt>
      <trkpt lat="43.24868" lon="5.69755">
        <ele>432.6</ele>
        <time>2013-11-20T12:52:48Z</time>
      </trkpt>
      <trkpt lat="43.24871" lon="5.69751">
        <ele>433.3</ele>
        <time>2013-11-20T12:52:55Z</time>
      </trkpt>
      <trkpt lat="43.24875" lon="5.69748">
        <ele>434.7</ele>
        <time>2013-11-20T12:53:03Z</time>
      </trkpt>
      <trkpt lat="43.24878" lon="5.69745">
        <ele>434.6</ele>
        <time>2013-11-20T12:53:10Z</time>
      </trkpt>
      <trkpt lat="43.24881" lon="5.69741">
        <ele>435.3</ele>
        <time>2013-11-20T12:53:16Z</time>
      </trkpt>
      <trkpt lat="43.24884" lon="5.69738">
        <ele>436.2</ele>
        <time>2013-11-20T12:53:21Z</time>
      </trkpt>
      <trkpt lat="43.24888" lon="5.69734">
        <ele>437</ele>
        <time>2013-11-20T12:53:27Z</time>
      </trkpt>
      <trkpt lat="43.24891" lon="5.6973">
        <ele>438.8</ele>
        <time>2013-11-20T12:53:33Z</time>
      </trkpt>
      <trkpt lat="43.24891" lon="5.6973">
        <ele>439.1</ele>
        <time>2013-11-20T12:53:34Z</time>
      </trkpt>
      <trkpt lat="43.24895" lon="5.69721">
        <ele>441.5</ele>
        <time>2013-11-20T12:53:48Z</time>
      </trkpt>
      <trkpt lat="43.24898" lon="5.69716">
        <ele>443.2</ele>
        <time>2013-11-20T12:53:55Z</time>
      </trkpt>
      <trkpt lat="43.24901" lon="5.69713">
        <ele>444.7</ele>
        <time>2013-11-20T12:54:04Z</time>
      </trkpt>
      <trkpt lat="43.24904" lon="5.69709">
        <ele>444.2</ele>
        <time>2013-11-20T12:54:11Z</time>
      </trkpt>
      <trkpt lat="43.24906" lon="5.69704">
        <ele>444.6</ele>
        <time>2013-11-20T12:54:17Z</time>
      </trkpt>
      <trkpt lat="43.24907" lon="5.69699">
        <ele>445</ele>
        <time>2013-11-20T12:54:24Z</time>
      </trkpt>
      <trkpt lat="43.24908" lon="5.69693">
        <ele>445.7</ele>
        <time>2013-11-20T12:54:32Z</time>
      </trkpt>
      <trkpt lat="43.24911" lon="5.69689">
        <ele>446.7</ele>
        <time>2013-11-20T12:54:42Z</time>
      </trkpt>
      <trkpt lat="43.24911" lon="5.69689">
        <ele>446.8</ele>
        <time>2013-11-20T12:54:43Z</time>
      </trkpt>
      <trkpt lat="43.2492" lon="5.69689">
        <ele>451.1</ele>
        <time>2013-11-20T12:55:03Z</time>
      </trkpt>
      <trkpt lat="43.24924" lon="5.69687">
        <ele>451.8</ele>
        <time>2013-11-20T12:55:17Z</time>
      </trkpt>
      <trkpt lat="43.24927" lon="5.6969">
        <ele>453.7</ele>
        <time>2013-11-20T12:55:29Z</time>
      </trkpt>
      <trkpt lat="43.24931" lon="5.69691">
        <ele>454.6</ele>
        <time>2013-11-20T12:55:39Z</time>
      </trkpt>
      <trkpt lat="43.24933" lon="5.69685">
        <ele>457</ele>
        <time>2013-11-20T12:56:05Z</time>
      </trkpt>
      <trkpt lat="43.24933" lon="5.69685">
        <ele>457</ele>
        <time>2013-11-20T12:56:06Z</time>
      </trkpt>
      <trkpt lat="43.2493" lon="5.69674">
        <ele>455.2</ele>
        <time>2013-11-20T12:56:22Z</time>
      </trkpt>
      <trkpt lat="43.24927" lon="5.6967">
        <ele>454.3</ele>
        <time>2013-11-20T12:56:29Z</time>
      </trkpt>
      <trkpt lat="43.24925" lon="5.69664">
        <ele>453.8</ele>
        <time>2013-11-20T12:56:35Z</time>
      </trkpt>
      <trkpt lat="43.24926" lon="5.69659">
        <ele>455.1</ele>
        <time>2013-11-20T12:56:41Z</time>
      </trkpt>
      <trkpt lat="43.24927" lon="5.69653">
        <ele>455.1</ele>
        <time>2013-11-20T12:56:52Z</time>
      </trkpt>
      <trkpt lat="43.24931" lon="5.69656">
        <ele>455.2</ele>
        <time>2013-11-20T12:57:01Z</time>
      </trkpt>
      <trkpt lat="43.24935" lon="5.69657">
        <ele>456.3</ele>
        <time>2013-11-20T12:57:15Z</time>
      </trkpt>
      <trkpt lat="43.24936" lon="5.69657">
        <ele>456.6</ele>
        <time>2013-11-20T12:57:16Z</time>
      </trkpt>
      <trkpt lat="43.24943" lon="5.69657">
        <ele>459.7</ele>
        <time>2013-11-20T12:57:32Z</time>
      </trkpt>
      <trkpt lat="43.24947" lon="5.6966">
        <ele>460.5</ele>
        <time>2013-11-20T12:57:40Z</time>
      </trkpt>
      <trkpt lat="43.24943" lon="5.69661">
        <ele>459</ele>
        <time>2013-11-20T12:59:33Z</time>
      </trkpt>
      <trkpt lat="43.24943" lon="5.69662">
        <ele>459</ele>
        <time>2013-11-20T12:59:34Z</time>
      </trkpt>
      <trkpt lat="43.24935" lon="5.69656">
        <ele>458.6</ele>
        <time>2013-11-20T13:01:17Z</time>
      </trkpt>
      <trkpt lat="43.24935" lon="5.69656">
        <ele>458.6</ele>
        <time>2013-11-20T13:01:18Z</time>
      </trkpt>
      <trkpt lat="43.24929" lon="5.69648">
        <ele>454.7</ele>
        <time>2013-11-20T13:01:50Z</time>
      </trkpt>
      <trkpt lat="43.24925" lon="5.69644">
        <ele>453.3</ele>
        <time>2013-11-20T13:02:02Z</time>
      </trkpt>
      <trkpt lat="43.24921" lon="5.69642">
        <ele>452.3</ele>
        <time>2013-11-20T13:02:13Z</time>
      </trkpt>
      <trkpt lat="43.24917" lon="5.6964">
        <ele>450.7</ele>
        <time>2013-11-20T13:02:23Z</time>
      </trkpt>
      <trkpt lat="43.24917" lon="5.6964">
        <ele>450.6</ele>
        <time>2013-11-20T13:02:24Z</time>
      </trkpt>
      <trkpt lat="43.24909" lon="5.69637">
        <ele>450.6</ele>
        <time>2013-11-20T13:02:37Z</time>
      </trkpt>
      <trkpt lat="43.24905" lon="5.69635">
        <ele>449</ele>
        <time>2013-11-20T13:02:52Z</time>
      </trkpt>
      <trkpt lat="43.24901" lon="5.69632">
        <ele>450.2</ele>
        <time>2013-11-20T13:02:57Z</time>
      </trkpt>
      <trkpt lat="43.24897" lon="5.6963">
        <ele>447.8</ele>
        <time>2013-11-20T13:03:07Z</time>
      </trkpt>
      <trkpt lat="43.24894" lon="5.69627">
        <ele>447.1</ele>
        <time>2013-11-20T13:03:15Z</time>
      </trkpt>
      <trkpt lat="43.24891" lon="5.69626">
        <ele>445.2</ele>
        <time>2013-11-20T13:03:24Z</time>
      </trkpt>
      <trkpt lat="43.2489" lon="5.69625">
        <ele>445.2</ele>
        <time>2013-11-20T13:03:25Z</time>
      </trkpt>
      <trkpt lat="43.24882" lon="5.69623">
        <ele>444.3</ele>
        <time>2013-11-20T13:03:39Z</time>
      </trkpt>
      <trkpt lat="43.24878" lon="5.69621">
        <ele>443.8</ele>
        <time>2013-11-20T13:03:45Z</time>
      </trkpt>
      <trkpt lat="43.24875" lon="5.69619">
        <ele>442.2</ele>
        <time>2013-11-20T13:03:50Z</time>
      </trkpt>
      <trkpt lat="43.24871" lon="5.69617">
        <ele>443.2</ele>
        <time>2013-11-20T13:03:54Z</time>
      </trkpt>
      <trkpt lat="43.24867" lon="5.69615">
        <ele>442.7</ele>
        <time>2013-11-20T13:03:59Z</time>
      </trkpt>
      <trkpt lat="43.24863" lon="5.69614">
        <ele>440.7</ele>
        <time>2013-11-20T13:04:06Z</time>
      </trkpt>
      <trkpt lat="43.24859" lon="5.69614">
        <ele>438.7</ele>
        <time>2013-11-20T13:04:13Z</time>
      </trkpt>
      <trkpt lat="43.24856" lon="5.69613">
        <ele>437.7</ele>
        <time>2013-11-20T13:04:17Z</time>
      </trkpt>
      <trkpt lat="43.24851" lon="5.69612">
        <ele>436</ele>
        <time>2013-11-20T13:04:23Z</time>
      </trkpt>
      <trkpt lat="43.24848" lon="5.69612">
        <ele>434.7</ele>
        <time>2013-11-20T13:04:28Z</time>
      </trkpt>
      <trkpt lat="43.24847" lon="5.6961">
        <ele>436.3</ele>
        <time>2013-11-20T13:04:29Z</time>
      </trkpt>
      <trkpt lat="43.2484" lon="5.69608">
        <ele>434</ele>
        <time>2013-11-20T13:04:40Z</time>
      </trkpt>
      <trkpt lat="43.24837" lon="5.69605">
        <ele>431.1</ele>
        <time>2013-11-20T13:04:50Z</time>
      </trkpt>
      <trkpt lat="43.24833" lon="5.69601">
        <ele>430.2</ele>
        <time>2013-11-20T13:04:57Z</time>
      </trkpt>
      <trkpt lat="43.2483" lon="5.69598">
        <ele>429.6</ele>
        <time>2013-11-20T13:05:01Z</time>
      </trkpt>
      <trkpt lat="43.24827" lon="5.69593">
        <ele>428.6</ele>
        <time>2013-11-20T13:05:07Z</time>
      </trkpt>
      <trkpt lat="43.24824" lon="5.69589">
        <ele>427.7</ele>
        <time>2013-11-20T13:05:12Z</time>
      </trkpt>
      <trkpt lat="43.24821" lon="5.69586">
        <ele>429.5</ele>
        <time>2013-11-20T13:05:16Z</time>
      </trkpt>
      <trkpt lat="43.24818" lon="5.69582">
        <ele>430.1</ele>
        <time>2013-11-20T13:05:20Z</time>
      </trkpt>
      <trkpt lat="43.24814" lon="5.6958">
        <ele>428.8</ele>
        <time>2013-11-20T13:05:26Z</time>
      </trkpt>
      <trkpt lat="43.2481" lon="5.69579">
        <ele>428</ele>
        <time>2013-11-20T13:05:32Z</time>
      </trkpt>
      <trkpt lat="43.2481" lon="5.69579">
        <ele>427.7</ele>
        <time>2013-11-20T13:05:33Z</time>
      </trkpt>
      <trkpt lat="43.24802" lon="5.69577">
        <ele>425.2</ele>
        <time>2013-11-20T13:05:47Z</time>
      </trkpt>
      <trkpt lat="43.24798" lon="5.69577">
        <ele>425.7</ele>
        <time>2013-11-20T13:05:53Z</time>
      </trkpt>
      <trkpt lat="43.24794" lon="5.69576">
        <ele>427.7</ele>
        <time>2013-11-20T13:05:56Z</time>
      </trkpt>
      <trkpt lat="43.24791" lon="5.69575">
        <ele>429.3</ele>
        <time>2013-11-20T13:05:58Z</time>
      </trkpt>
      <trkpt lat="43.24787" lon="5.69573">
        <ele>430</ele>
        <time>2013-11-20T13:06:02Z</time>
      </trkpt>
      <trkpt lat="43.24783" lon="5.69573">
        <ele>430.5</ele>
        <time>2013-11-20T13:06:07Z</time>
      </trkpt>
      <trkpt lat="43.24779" lon="5.69573">
        <ele>430.7</ele>
        <time>2013-11-20T13:06:12Z</time>
      </trkpt>
      <trkpt lat="43.24775" lon="5.69572">
        <ele>430.7</ele>
        <time>2013-11-20T13:06:16Z</time>
      </trkpt>
      <trkpt lat="43.24771" lon="5.69574">
        <ele>430.6</ele>
        <time>2013-11-20T13:06:22Z</time>
      </trkpt>
      <trkpt lat="43.24767" lon="5.69573">
        <ele>429.6</ele>
        <time>2013-11-20T13:06:28Z</time>
      </trkpt>
      <trkpt lat="43.24764" lon="5.6957">
        <ele>430.2</ele>
        <time>2013-11-20T13:06:31Z</time>
      </trkpt>
      <trkpt lat="43.2476" lon="5.69568">
        <ele>428.3</ele>
        <time>2013-11-20T13:06:39Z</time>
      </trkpt>
      <trkpt lat="43.24759" lon="5.69567">
        <ele>429.2</ele>
        <time>2013-11-20T13:06:40Z</time>
      </trkpt>
      <trkpt lat="43.24753" lon="5.69566">
        <ele>430.8</ele>
        <time>2013-11-20T13:06:48Z</time>
      </trkpt>
      <trkpt lat="43.24749" lon="5.69565">
        <ele>433</ele>
        <time>2013-11-20T13:06:51Z</time>
      </trkpt>
      <trkpt lat="43.24745" lon="5.69564">
        <ele>434.2</ele>
        <time>2013-11-20T13:06:56Z</time>
      </trkpt>
      <trkpt lat="43.24741" lon="5.69563">
        <ele>432.7</ele>
        <time>2013-11-20T13:07:02Z</time>
      </trkpt>
      <trkpt lat="43.24737" lon="5.69564">
        <ele>431.3</ele>
        <time>2013-11-20T13:07:08Z</time>
      </trkpt>
      <trkpt lat="43.24733" lon="5.69563">
        <ele>431</ele>
        <time>2013-11-20T13:07:14Z</time>
      </trkpt>
      <trkpt lat="43.24729" lon="5.69561">
        <ele>430.8</ele>
        <time>2013-11-20T13:07:19Z</time>
      </trkpt>
      <trkpt lat="43.24725" lon="5.69562">
        <ele>430.3</ele>
        <time>2013-11-20T13:07:27Z</time>
      </trkpt>
      <trkpt lat="43.24721" lon="5.6956">
        <ele>428.5</ele>
        <time>2013-11-20T13:07:35Z</time>
      </trkpt>
      <trkpt lat="43.24717" lon="5.69558">
        <ele>427.2</ele>
        <time>2013-11-20T13:07:41Z</time>
      </trkpt>
      <trkpt lat="43.24716" lon="5.69558">
        <ele>427.2</ele>
        <time>2013-11-20T13:07:42Z</time>
      </trkpt>
      <trkpt lat="43.2471" lon="5.69557">
        <ele>429</ele>
        <time>2013-11-20T13:07:50Z</time>
      </trkpt>
      <trkpt lat="43.24706" lon="5.69558">
        <ele>428.6</ele>
        <time>2013-11-20T13:07:55Z</time>
      </trkpt>
      <trkpt lat="43.24702" lon="5.6956">
        <ele>427.8</ele>
        <time>2013-11-20T13:08:00Z</time>
      </trkpt>
      <trkpt lat="43.24698" lon="5.69563">
        <ele>426.1</ele>
        <time>2013-11-20T13:08:05Z</time>
      </trkpt>
      <trkpt lat="43.24695" lon="5.69566">
        <ele>424.5</ele>
        <time>2013-11-20T13:08:11Z</time>
      </trkpt>
      <trkpt lat="43.24691" lon="5.69567">
        <ele>424.1</ele>
        <time>2013-11-20T13:08:20Z</time>
      </trkpt>
      <trkpt lat="43.24687" lon="5.69565">
        <ele>428.3</ele>
        <time>2013-11-20T13:08:28Z</time>
      </trkpt>
      <trkpt lat="43.24683" lon="5.69564">
        <ele>433.6</ele>
        <time>2013-11-20T13:09:07Z</time>
      </trkpt>
      <trkpt lat="43.24682" lon="5.69564">
        <ele>433.5</ele>
        <time>2013-11-20T13:09:08Z</time>
      </trkpt>
      <trkpt lat="43.2468" lon="5.69553">
        <ele>433.2</ele>
        <time>2013-11-20T13:09:51Z</time>
      </trkpt>
      <trkpt lat="43.24679" lon="5.69547">
        <ele>431.1</ele>
        <time>2013-11-20T13:09:56Z</time>
      </trkpt>
      <trkpt lat="43.24679" lon="5.69542">
        <ele>430.1</ele>
        <time>2013-11-20T13:10:00Z</time>
      </trkpt>
      <trkpt lat="43.24678" lon="5.69536">
        <ele>428.7</ele>
        <time>2013-11-20T13:10:04Z</time>
      </trkpt>
      <trkpt lat="43.24677" lon="5.69531">
        <ele>427.5</ele>
        <time>2013-11-20T13:10:07Z</time>
      </trkpt>
      <trkpt lat="43.24676" lon="5.69526">
        <ele>426.8</ele>
        <time>2013-11-20T13:10:11Z</time>
      </trkpt>
      <trkpt lat="43.24676" lon="5.69525">
        <ele>426.7</ele>
        <time>2013-11-20T13:10:12Z</time>
      </trkpt>
      <trkpt lat="43.24673" lon="5.69516">
        <ele>426.2</ele>
        <time>2013-11-20T13:10:21Z</time>
      </trkpt>
      <trkpt lat="43.24672" lon="5.69511">
        <ele>425.3</ele>
        <time>2013-11-20T13:10:25Z</time>
      </trkpt>
      <trkpt lat="43.24671" lon="5.69506">
        <ele>424.1</ele>
        <time>2013-11-20T13:10:30Z</time>
      </trkpt>
      <trkpt lat="43.2467" lon="5.69501">
        <ele>422.7</ele>
        <time>2013-11-20T13:10:35Z</time>
      </trkpt>
      <trkpt lat="43.24669" lon="5.69496">
        <ele>421.5</ele>
        <time>2013-11-20T13:10:39Z</time>
      </trkpt>
      <trkpt lat="43.24667" lon="5.6949">
        <ele>420.5</ele>
        <time>2013-11-20T13:10:43Z</time>
      </trkpt>
      <trkpt lat="43.24666" lon="5.69484">
        <ele>419.8</ele>
        <time>2013-11-20T13:10:47Z</time>
      </trkpt>
      <trkpt lat="43.24664" lon="5.69479">
        <ele>419.8</ele>
        <time>2013-11-20T13:10:51Z</time>
      </trkpt>
      <trkpt lat="43.24664" lon="5.69474">
        <ele>419.2</ele>
        <time>2013-11-20T13:10:55Z</time>
      </trkpt>
      <trkpt lat="43.24665" lon="5.69468">
        <ele>419</ele>
        <time>2013-11-20T13:10:59Z</time>
      </trkpt>
      <trkpt lat="43.24667" lon="5.69463">
        <ele>418.6</ele>
        <time>2013-11-20T13:11:03Z</time>
      </trkpt>
      <trkpt lat="43.24668" lon="5.69457">
        <ele>418.3</ele>
        <time>2013-11-20T13:11:07Z</time>
      </trkpt>
      <trkpt lat="43.24668" lon="5.69452">
        <ele>418.8</ele>
        <time>2013-11-20T13:11:10Z</time>
      </trkpt>
      <trkpt lat="43.24667" lon="5.69448">
        <ele>419.5</ele>
        <time>2013-11-20T13:11:13Z</time>
      </trkpt>
      <trkpt lat="43.24667" lon="5.69446">
        <ele>419.6</ele>
        <time>2013-11-20T13:11:14Z</time>
      </trkpt>
      <trkpt lat="43.24663" lon="5.69439">
        <ele>419.8</ele>
        <time>2013-11-20T13:11:20Z</time>
      </trkpt>
      <trkpt lat="43.2466" lon="5.69435">
        <ele>420.3</ele>
        <time>2013-11-20T13:11:24Z</time>
      </trkpt>
      <trkpt lat="43.24657" lon="5.69432">
        <ele>421.1</ele>
        <time>2013-11-20T13:11:29Z</time>
      </trkpt>
      <trkpt lat="43.24653" lon="5.6943">
        <ele>421.5</ele>
        <time>2013-11-20T13:11:34Z</time>
      </trkpt>
      <trkpt lat="43.24649" lon="5.6943">
        <ele>421.8</ele>
        <time>2013-11-20T13:11:38Z</time>
      </trkpt>
      <trkpt lat="43.24645" lon="5.69429">
        <ele>423.2</ele>
        <time>2013-11-20T13:11:42Z</time>
      </trkpt>
      <trkpt lat="43.2464" lon="5.69428">
        <ele>424.8</ele>
        <time>2013-11-20T13:11:45Z</time>
      </trkpt>
      <trkpt lat="43.24637" lon="5.69429">
        <ele>425.6</ele>
        <time>2013-11-20T13:11:48Z</time>
      </trkpt>
      <trkpt lat="43.24633" lon="5.6943">
        <ele>425.7</ele>
        <time>2013-11-20T13:11:52Z</time>
      </trkpt>
      <trkpt lat="43.24629" lon="5.6943">
        <ele>425.7</ele>
        <time>2013-11-20T13:11:56Z</time>
      </trkpt>
      <trkpt lat="43.24625" lon="5.6943">
        <ele>425.6</ele>
        <time>2013-11-20T13:12:00Z</time>
      </trkpt>
      <trkpt lat="43.24621" lon="5.69429">
        <ele>425.3</ele>
        <time>2013-11-20T13:12:04Z</time>
      </trkpt>
      <trkpt lat="43.24617" lon="5.69427">
        <ele>425.2</ele>
        <time>2013-11-20T13:12:08Z</time>
      </trkpt>
      <trkpt lat="43.24614" lon="5.69425">
        <ele>425.2</ele>
        <time>2013-11-20T13:12:12Z</time>
      </trkpt>
      <trkpt lat="43.2461" lon="5.69422">
        <ele>425.1</ele>
        <time>2013-11-20T13:12:16Z</time>
      </trkpt>
      <trkpt lat="43.24609" lon="5.69421">
        <ele>425</ele>
        <time>2013-11-20T13:12:17Z</time>
      </trkpt>
      <trkpt lat="43.24602" lon="5.69416">
        <ele>424.6</ele>
        <time>2013-11-20T13:12:27Z</time>
      </trkpt>
      <trkpt lat="43.24599" lon="5.69412">
        <ele>424.7</ele>
        <time>2013-11-20T13:12:31Z</time>
      </trkpt>
      <trkpt lat="43.24596" lon="5.69408">
        <ele>424.6</ele>
        <time>2013-11-20T13:12:35Z</time>
      </trkpt>
      <trkpt lat="43.24594" lon="5.69404">
        <ele>423.8</ele>
        <time>2013-11-20T13:12:39Z</time>
      </trkpt>
      <trkpt lat="43.24591" lon="5.69401">
        <ele>424.1</ele>
        <time>2013-11-20T13:12:43Z</time>
      </trkpt>
      <trkpt lat="43.24587" lon="5.69398">
        <ele>424.1</ele>
        <time>2013-11-20T13:12:47Z</time>
      </trkpt>
      <trkpt lat="43.24584" lon="5.69395">
        <ele>423.7</ele>
        <time>2013-11-20T13:12:51Z</time>
      </trkpt>
      <trkpt lat="43.24579" lon="5.69393">
        <ele>423</ele>
        <time>2013-11-20T13:12:56Z</time>
      </trkpt>
      <trkpt lat="43.24575" lon="5.69392">
        <ele>422.5</ele>
        <time>2013-11-20T13:13:01Z</time>
      </trkpt>
      <trkpt lat="43.24571" lon="5.69392">
        <ele>421.7</ele>
        <time>2013-11-20T13:13:06Z</time>
      </trkpt>
      <trkpt lat="43.24567" lon="5.69393">
        <ele>421.2</ele>
        <time>2013-11-20T13:13:10Z</time>
      </trkpt>
      <trkpt lat="43.24563" lon="5.69393">
        <ele>420.2</ele>
        <time>2013-11-20T13:13:14Z</time>
      </trkpt>
      <trkpt lat="43.24559" lon="5.69393">
        <ele>420.1</ele>
        <time>2013-11-20T13:13:18Z</time>
      </trkpt>
      <trkpt lat="43.24558" lon="5.69392">
        <ele>420.1</ele>
        <time>2013-11-20T13:13:19Z</time>
      </trkpt>
      <trkpt lat="43.24551" lon="5.69392">
        <ele>419.7</ele>
        <time>2013-11-20T13:13:26Z</time>
      </trkpt>
      <trkpt lat="43.24547" lon="5.6939">
        <ele>419.7</ele>
        <time>2013-11-20T13:13:31Z</time>
      </trkpt>
      <trkpt lat="43.24544" lon="5.69389">
        <ele>419.2</ele>
        <time>2013-11-20T13:13:36Z</time>
      </trkpt>
      <trkpt lat="43.24539" lon="5.69388">
        <ele>419.5</ele>
        <time>2013-11-20T13:13:40Z</time>
      </trkpt>
      <trkpt lat="43.24535" lon="5.69386">
        <ele>419.3</ele>
        <time>2013-11-20T13:13:44Z</time>
      </trkpt>
      <trkpt lat="43.24531" lon="5.69387">
        <ele>419.3</ele>
        <time>2013-11-20T13:13:48Z</time>
      </trkpt>
      <trkpt lat="43.24527" lon="5.69386">
        <ele>419.2</ele>
        <time>2013-11-20T13:13:53Z</time>
      </trkpt>
      <trkpt lat="43.24524" lon="5.69382">
        <ele>419.2</ele>
        <time>2013-11-20T13:13:58Z</time>
      </trkpt>
      <trkpt lat="43.24521" lon="5.69379">
        <ele>419.5</ele>
        <time>2013-11-20T13:14:02Z</time>
      </trkpt>
      <trkpt lat="43.24518" lon="5.69375">
        <ele>419.7</ele>
        <time>2013-11-20T13:14:06Z</time>
      </trkpt>
      <trkpt lat="43.24516" lon="5.6937">
        <ele>419.8</ele>
        <time>2013-11-20T13:14:10Z</time>
      </trkpt>
      <trkpt lat="43.24514" lon="5.69366">
        <ele>419.6</ele>
        <time>2013-11-20T13:14:14Z</time>
      </trkpt>
      <trkpt lat="43.24511" lon="5.69361">
        <ele>419.6</ele>
        <time>2013-11-20T13:14:18Z</time>
      </trkpt>
      <trkpt lat="43.24509" lon="5.69357">
        <ele>419.2</ele>
        <time>2013-11-20T13:14:22Z</time>
      </trkpt>
      <trkpt lat="43.24508" lon="5.69356">
        <ele>419.2</ele>
        <time>2013-11-20T13:14:23Z</time>
      </trkpt>
      <trkpt lat="43.24504" lon="5.69349">
        <ele>418.5</ele>
        <time>2013-11-20T13:14:31Z</time>
      </trkpt>
      <trkpt lat="43.24501" lon="5.69345">
        <ele>418.1</ele>
        <time>2013-11-20T13:14:35Z</time>
      </trkpt>
      <trkpt lat="43.24498" lon="5.69342">
        <ele>417.3</ele>
        <time>2013-11-20T13:14:39Z</time>
      </trkpt>
      <trkpt lat="43.24495" lon="5.69338">
        <ele>416.5</ele>
        <time>2013-11-20T13:14:44Z</time>
      </trkpt>
      <trkpt lat="43.24491" lon="5.69335">
        <ele>415.6</ele>
        <time>2013-11-20T13:14:49Z</time>
      </trkpt>
      <trkpt lat="43.24488" lon="5.69331">
        <ele>414.7</ele>
        <time>2013-11-20T13:14:54Z</time>
      </trkpt>
      <trkpt lat="43.24485" lon="5.69328">
        <ele>414</ele>
        <time>2013-11-20T13:14:59Z</time>
      </trkpt>
      <trkpt lat="43.24481" lon="5.69325">
        <ele>412.8</ele>
        <time>2013-11-20T13:15:04Z</time>
      </trkpt>
      <trkpt lat="43.24479" lon="5.69321">
        <ele>413.8</ele>
        <time>2013-11-20T13:15:08Z</time>
      </trkpt>
      <trkpt lat="43.24476" lon="5.69317">
        <ele>414.1</ele>
        <time>2013-11-20T13:15:12Z</time>
      </trkpt>
      <trkpt lat="43.24472" lon="5.69314">
        <ele>413.6</ele>
        <time>2013-11-20T13:15:17Z</time>
      </trkpt>
      <trkpt lat="43.24469" lon="5.69311">
        <ele>413.6</ele>
        <time>2013-11-20T13:15:21Z</time>
      </trkpt>
      <trkpt lat="43.24466" lon="5.69308">
        <ele>414</ele>
        <time>2013-11-20T13:15:25Z</time>
      </trkpt>
      <trkpt lat="43.24465" lon="5.69307">
        <ele>414.1</ele>
        <time>2013-11-20T13:15:26Z</time>
      </trkpt>
      <trkpt lat="43.24459" lon="5.69301">
        <ele>413.5</ele>
        <time>2013-11-20T13:15:35Z</time>
      </trkpt>
      <trkpt lat="43.24455" lon="5.69298">
        <ele>413.2</ele>
        <time>2013-11-20T13:15:40Z</time>
      </trkpt>
      <trkpt lat="43.24452" lon="5.69295">
        <ele>412.7</ele>
        <time>2013-11-20T13:15:44Z</time>
      </trkpt>
      <trkpt lat="43.24449" lon="5.69291">
        <ele>412.6</ele>
        <time>2013-11-20T13:15:48Z</time>
      </trkpt>
      <trkpt lat="43.24446" lon="5.69288">
        <ele>412.3</ele>
        <time>2013-11-20T13:15:52Z</time>
      </trkpt>
      <trkpt lat="43.24444" lon="5.69283">
        <ele>411.8</ele>
        <time>2013-11-20T13:15:56Z</time>
      </trkpt>
      <trkpt lat="43.24441" lon="5.6928">
        <ele>411.6</ele>
        <time>2013-11-20T13:16:01Z</time>
      </trkpt>
      <trkpt lat="43.24439" lon="5.69275">
        <ele>411.2</ele>
        <time>2013-11-20T13:16:06Z</time>
      </trkpt>
      <trkpt lat="43.24436" lon="5.69271">
        <ele>410.3</ele>
        <time>2013-11-20T13:16:11Z</time>
      </trkpt>
      <trkpt lat="43.24433" lon="5.69267">
        <ele>410.2</ele>
        <time>2013-11-20T13:16:15Z</time>
      </trkpt>
      <trkpt lat="43.24431" lon="5.69263">
        <ele>410.2</ele>
        <time>2013-11-20T13:16:19Z</time>
      </trkpt>
      <trkpt lat="43.24429" lon="5.69259">
        <ele>410.2</ele>
        <time>2013-11-20T13:16:23Z</time>
      </trkpt>
      <trkpt lat="43.24426" lon="5.69255">
        <ele>409.7</ele>
        <time>2013-11-20T13:16:28Z</time>
      </trkpt>
      <trkpt lat="43.24426" lon="5.69254">
        <ele>409.7</ele>
        <time>2013-11-20T13:16:29Z</time>
      </trkpt>
      <trkpt lat="43.24423" lon="5.69246">
        <ele>409.7</ele>
        <time>2013-11-20T13:16:37Z</time>
      </trkpt>
      <trkpt lat="43.24421" lon="5.69241">
        <ele>409.7</ele>
        <time>2013-11-20T13:16:48Z</time>
      </trkpt>
      <trkpt lat="43.2442" lon="5.69236">
        <ele>410</ele>
        <time>2013-11-20T13:16:59Z</time>
      </trkpt>
      <trkpt lat="43.24419" lon="5.6923">
        <ele>410</ele>
        <time>2013-11-20T13:17:03Z</time>
      </trkpt>
      <trkpt lat="43.24418" lon="5.69226">
        <ele>409.6</ele>
        <time>2013-11-20T13:17:06Z</time>
      </trkpt>
      <trkpt lat="43.24418" lon="5.69221">
        <ele>409</ele>
        <time>2013-11-20T13:17:09Z</time>
      </trkpt>
      <trkpt lat="43.24418" lon="5.69216">
        <ele>408.5</ele>
        <time>2013-11-20T13:17:12Z</time>
      </trkpt>
      <trkpt lat="43.24419" lon="5.69211">
        <ele>408.2</ele>
        <time>2013-11-20T13:17:15Z</time>
      </trkpt>
      <trkpt lat="43.24419" lon="5.69205">
        <ele>408.3</ele>
        <time>2013-11-20T13:17:19Z</time>
      </trkpt>
      <trkpt lat="43.2442" lon="5.69201">
        <ele>408.2</ele>
        <time>2013-11-20T13:17:22Z</time>
      </trkpt>
      <trkpt lat="43.2442" lon="5.69196">
        <ele>407.8</ele>
        <time>2013-11-20T13:17:25Z</time>
      </trkpt>
      <trkpt lat="43.2442" lon="5.6919">
        <ele>407.7</ele>
        <time>2013-11-20T13:17:28Z</time>
      </trkpt>
      <trkpt lat="43.2442" lon="5.69185">
        <ele>406.7</ele>
        <time>2013-11-20T13:17:32Z</time>
      </trkpt>
      <trkpt lat="43.2442" lon="5.69184">
        <ele>406.6</ele>
        <time>2013-11-20T13:17:33Z</time>
      </trkpt>
      <trkpt lat="43.24419" lon="5.69174">
        <ele>405.6</ele>
        <time>2013-11-20T13:17:40Z</time>
      </trkpt>
      <trkpt lat="43.24418" lon="5.69168">
        <ele>405</ele>
        <time>2013-11-20T13:17:45Z</time>
      </trkpt>
      <trkpt lat="43.24417" lon="5.69163">
        <ele>404.1</ele>
        <time>2013-11-20T13:17:50Z</time>
      </trkpt>
      <trkpt lat="43.24416" lon="5.69158">
        <ele>402.7</ele>
        <time>2013-11-20T13:17:55Z</time>
      </trkpt>
      <trkpt lat="43.24416" lon="5.69153">
        <ele>401.6</ele>
        <time>2013-11-20T13:18:00Z</time>
      </trkpt>
      <trkpt lat="43.24416" lon="5.69147">
        <ele>402</ele>
        <time>2013-11-20T13:18:05Z</time>
      </trkpt>
      <trkpt lat="43.24415" lon="5.69141">
        <ele>402.2</ele>
        <time>2013-11-20T13:18:10Z</time>
      </trkpt>
      <trkpt lat="43.24414" lon="5.69135">
        <ele>402.2</ele>
        <time>2013-11-20T13:18:15Z</time>
      </trkpt>
      <trkpt lat="43.24414" lon="5.69129">
        <ele>402.6</ele>
        <time>2013-11-20T13:18:19Z</time>
      </trkpt>
      <trkpt lat="43.24414" lon="5.69123">
        <ele>402.2</ele>
        <time>2013-11-20T13:18:24Z</time>
      </trkpt>
      <trkpt lat="43.24414" lon="5.69118">
        <ele>402</ele>
        <time>2013-11-20T13:18:28Z</time>
      </trkpt>
      <trkpt lat="43.24413" lon="5.69113">
        <ele>401.2</ele>
        <time>2013-11-20T13:18:33Z</time>
      </trkpt>
      <trkpt lat="43.24413" lon="5.69112">
        <ele>400.8</ele>
        <time>2013-11-20T13:18:34Z</time>
      </trkpt>
      <trkpt lat="43.24413" lon="5.69102">
        <ele>400.3</ele>
        <time>2013-11-20T13:18:41Z</time>
      </trkpt>
      <trkpt lat="43.24412" lon="5.69097">
        <ele>399.8</ele>
        <time>2013-11-20T13:18:45Z</time>
      </trkpt>
      <trkpt lat="43.24411" lon="5.69092">
        <ele>399.2</ele>
        <time>2013-11-20T13:18:49Z</time>
      </trkpt>
      <trkpt lat="43.2441" lon="5.69087">
        <ele>398.6</ele>
        <time>2013-11-20T13:18:54Z</time>
      </trkpt>
      <trkpt lat="43.24408" lon="5.69082">
        <ele>398.2</ele>
        <time>2013-11-20T13:18:58Z</time>
      </trkpt>
      <trkpt lat="43.24406" lon="5.69077">
        <ele>398</ele>
        <time>2013-11-20T13:19:02Z</time>
      </trkpt>
      <trkpt lat="43.24404" lon="5.69073">
        <ele>398.1</ele>
        <time>2013-11-20T13:19:06Z</time>
      </trkpt>
      <trkpt lat="43.24401" lon="5.69068">
        <ele>398</ele>
        <time>2013-11-20T13:19:10Z</time>
      </trkpt>
      <trkpt lat="43.24399" lon="5.69064">
        <ele>397.7</ele>
        <time>2013-11-20T13:19:15Z</time>
      </trkpt>
      <trkpt lat="43.24396" lon="5.6906">
        <ele>397.5</ele>
        <time>2013-11-20T13:19:19Z</time>
      </trkpt>
      <trkpt lat="43.24393" lon="5.69056">
        <ele>397.2</ele>
        <time>2013-11-20T13:19:24Z</time>
      </trkpt>
      <trkpt lat="43.2439" lon="5.69052">
        <ele>396.8</ele>
        <time>2013-11-20T13:19:29Z</time>
      </trkpt>
      <trkpt lat="43.24387" lon="5.69048">
        <ele>396.7</ele>
        <time>2013-11-20T13:19:34Z</time>
      </trkpt>
      <trkpt lat="43.24386" lon="5.69048">
        <ele>396.6</ele>
        <time>2013-11-20T13:19:35Z</time>
      </trkpt>
      <trkpt lat="43.24381" lon="5.6904">
        <ele>395.7</ele>
        <time>2013-11-20T13:19:46Z</time>
      </trkpt>
      <trkpt lat="43.24378" lon="5.69036">
        <ele>395.3</ele>
        <time>2013-11-20T13:19:51Z</time>
      </trkpt>
      <trkpt lat="43.24374" lon="5.69033">
        <ele>395.2</ele>
        <time>2013-11-20T13:19:56Z</time>
      </trkpt>
      <trkpt lat="43.2437" lon="5.6903">
        <ele>393.8</ele>
        <time>2013-11-20T13:20:06Z</time>
      </trkpt>
      <trkpt lat="43.24367" lon="5.69027">
        <ele>393</ele>
        <time>2013-11-20T13:20:14Z</time>
      </trkpt>
      <trkpt lat="43.24364" lon="5.69024">
        <ele>392.2</ele>
        <time>2013-11-20T13:20:19Z</time>
      </trkpt>
      <trkpt lat="43.2436" lon="5.69022">
        <ele>392</ele>
        <time>2013-11-20T13:20:24Z</time>
      </trkpt>
      <trkpt lat="43.24356" lon="5.69019">
        <ele>390.3</ele>
        <time>2013-11-20T13:20:31Z</time>
      </trkpt>
      <trkpt lat="43.24352" lon="5.69015">
        <ele>390</ele>
        <time>2013-11-20T13:20:37Z</time>
      </trkpt>
      <trkpt lat="43.24352" lon="5.69015">
        <ele>390</ele>
        <time>2013-11-20T13:20:38Z</time>
      </trkpt>
      <trkpt lat="43.24345" lon="5.6901">
        <ele>389.6</ele>
        <time>2013-11-20T13:20:46Z</time>
      </trkpt>
      <trkpt lat="43.24342" lon="5.69006">
        <ele>388.7</ele>
        <time>2013-11-20T13:20:53Z</time>
      </trkpt>
      <trkpt lat="43.24338" lon="5.69004">
        <ele>387.7</ele>
        <time>2013-11-20T13:20:58Z</time>
      </trkpt>
      <trkpt lat="43.24335" lon="5.69">
        <ele>387.7</ele>
        <time>2013-11-20T13:21:02Z</time>
      </trkpt>
      <trkpt lat="43.24333" lon="5.68995">
        <ele>387.8</ele>
        <time>2013-11-20T13:21:06Z</time>
      </trkpt>
      <trkpt lat="43.24332" lon="5.68991">
        <ele>387.3</ele>
        <time>2013-11-20T13:21:10Z</time>
      </trkpt>
      <trkpt lat="43.24332" lon="5.68985">
        <ele>387.6</ele>
        <time>2013-11-20T13:21:14Z</time>
      </trkpt>
      <trkpt lat="43.2433" lon="5.6898">
        <ele>386.6</ele>
        <time>2013-11-20T13:21:19Z</time>
      </trkpt>
      <trkpt lat="43.24329" lon="5.68975">
        <ele>386.7</ele>
        <time>2013-11-20T13:21:24Z</time>
      </trkpt>
      <trkpt lat="43.24328" lon="5.68969">
        <ele>385.6</ele>
        <time>2013-11-20T13:21:29Z</time>
      </trkpt>
      <trkpt lat="43.24327" lon="5.68963">
        <ele>384.8</ele>
        <time>2013-11-20T13:21:35Z</time>
      </trkpt>
      <trkpt lat="43.24326" lon="5.68958">
        <ele>383.8</ele>
        <time>2013-11-20T13:21:40Z</time>
      </trkpt>
      <trkpt lat="43.24326" lon="5.68957">
        <ele>383.7</ele>
        <time>2013-11-20T13:21:41Z</time>
      </trkpt>
      <trkpt lat="43.24323" lon="5.68947">
        <ele>382.3</ele>
        <time>2013-11-20T13:21:49Z</time>
      </trkpt>
      <trkpt lat="43.24323" lon="5.68942">
        <ele>385</ele>
        <time>2013-11-20T13:21:53Z</time>
      </trkpt>
      <trkpt lat="43.24324" lon="5.68936">
        <ele>387</ele>
        <time>2013-11-20T13:22:07Z</time>
      </trkpt>
      <trkpt lat="43.24326" lon="5.68931">
        <ele>386.7</ele>
        <time>2013-11-20T13:22:18Z</time>
      </trkpt>
      <trkpt lat="43.2433" lon="5.68927">
        <ele>387.8</ele>
        <time>2013-11-20T13:22:27Z</time>
      </trkpt>
      <trkpt lat="43.24333" lon="5.68923">
        <ele>388.3</ele>
        <time>2013-11-20T13:22:33Z</time>
      </trkpt>
      <trkpt lat="43.24334" lon="5.68918">
        <ele>391.7</ele>
        <time>2013-11-20T13:22:40Z</time>
      </trkpt>
      <trkpt lat="43.24336" lon="5.68913">
        <ele>392.7</ele>
        <time>2013-11-20T13:22:48Z</time>
      </trkpt>
      <trkpt lat="43.24337" lon="5.68912">
        <ele>392.7</ele>
        <time>2013-11-20T13:22:49Z</time>
      </trkpt>
      <trkpt lat="43.24342" lon="5.68905">
        <ele>391.2</ele>
        <time>2013-11-20T13:23:00Z</time>
      </trkpt>
      <trkpt lat="43.24346" lon="5.68901">
        <ele>391.2</ele>
        <time>2013-11-20T13:23:04Z</time>
      </trkpt>
      <trkpt lat="43.24348" lon="5.68896">
        <ele>391</ele>
        <time>2013-11-20T13:23:09Z</time>
      </trkpt>
      <trkpt lat="43.2435" lon="5.68891">
        <ele>390.7</ele>
        <time>2013-11-20T13:23:14Z</time>
      </trkpt>
      <trkpt lat="43.24353" lon="5.68887">
        <ele>391.3</ele>
        <time>2013-11-20T13:23:19Z</time>
      </trkpt>
      <trkpt lat="43.24356" lon="5.68883">
        <ele>390.5</ele>
        <time>2013-11-20T13:23:25Z</time>
      </trkpt>
      <trkpt lat="43.24357" lon="5.68878">
        <ele>391.5</ele>
        <time>2013-11-20T13:23:29Z</time>
      </trkpt>
      <trkpt lat="43.24355" lon="5.68873">
        <ele>392.2</ele>
        <time>2013-11-20T13:23:34Z</time>
      </trkpt>
      <trkpt lat="43.24352" lon="5.68868">
        <ele>393.2</ele>
        <time>2013-11-20T13:23:41Z</time>
      </trkpt>
      <trkpt lat="43.24349" lon="5.68864">
        <ele>394.2</ele>
        <time>2013-11-20T13:23:46Z</time>
      </trkpt>
      <trkpt lat="43.24346" lon="5.68862">
        <ele>394.7</ele>
        <time>2013-11-20T13:23:52Z</time>
      </trkpt>
      <trkpt lat="43.24345" lon="5.68861">
        <ele>395.3</ele>
        <time>2013-11-20T13:23:53Z</time>
      </trkpt>
      <trkpt lat="43.24339" lon="5.68855">
        <ele>397.2</ele>
        <time>2013-11-20T13:24:01Z</time>
      </trkpt>
      <trkpt lat="43.24336" lon="5.68851">
        <ele>397.1</ele>
        <time>2013-11-20T13:24:07Z</time>
      </trkpt>
      <trkpt lat="43.24333" lon="5.68847">
        <ele>396.7</ele>
        <time>2013-11-20T13:24:13Z</time>
      </trkpt>
      <trkpt lat="43.24329" lon="5.68843">
        <ele>398.2</ele>
        <time>2013-11-20T13:24:17Z</time>
      </trkpt>
      <trkpt lat="43.24326" lon="5.68841">
        <ele>398.2</ele>
        <time>2013-11-20T13:24:22Z</time>
      </trkpt>
      <trkpt lat="43.24322" lon="5.68837">
        <ele>399.2</ele>
        <time>2013-11-20T13:24:27Z</time>
      </trkpt>
      <trkpt lat="43.24319" lon="5.68833">
        <ele>399.6</ele>
        <time>2013-11-20T13:24:33Z</time>
      </trkpt>
      <trkpt lat="43.24315" lon="5.68831">
        <ele>399.5</ele>
        <time>2013-11-20T13:24:39Z</time>
      </trkpt>
      <trkpt lat="43.24311" lon="5.68828">
        <ele>399.8</ele>
        <time>2013-11-20T13:24:47Z</time>
      </trkpt>
      <trkpt lat="43.24308" lon="5.68824">
        <ele>400</ele>
        <time>2013-11-20T13:24:52Z</time>
      </trkpt>
      <trkpt lat="43.24306" lon="5.6882">
        <ele>401.1</ele>
        <time>2013-11-20T13:24:57Z</time>
      </trkpt>
      <trkpt lat="43.24305" lon="5.68818">
        <ele>401.2</ele>
        <time>2013-11-20T13:24:58Z</time>
      </trkpt>
      <trkpt lat="43.24303" lon="5.6881">
        <ele>402.8</ele>
        <time>2013-11-20T13:25:06Z</time>
      </trkpt>
      <trkpt lat="43.24304" lon="5.68804">
        <ele>404.2</ele>
        <time>2013-11-20T13:25:11Z</time>
      </trkpt>
      <trkpt lat="43.24304" lon="5.68798">
        <ele>405.7</ele>
        <time>2013-11-20T13:25:15Z</time>
      </trkpt>
      <trkpt lat="43.24305" lon="5.68792">
        <ele>406.5</ele>
        <time>2013-11-20T13:25:20Z</time>
      </trkpt>
      <trkpt lat="43.24306" lon="5.68786">
        <ele>406.8</ele>
        <time>2013-11-20T13:25:25Z</time>
      </trkpt>
      <trkpt lat="43.24307" lon="5.6878">
        <ele>407.5</ele>
        <time>2013-11-20T13:25:30Z</time>
      </trkpt>
      <trkpt lat="43.24307" lon="5.68775">
        <ele>407.6</ele>
        <time>2013-11-20T13:25:34Z</time>
      </trkpt>
      <trkpt lat="43.24309" lon="5.68771">
        <ele>407.8</ele>
        <time>2013-11-20T13:25:38Z</time>
      </trkpt>
      <trkpt lat="43.24311" lon="5.68765">
        <ele>408.2</ele>
        <time>2013-11-20T13:25:43Z</time>
      </trkpt>
      <trkpt lat="43.24313" lon="5.6876">
        <ele>408.8</ele>
        <time>2013-11-20T13:25:48Z</time>
      </trkpt>
      <trkpt lat="43.24315" lon="5.68756">
        <ele>409.3</ele>
        <time>2013-11-20T13:25:52Z</time>
      </trkpt>
      <trkpt lat="43.24317" lon="5.6875">
        <ele>410.1</ele>
        <time>2013-11-20T13:25:57Z</time>
      </trkpt>
      <trkpt lat="43.24319" lon="5.68746">
        <ele>410.7</ele>
        <time>2013-11-20T13:26:01Z</time>
      </trkpt>
      <trkpt lat="43.24319" lon="5.68744">
        <ele>410.7</ele>
        <time>2013-11-20T13:26:02Z</time>
      </trkpt>
      <trkpt lat="43.24323" lon="5.68736">
        <ele>411.3</ele>
        <time>2013-11-20T13:26:11Z</time>
      </trkpt>
      <trkpt lat="43.24325" lon="5.68731">
        <ele>411.6</ele>
        <time>2013-11-20T13:26:16Z</time>
      </trkpt>
      <trkpt lat="43.24327" lon="5.68727">
        <ele>411.5</ele>
        <time>2013-11-20T13:26:21Z</time>
      </trkpt>
      <trkpt lat="43.24329" lon="5.68721">
        <ele>412.2</ele>
        <time>2013-11-20T13:26:26Z</time>
      </trkpt>
      <trkpt lat="43.24331" lon="5.68716">
        <ele>413</ele>
        <time>2013-11-20T13:26:31Z</time>
      </trkpt>
      <trkpt lat="43.24332" lon="5.6871">
        <ele>413.3</ele>
        <time>2013-11-20T13:26:36Z</time>
      </trkpt>
      <trkpt lat="43.24334" lon="5.68705">
        <ele>413.8</ele>
        <time>2013-11-20T13:26:40Z</time>
      </trkpt>
      <trkpt lat="43.24336" lon="5.68701">
        <ele>414.5</ele>
        <time>2013-11-20T13:26:44Z</time>
      </trkpt>
      <trkpt lat="43.24337" lon="5.68696">
        <ele>415.2</ele>
        <time>2013-11-20T13:26:48Z</time>
      </trkpt>
      <trkpt lat="43.2434" lon="5.68692">
        <ele>416.2</ele>
        <time>2013-11-20T13:26:52Z</time>
      </trkpt>
      <trkpt lat="43.24341" lon="5.68687">
        <ele>417.3</ele>
        <time>2013-11-20T13:26:57Z</time>
      </trkpt>
      <trkpt lat="43.24343" lon="5.68683">
        <ele>418.1</ele>
        <time>2013-11-20T13:27:01Z</time>
      </trkpt>
      <trkpt lat="43.24345" lon="5.68678">
        <ele>418.7</ele>
        <time>2013-11-20T13:27:06Z</time>
      </trkpt>
      <trkpt lat="43.24345" lon="5.68677">
        <ele>418.7</ele>
        <time>2013-11-20T13:27:07Z</time>
      </trkpt>
      <trkpt lat="43.24348" lon="5.68668">
        <ele>419.5</ele>
        <time>2013-11-20T13:27:15Z</time>
      </trkpt>
      <trkpt lat="43.24351" lon="5.68663">
        <ele>419.8</ele>
        <time>2013-11-20T13:27:21Z</time>
      </trkpt>
      <trkpt lat="43.24353" lon="5.68658">
        <ele>420</ele>
        <time>2013-11-20T13:27:26Z</time>
      </trkpt>
      <trkpt lat="43.24354" lon="5.68653">
        <ele>419.5</ele>
        <time>2013-11-20T13:27:31Z</time>
      </trkpt>
      <trkpt lat="43.24355" lon="5.68647">
        <ele>419</ele>
        <time>2013-11-20T13:27:37Z</time>
      </trkpt>
      <trkpt lat="43.24357" lon="5.68643">
        <ele>420.2</ele>
        <time>2013-11-20T13:27:42Z</time>
      </trkpt>
      <trkpt lat="43.24359" lon="5.68639">
        <ele>421.5</ele>
        <time>2013-11-20T13:27:45Z</time>
      </trkpt>
      <trkpt lat="43.24362" lon="5.68634">
        <ele>422.3</ele>
        <time>2013-11-20T13:27:49Z</time>
      </trkpt>
      <trkpt lat="43.24364" lon="5.6863">
        <ele>423.2</ele>
        <time>2013-11-20T13:27:53Z</time>
      </trkpt>
      <trkpt lat="43.24366" lon="5.68626">
        <ele>423.8</ele>
        <time>2013-11-20T13:27:57Z</time>
      </trkpt>
      <trkpt lat="43.24368" lon="5.68622">
        <ele>424</ele>
        <time>2013-11-20T13:28:01Z</time>
      </trkpt>
      <trkpt lat="43.2437" lon="5.68618">
        <ele>424.2</ele>
        <time>2013-11-20T13:28:05Z</time>
      </trkpt>
      <trkpt lat="43.24372" lon="5.68613">
        <ele>424.6</ele>
        <time>2013-11-20T13:28:09Z</time>
      </trkpt>
      <trkpt lat="43.24373" lon="5.68612">
        <ele>424.7</ele>
        <time>2013-11-20T13:28:10Z</time>
      </trkpt>
      <trkpt lat="43.24376" lon="5.68604">
        <ele>425.6</ele>
        <time>2013-11-20T13:28:17Z</time>
      </trkpt>
      <trkpt lat="43.24378" lon="5.68599">
        <ele>426</ele>
        <time>2013-11-20T13:28:21Z</time>
      </trkpt>
      <trkpt lat="43.2438" lon="5.68594">
        <ele>427.2</ele>
        <time>2013-11-20T13:28:25Z</time>
      </trkpt>
      <trkpt lat="43.24382" lon="5.6859">
        <ele>428.3</ele>
        <time>2013-11-20T13:28:28Z</time>
      </trkpt>
      <trkpt lat="43.24384" lon="5.68586">
        <ele>429.5</ele>
        <time>2013-11-20T13:28:31Z</time>
      </trkpt>
      <trkpt lat="43.24386" lon="5.68581">
        <ele>430</ele>
        <time>2013-11-20T13:28:35Z</time>
      </trkpt>
      <trkpt lat="43.24388" lon="5.68576">
        <ele>430.3</ele>
        <time>2013-11-20T13:28:39Z</time>
      </trkpt>
      <trkpt lat="43.2439" lon="5.68571">
        <ele>431</ele>
        <time>2013-11-20T13:28:43Z</time>
      </trkpt>
      <trkpt lat="43.24392" lon="5.68566">
        <ele>431.5</ele>
        <time>2013-11-20T13:28:47Z</time>
      </trkpt>
      <trkpt lat="43.24394" lon="5.68562">
        <ele>432</ele>
        <time>2013-11-20T13:28:51Z</time>
      </trkpt>
      <trkpt lat="43.24396" lon="5.68557">
        <ele>432.6</ele>
        <time>2013-11-20T13:28:55Z</time>
      </trkpt>
      <trkpt lat="43.24397" lon="5.68552">
        <ele>432.8</ele>
        <time>2013-11-20T13:28:59Z</time>
      </trkpt>
      <trkpt lat="43.24399" lon="5.68547">
        <ele>433.5</ele>
        <time>2013-11-20T13:29:03Z</time>
      </trkpt>
      <trkpt lat="43.244" lon="5.68542">
        <ele>434</ele>
        <time>2013-11-20T13:29:07Z</time>
      </trkpt>
      <trkpt lat="43.24402" lon="5.68537">
        <ele>434.2</ele>
        <time>2013-11-20T13:29:11Z</time>
      </trkpt>
      <trkpt lat="43.24403" lon="5.68535">
        <ele>434.3</ele>
        <time>2013-11-20T13:29:12Z</time>
      </trkpt>
      <trkpt lat="43.24406" lon="5.68526">
        <ele>435.6</ele>
        <time>2013-11-20T13:29:19Z</time>
      </trkpt>
      <trkpt lat="43.24407" lon="5.68521">
        <ele>436.1</ele>
        <time>2013-11-20T13:29:23Z</time>
      </trkpt>
      <trkpt lat="43.24408" lon="5.68516">
        <ele>436.5</ele>
        <time>2013-11-20T13:29:26Z</time>
      </trkpt>
      <trkpt lat="43.2441" lon="5.68511">
        <ele>437.1</ele>
        <time>2013-11-20T13:29:30Z</time>
      </trkpt>
      <trkpt lat="43.24411" lon="5.68505">
        <ele>437.6</ele>
        <time>2013-11-20T13:29:34Z</time>
      </trkpt>
      <trkpt lat="43.24412" lon="5.68499">
        <ele>438</ele>
        <time>2013-11-20T13:29:38Z</time>
      </trkpt>
      <trkpt lat="43.24413" lon="5.68494">
        <ele>438.2</ele>
        <time>2013-11-20T13:29:41Z</time>
      </trkpt>
      <trkpt lat="43.24414" lon="5.6849">
        <ele>438.2</ele>
        <time>2013-11-20T13:29:44Z</time>
      </trkpt>
      <trkpt lat="43.24415" lon="5.68484">
        <ele>438</ele>
        <time>2013-11-20T13:29:48Z</time>
      </trkpt>
      <trkpt lat="43.24416" lon="5.68478">
        <ele>438.2</ele>
        <time>2013-11-20T13:29:52Z</time>
      </trkpt>
      <trkpt lat="43.24416" lon="5.68473">
        <ele>438.3</ele>
        <time>2013-11-20T13:29:56Z</time>
      </trkpt>
      <trkpt lat="43.24416" lon="5.68468">
        <ele>438.2</ele>
        <time>2013-11-20T13:29:59Z</time>
      </trkpt>
      <trkpt lat="43.24417" lon="5.68463">
        <ele>438.2</ele>
        <time>2013-11-20T13:30:02Z</time>
      </trkpt>
      <trkpt lat="43.24417" lon="5.68458">
        <ele>438.2</ele>
        <time>2013-11-20T13:30:05Z</time>
      </trkpt>
      <trkpt lat="43.24417" lon="5.68454">
        <ele>438.2</ele>
        <time>2013-11-20T13:30:08Z</time>
      </trkpt>
      <trkpt lat="43.24418" lon="5.68448">
        <ele>438.2</ele>
        <time>2013-11-20T13:30:12Z</time>
      </trkpt>
      <trkpt lat="43.24418" lon="5.68446">
        <ele>438.5</ele>
        <time>2013-11-20T13:30:13Z</time>
      </trkpt>
      <trkpt lat="43.24418" lon="5.68437">
        <ele>438.7</ele>
        <time>2013-11-20T13:30:19Z</time>
      </trkpt>
      <trkpt lat="43.24418" lon="5.68432">
        <ele>439</ele>
        <time>2013-11-20T13:30:22Z</time>
      </trkpt>
      <trkpt lat="43.24418" lon="5.68427">
        <ele>439.2</ele>
        <time>2013-11-20T13:30:25Z</time>
      </trkpt>
      <trkpt lat="43.24417" lon="5.68422">
        <ele>439.5</ele>
        <time>2013-11-20T13:30:28Z</time>
      </trkpt>
      <trkpt lat="43.24417" lon="5.68417">
        <ele>439.7</ele>
        <time>2013-11-20T13:30:31Z</time>
      </trkpt>
      <trkpt lat="43.24416" lon="5.68413">
        <ele>440.1</ele>
        <time>2013-11-20T13:30:34Z</time>
      </trkpt>
      <trkpt lat="43.24415" lon="5.68408">
        <ele>440.2</ele>
        <time>2013-11-20T13:30:37Z</time>
      </trkpt>
      <trkpt lat="43.24414" lon="5.68403">
        <ele>440.6</ele>
        <time>2013-11-20T13:30:40Z</time>
      </trkpt>
      <trkpt lat="43.24413" lon="5.68397">
        <ele>440.8</ele>
        <time>2013-11-20T13:30:44Z</time>
      </trkpt>
      <trkpt lat="43.24412" lon="5.68393">
        <ele>441.2</ele>
        <time>2013-11-20T13:30:47Z</time>
      </trkpt>
      <trkpt lat="43.24411" lon="5.68387">
        <ele>441.3</ele>
        <time>2013-11-20T13:30:51Z</time>
      </trkpt>
      <trkpt lat="43.2441" lon="5.68383">
        <ele>441.7</ele>
        <time>2013-11-20T13:30:54Z</time>
      </trkpt>
      <trkpt lat="43.24409" lon="5.68378">
        <ele>441.5</ele>
        <time>2013-11-20T13:30:57Z</time>
      </trkpt>
      <trkpt lat="43.24408" lon="5.68373">
        <ele>441.2</ele>
        <time>2013-11-20T13:31:00Z</time>
      </trkpt>
      <trkpt lat="43.24407" lon="5.68367">
        <ele>441.2</ele>
        <time>2013-11-20T13:31:03Z</time>
      </trkpt>
      <trkpt lat="43.24406" lon="5.68362">
        <ele>441.2</ele>
        <time>2013-11-20T13:31:06Z</time>
      </trkpt>
      <trkpt lat="43.24405" lon="5.68357">
        <ele>441.2</ele>
        <time>2013-11-20T13:31:09Z</time>
      </trkpt>
      <trkpt lat="43.24403" lon="5.68352">
        <ele>441.1</ele>
        <time>2013-11-20T13:31:12Z</time>
      </trkpt>
      <trkpt lat="43.24403" lon="5.68347">
        <ele>441.2</ele>
        <time>2013-11-20T13:31:15Z</time>
      </trkpt>
      <trkpt lat="43.24402" lon="5.68346">
        <ele>441.2</ele>
        <time>2013-11-20T13:31:16Z</time>
      </trkpt>
      <trkpt lat="43.24401" lon="5.68338">
        <ele>441.1</ele>
        <time>2013-11-20T13:31:21Z</time>
      </trkpt>
      <trkpt lat="43.244" lon="5.68332">
        <ele>441</ele>
        <time>2013-11-20T13:31:25Z</time>
      </trkpt>
      <trkpt lat="43.244" lon="5.68326">
        <ele>440.8</ele>
        <time>2013-11-20T13:31:29Z</time>
      </trkpt>
      <trkpt lat="43.244" lon="5.68321">
        <ele>440.7</ele>
        <time>2013-11-20T13:31:32Z</time>
      </trkpt>
      <trkpt lat="43.244" lon="5.68316">
        <ele>440.6</ele>
        <time>2013-11-20T13:31:35Z</time>
      </trkpt>
      <trkpt lat="43.244" lon="5.68311">
        <ele>440.7</ele>
        <time>2013-11-20T13:31:38Z</time>
      </trkpt>
      <trkpt lat="43.244" lon="5.68307">
        <ele>440.7</ele>
        <time>2013-11-20T13:31:41Z</time>
      </trkpt>
      <trkpt lat="43.24399" lon="5.68302">
        <ele>440.8</ele>
        <time>2013-11-20T13:31:44Z</time>
      </trkpt>
      <trkpt lat="43.24398" lon="5.68298">
        <ele>440.8</ele>
        <time>2013-11-20T13:31:47Z</time>
      </trkpt>
      <trkpt lat="43.24398" lon="5.68292">
        <ele>440.7</ele>
        <time>2013-11-20T13:31:51Z</time>
      </trkpt>
      <trkpt lat="43.24397" lon="5.68286">
        <ele>441</ele>
        <time>2013-11-20T13:31:55Z</time>
      </trkpt>
      <trkpt lat="43.24397" lon="5.6828">
        <ele>441.7</ele>
        <time>2013-11-20T13:31:59Z</time>
      </trkpt>
      <trkpt lat="43.24397" lon="5.68274">
        <ele>441.6</ele>
        <time>2013-11-20T13:32:03Z</time>
      </trkpt>
      <trkpt lat="43.24397" lon="5.68269">
        <ele>441.8</ele>
        <time>2013-11-20T13:32:06Z</time>
      </trkpt>
      <trkpt lat="43.24398" lon="5.68264">
        <ele>440.7</ele>
        <time>2013-11-20T13:32:10Z</time>
      </trkpt>
      <trkpt lat="43.24398" lon="5.68258">
        <ele>440</ele>
        <time>2013-11-20T13:32:14Z</time>
      </trkpt>
      <trkpt lat="43.244" lon="5.68254">
        <ele>439.2</ele>
        <time>2013-11-20T13:32:18Z</time>
      </trkpt>
      <trkpt lat="43.24401" lon="5.68253">
        <ele>439</ele>
        <time>2013-11-20T13:32:19Z</time>
      </trkpt>
      <trkpt lat="43.24404" lon="5.68244">
        <ele>440</ele>
        <time>2013-11-20T13:32:25Z</time>
      </trkpt>
      <trkpt lat="43.24405" lon="5.68239">
        <ele>438.8</ele>
        <time>2013-11-20T13:32:29Z</time>
      </trkpt>
      <trkpt lat="43.24406" lon="5.68234">
        <ele>437.7</ele>
        <time>2013-11-20T13:32:33Z</time>
      </trkpt>
      <trkpt lat="43.24408" lon="5.68229">
        <ele>437.2</ele>
        <time>2013-11-20T13:32:37Z</time>
      </trkpt>
      <trkpt lat="43.2441" lon="5.68224">
        <ele>438</ele>
        <time>2013-11-20T13:32:40Z</time>
      </trkpt>
      <trkpt lat="43.24412" lon="5.68218">
        <ele>438.8</ele>
        <time>2013-11-20T13:32:43Z</time>
      </trkpt>
      <trkpt lat="43.24413" lon="5.68214">
        <ele>439.2</ele>
        <time>2013-11-20T13:32:46Z</time>
      </trkpt>
      <trkpt lat="43.24415" lon="5.68209">
        <ele>440.1</ele>
        <time>2013-11-20T13:32:49Z</time>
      </trkpt>
      <trkpt lat="43.24416" lon="5.68203">
        <ele>440.5</ele>
        <time>2013-11-20T13:32:53Z</time>
      </trkpt>
      <trkpt lat="43.24418" lon="5.68198">
        <ele>440.7</ele>
        <time>2013-11-20T13:32:57Z</time>
      </trkpt>
      <trkpt lat="43.24419" lon="5.68193">
        <ele>441.1</ele>
        <time>2013-11-20T13:33:00Z</time>
      </trkpt>
      <trkpt lat="43.24419" lon="5.68188">
        <ele>440.8</ele>
        <time>2013-11-20T13:33:03Z</time>
      </trkpt>
      <trkpt lat="43.24419" lon="5.68183">
        <ele>440.7</ele>
        <time>2013-11-20T13:33:06Z</time>
      </trkpt>
      <trkpt lat="43.2442" lon="5.68177">
        <ele>440.2</ele>
        <time>2013-11-20T13:33:10Z</time>
      </trkpt>
      <trkpt lat="43.2442" lon="5.68172">
        <ele>439.3</ele>
        <time>2013-11-20T13:33:14Z</time>
      </trkpt>
      <trkpt lat="43.24422" lon="5.68167">
        <ele>440.7</ele>
        <time>2013-11-20T13:33:17Z</time>
      </trkpt>
      <trkpt lat="43.24424" lon="5.68162">
        <ele>442.7</ele>
        <time>2013-11-20T13:33:20Z</time>
      </trkpt>
      <trkpt lat="43.24425" lon="5.68161">
        <ele>443</ele>
        <time>2013-11-20T13:33:21Z</time>
      </trkpt>
      <trkpt lat="43.24428" lon="5.68154">
        <ele>443.6</ele>
        <time>2013-11-20T13:33:26Z</time>
      </trkpt>
      <trkpt lat="43.2443" lon="5.68149">
        <ele>443.8</ele>
        <time>2013-11-20T13:33:30Z</time>
      </trkpt>
      <trkpt lat="43.24432" lon="5.68144">
        <ele>444.2</ele>
        <time>2013-11-20T13:33:34Z</time>
      </trkpt>
      <trkpt lat="43.24434" lon="5.68139">
        <ele>445.1</ele>
        <time>2013-11-20T13:33:38Z</time>
      </trkpt>
      <trkpt lat="43.24437" lon="5.68134">
        <ele>445.7</ele>
        <time>2013-11-20T13:33:42Z</time>
      </trkpt>
      <trkpt lat="43.24438" lon="5.68129">
        <ele>446.2</ele>
        <time>2013-11-20T13:33:46Z</time>
      </trkpt>
      <trkpt lat="43.2444" lon="5.68124">
        <ele>445.8</ele>
        <time>2013-11-20T13:33:51Z</time>
      </trkpt>
      <trkpt lat="43.24443" lon="5.6812">
        <ele>447.6</ele>
        <time>2013-11-20T13:33:55Z</time>
      </trkpt>
      <trkpt lat="43.24445" lon="5.68116">
        <ele>449.5</ele>
        <time>2013-11-20T13:33:59Z</time>
      </trkpt>
      <trkpt lat="43.24449" lon="5.68112">
        <ele>449.1</ele>
        <time>2013-11-20T13:34:02Z</time>
      </trkpt>
      <trkpt lat="43.24451" lon="5.68108">
        <ele>448.1</ele>
        <time>2013-11-20T13:34:06Z</time>
      </trkpt>
      <trkpt lat="43.24453" lon="5.68102">
        <ele>445.2</ele>
        <time>2013-11-20T13:34:12Z</time>
      </trkpt>
      <trkpt lat="43.24453" lon="5.68096">
        <ele>444.3</ele>
        <time>2013-11-20T13:34:16Z</time>
      </trkpt>
      <trkpt lat="43.24455" lon="5.6809">
        <ele>443.8</ele>
        <time>2013-11-20T13:34:20Z</time>
      </trkpt>
      <trkpt lat="43.24457" lon="5.68086">
        <ele>445.2</ele>
        <time>2013-11-20T13:34:23Z</time>
      </trkpt>
      <trkpt lat="43.24457" lon="5.68084">
        <ele>445.1</ele>
        <time>2013-11-20T13:34:24Z</time>
      </trkpt>
      <trkpt lat="43.24459" lon="5.68076">
        <ele>444.2</ele>
        <time>2013-11-20T13:34:29Z</time>
      </trkpt>
      <trkpt lat="43.24459" lon="5.68071">
        <ele>444</ele>
        <time>2013-11-20T13:34:33Z</time>
      </trkpt>
      <trkpt lat="43.2446" lon="5.68066">
        <ele>443.8</ele>
        <time>2013-11-20T13:34:36Z</time>
      </trkpt>
      <trkpt lat="43.24462" lon="5.68062">
        <ele>444.1</ele>
        <time>2013-11-20T13:34:39Z</time>
      </trkpt>
      <trkpt lat="43.24463" lon="5.68057">
        <ele>444.7</ele>
        <time>2013-11-20T13:34:42Z</time>
      </trkpt>
      <trkpt lat="43.24465" lon="5.68051">
        <ele>444.7</ele>
        <time>2013-11-20T13:34:46Z</time>
      </trkpt>
      <trkpt lat="43.24464" lon="5.68046">
        <ele>445.2</ele>
        <time>2013-11-20T13:34:49Z</time>
      </trkpt>
      <trkpt lat="43.24464" lon="5.68041">
        <ele>447</ele>
        <time>2013-11-20T13:34:52Z</time>
      </trkpt>
      <trkpt lat="43.24464" lon="5.68035">
        <ele>447.7</ele>
        <time>2013-11-20T13:34:56Z</time>
      </trkpt>
      <trkpt lat="43.24464" lon="5.68029">
        <ele>446.5</ele>
        <time>2013-11-20T13:35:01Z</time>
      </trkpt>
      <trkpt lat="43.24464" lon="5.68024">
        <ele>446.3</ele>
        <time>2013-11-20T13:35:05Z</time>
      </trkpt>
      <trkpt lat="43.24463" lon="5.68019">
        <ele>446.6</ele>
        <time>2013-11-20T13:35:08Z</time>
      </trkpt>
      <trkpt lat="43.24462" lon="5.68014">
        <ele>447.2</ele>
        <time>2013-11-20T13:35:12Z</time>
      </trkpt>
      <trkpt lat="43.2446" lon="5.68009">
        <ele>446.5</ele>
        <time>2013-11-20T13:35:16Z</time>
      </trkpt>
      <trkpt lat="43.24456" lon="5.68008">
        <ele>447.8</ele>
        <time>2013-11-20T13:35:23Z</time>
      </trkpt>
      <trkpt lat="43.24452" lon="5.68005">
        <ele>452.7</ele>
        <time>2013-11-20T13:35:29Z</time>
      </trkpt>
      <trkpt lat="43.24452" lon="5.68005">
        <ele>452.7</ele>
        <time>2013-11-20T13:35:30Z</time>
      </trkpt>
      <trkpt lat="43.24451" lon="5.67998">
        <ele>451.5</ele>
        <time>2013-11-20T13:36:08Z</time>
      </trkpt>
      <trkpt lat="43.2445" lon="5.67992">
        <ele>452.2</ele>
        <time>2013-11-20T13:36:12Z</time>
      </trkpt>
      <trkpt lat="43.24449" lon="5.67987">
        <ele>451.7</ele>
        <time>2013-11-20T13:36:15Z</time>
      </trkpt>
      <trkpt lat="43.24449" lon="5.67983">
        <ele>451.2</ele>
        <time>2013-11-20T13:36:17Z</time>
      </trkpt>
      <trkpt lat="43.24448" lon="5.67978">
        <ele>451.2</ele>
        <time>2013-11-20T13:36:19Z</time>
      </trkpt>
      <trkpt lat="43.24448" lon="5.67973">
        <ele>450.7</ele>
        <time>2013-11-20T13:36:21Z</time>
      </trkpt>
      <trkpt lat="43.24447" lon="5.67969">
        <ele>450.1</ele>
        <time>2013-11-20T13:36:23Z</time>
      </trkpt>
      <trkpt lat="43.24445" lon="5.67965">
        <ele>449.3</ele>
        <time>2013-11-20T13:36:25Z</time>
      </trkpt>
      <trkpt lat="43.24444" lon="5.6796">
        <ele>448.2</ele>
        <time>2013-11-20T13:36:28Z</time>
      </trkpt>
      <trkpt lat="43.24442" lon="5.67956">
        <ele>448.2</ele>
        <time>2013-11-20T13:36:30Z</time>
      </trkpt>
      <trkpt lat="43.24441" lon="5.67954">
        <ele>448.2</ele>
        <time>2013-11-20T13:36:31Z</time>
      </trkpt>
      <trkpt lat="43.24438" lon="5.67947">
        <ele>447.8</ele>
        <time>2013-11-20T13:36:35Z</time>
      </trkpt>
      <trkpt lat="43.24436" lon="5.67942">
        <ele>447.5</ele>
        <time>2013-11-20T13:36:38Z</time>
      </trkpt>
      <trkpt lat="43.24433" lon="5.67938">
        <ele>447.7</ele>
        <time>2013-11-20T13:36:41Z</time>
      </trkpt>
      <trkpt lat="43.24431" lon="5.67934">
        <ele>448</ele>
        <time>2013-11-20T13:36:44Z</time>
      </trkpt>
      <trkpt lat="43.24428" lon="5.67931">
        <ele>447.8</ele>
        <time>2013-11-20T13:36:47Z</time>
      </trkpt>
      <trkpt lat="43.24425" lon="5.67927">
        <ele>447.6</ele>
        <time>2013-11-20T13:36:50Z</time>
      </trkpt>
      <trkpt lat="43.24423" lon="5.67923">
        <ele>446.8</ele>
        <time>2013-11-20T13:36:52Z</time>
      </trkpt>
      <trkpt lat="43.24421" lon="5.67918">
        <ele>446.2</ele>
        <time>2013-11-20T13:36:54Z</time>
      </trkpt>
      <trkpt lat="43.24418" lon="5.67914">
        <ele>445.1</ele>
        <time>2013-11-20T13:36:57Z</time>
      </trkpt>
      <trkpt lat="43.24416" lon="5.67908">
        <ele>443.2</ele>
        <time>2013-11-20T13:37:00Z</time>
      </trkpt>
      <trkpt lat="43.24415" lon="5.67903">
        <ele>440.7</ele>
        <time>2013-11-20T13:37:03Z</time>
      </trkpt>
      <trkpt lat="43.24413" lon="5.67898">
        <ele>437.7</ele>
        <time>2013-11-20T13:37:07Z</time>
      </trkpt>
      <trkpt lat="43.2441" lon="5.67894">
        <ele>437.7</ele>
        <time>2013-11-20T13:37:10Z</time>
      </trkpt>
      <trkpt lat="43.24407" lon="5.6789">
        <ele>436.6</ele>
        <time>2013-11-20T13:37:13Z</time>
      </trkpt>
      <trkpt lat="43.24405" lon="5.67885">
        <ele>436.3</ele>
        <time>2013-11-20T13:37:16Z</time>
      </trkpt>
      <trkpt lat="43.24402" lon="5.67882">
        <ele>437.1</ele>
        <time>2013-11-20T13:37:18Z</time>
      </trkpt>
      <trkpt lat="43.244" lon="5.6788">
        <ele>438.1</ele>
        <time>2013-11-20T13:37:20Z</time>
      </trkpt>
      <trkpt lat="43.24397" lon="5.67878">
        <ele>438.2</ele>
        <time>2013-11-20T13:37:22Z</time>
      </trkpt>
      <trkpt lat="43.24394" lon="5.67875">
        <ele>438.3</ele>
        <time>2013-11-20T13:37:24Z</time>
      </trkpt>
      <trkpt lat="43.2439" lon="5.67873">
        <ele>436.7</ele>
        <time>2013-11-20T13:37:28Z</time>
      </trkpt>
      <trkpt lat="43.24387" lon="5.67871">
        <ele>434.5</ele>
        <time>2013-11-20T13:37:32Z</time>
      </trkpt>
      <trkpt lat="43.24386" lon="5.6787">
        <ele>434</ele>
        <time>2013-11-20T13:37:33Z</time>
      </trkpt>
      <trkpt lat="43.24379" lon="5.67867">
        <ele>432.8</ele>
        <time>2013-11-20T13:37:40Z</time>
      </trkpt>
      <trkpt lat="43.24376" lon="5.67865">
        <ele>433.2</ele>
        <time>2013-11-20T13:37:43Z</time>
      </trkpt>
      <trkpt lat="43.24373" lon="5.67863">
        <ele>433.3</ele>
        <time>2013-11-20T13:37:46Z</time>
      </trkpt>
      <trkpt lat="43.24369" lon="5.67859">
        <ele>430.7</ele>
        <time>2013-11-20T13:37:51Z</time>
      </trkpt>
      <trkpt lat="43.24366" lon="5.67857">
        <ele>431</ele>
        <time>2013-11-20T13:37:54Z</time>
      </trkpt>
      <trkpt lat="43.24362" lon="5.67854">
        <ele>431.1</ele>
        <time>2013-11-20T13:37:58Z</time>
      </trkpt>
      <trkpt lat="43.24358" lon="5.67852">
        <ele>430.2</ele>
        <time>2013-11-20T13:38:01Z</time>
      </trkpt>
      <trkpt lat="43.24356" lon="5.67848">
        <ele>431.3</ele>
        <time>2013-11-20T13:38:05Z</time>
      </trkpt>
      <trkpt lat="43.24353" lon="5.67844">
        <ele>431.1</ele>
        <time>2013-11-20T13:38:08Z</time>
      </trkpt>
      <trkpt lat="43.24351" lon="5.6784">
        <ele>431.2</ele>
        <time>2013-11-20T13:38:11Z</time>
      </trkpt>
      <trkpt lat="43.24348" lon="5.67837">
        <ele>430.5</ele>
        <time>2013-11-20T13:38:14Z</time>
      </trkpt>
      <trkpt lat="43.24346" lon="5.67832">
        <ele>428.8</ele>
        <time>2013-11-20T13:38:18Z</time>
      </trkpt>
      <trkpt lat="43.24344" lon="5.67828">
        <ele>427.2</ele>
        <time>2013-11-20T13:38:21Z</time>
      </trkpt>
      <trkpt lat="43.24342" lon="5.67825">
        <ele>426.7</ele>
        <time>2013-11-20T13:38:24Z</time>
      </trkpt>
      <trkpt lat="43.24339" lon="5.67822">
        <ele>427.1</ele>
        <time>2013-11-20T13:38:27Z</time>
      </trkpt>
      <trkpt lat="43.24336" lon="5.67818">
        <ele>427.6</ele>
        <time>2013-11-20T13:38:30Z</time>
      </trkpt>
      <trkpt lat="43.24333" lon="5.67814">
        <ele>428.1</ele>
        <time>2013-11-20T13:38:33Z</time>
      </trkpt>
      <trkpt lat="43.24332" lon="5.67813">
        <ele>428.1</ele>
        <time>2013-11-20T13:38:34Z</time>
      </trkpt>
      <trkpt lat="43.24327" lon="5.67806">
        <ele>427</ele>
        <time>2013-11-20T13:38:40Z</time>
      </trkpt>
      <trkpt lat="43.24324" lon="5.67804">
        <ele>427.1</ele>
        <time>2013-11-20T13:38:43Z</time>
      </trkpt>
      <trkpt lat="43.2432" lon="5.67801">
        <ele>425.7</ele>
        <time>2013-11-20T13:38:48Z</time>
      </trkpt>
      <trkpt lat="43.24316" lon="5.67798">
        <ele>425.7</ele>
        <time>2013-11-20T13:38:52Z</time>
      </trkpt>
      <trkpt lat="43.24313" lon="5.67797">
        <ele>424.8</ele>
        <time>2013-11-20T13:38:55Z</time>
      </trkpt>
      <trkpt lat="43.24309" lon="5.67794">
        <ele>423.5</ele>
        <time>2013-11-20T13:38:59Z</time>
      </trkpt>
      <trkpt lat="43.24305" lon="5.67792">
        <ele>421.6</ele>
        <time>2013-11-20T13:39:03Z</time>
      </trkpt>
      <trkpt lat="43.24302" lon="5.67789">
        <ele>422</ele>
        <time>2013-11-20T13:39:06Z</time>
      </trkpt>
      <trkpt lat="43.24299" lon="5.67785">
        <ele>421.6</ele>
        <time>2013-11-20T13:39:09Z</time>
      </trkpt>
      <trkpt lat="43.24296" lon="5.67782">
        <ele>424.7</ele>
        <time>2013-11-20T13:39:13Z</time>
      </trkpt>
      <trkpt lat="43.24294" lon="5.67777">
        <ele>424.2</ele>
        <time>2013-11-20T13:39:16Z</time>
      </trkpt>
      <trkpt lat="43.2429" lon="5.67773">
        <ele>423.8</ele>
        <time>2013-11-20T13:39:20Z</time>
      </trkpt>
      <trkpt lat="43.24287" lon="5.6777">
        <ele>421.2</ele>
        <time>2013-11-20T13:39:25Z</time>
      </trkpt>
      <trkpt lat="43.24284" lon="5.67767">
        <ele>419.7</ele>
        <time>2013-11-20T13:39:28Z</time>
      </trkpt>
      <trkpt lat="43.24281" lon="5.67763">
        <ele>419.2</ele>
        <time>2013-11-20T13:39:31Z</time>
      </trkpt>
      <trkpt lat="43.24278" lon="5.67762">
        <ele>418.7</ele>
        <time>2013-11-20T13:39:34Z</time>
      </trkpt>
      <trkpt lat="43.24277" lon="5.67761">
        <ele>419.6</ele>
        <time>2013-11-20T13:39:35Z</time>
      </trkpt>
      <trkpt lat="43.24271" lon="5.67758">
        <ele>419.3</ele>
        <time>2013-11-20T13:39:40Z</time>
      </trkpt>
      <trkpt lat="43.24267" lon="5.67756">
        <ele>421.2</ele>
        <time>2013-11-20T13:39:43Z</time>
      </trkpt>
      <trkpt lat="43.24264" lon="5.67755">
        <ele>421.5</ele>
        <time>2013-11-20T13:39:46Z</time>
      </trkpt>
      <trkpt lat="43.2426" lon="5.67753">
        <ele>421.3</ele>
        <time>2013-11-20T13:39:49Z</time>
      </trkpt>
      <trkpt lat="43.24257" lon="5.67751">
        <ele>420.2</ele>
        <time>2013-11-20T13:39:53Z</time>
      </trkpt>
      <trkpt lat="43.24254" lon="5.67747">
        <ele>420.8</ele>
        <time>2013-11-20T13:39:56Z</time>
      </trkpt>
      <trkpt lat="43.24252" lon="5.67745">
        <ele>422.2</ele>
        <time>2013-11-20T13:39:58Z</time>
      </trkpt>
      <trkpt lat="43.24248" lon="5.67742">
        <ele>423.3</ele>
        <time>2013-11-20T13:40:01Z</time>
      </trkpt>
      <trkpt lat="43.24245" lon="5.67739">
        <ele>423.5</ele>
        <time>2013-11-20T13:40:04Z</time>
      </trkpt>
      <trkpt lat="43.24243" lon="5.67736">
        <ele>424.2</ele>
        <time>2013-11-20T13:40:07Z</time>
      </trkpt>
      <trkpt lat="43.2424" lon="5.67733">
        <ele>423.3</ele>
        <time>2013-11-20T13:40:11Z</time>
      </trkpt>
      <trkpt lat="43.24237" lon="5.67728">
        <ele>422.1</ele>
        <time>2013-11-20T13:40:15Z</time>
      </trkpt>
      <trkpt lat="43.24234" lon="5.67725">
        <ele>422.3</ele>
        <time>2013-11-20T13:40:19Z</time>
      </trkpt>
      <trkpt lat="43.24231" lon="5.67722">
        <ele>422.7</ele>
        <time>2013-11-20T13:40:22Z</time>
      </trkpt>
      <trkpt lat="43.24229" lon="5.67719">
        <ele>421.8</ele>
        <time>2013-11-20T13:40:25Z</time>
      </trkpt>
      <trkpt lat="43.24226" lon="5.67716">
        <ele>421.6</ele>
        <time>2013-11-20T13:40:28Z</time>
      </trkpt>
      <trkpt lat="43.24222" lon="5.67712">
        <ele>421.7</ele>
        <time>2013-11-20T13:40:32Z</time>
      </trkpt>
      <trkpt lat="43.2422" lon="5.67708">
        <ele>421.2</ele>
        <time>2013-11-20T13:40:35Z</time>
      </trkpt>
      <trkpt lat="43.24219" lon="5.67707">
        <ele>421.3</ele>
        <time>2013-11-20T13:40:36Z</time>
      </trkpt>
      <trkpt lat="43.24214" lon="5.677">
        <ele>418.1</ele>
        <time>2013-11-20T13:40:43Z</time>
      </trkpt>
      <trkpt lat="43.24211" lon="5.67697">
        <ele>417.3</ele>
        <time>2013-11-20T13:40:46Z</time>
      </trkpt>
      <trkpt lat="43.24208" lon="5.67693">
        <ele>418.2</ele>
        <time>2013-11-20T13:40:49Z</time>
      </trkpt>
      <trkpt lat="43.24205" lon="5.6769">
        <ele>419.2</ele>
        <time>2013-11-20T13:40:52Z</time>
      </trkpt>
      <trkpt lat="43.24201" lon="5.67687">
        <ele>420.2</ele>
        <time>2013-11-20T13:40:55Z</time>
      </trkpt>
      <trkpt lat="43.24198" lon="5.67685">
        <ele>421.1</ele>
        <time>2013-11-20T13:40:58Z</time>
      </trkpt>
      <trkpt lat="43.24195" lon="5.67683">
        <ele>421.5</ele>
        <time>2013-11-20T13:41:01Z</time>
      </trkpt>
      <trkpt lat="43.24192" lon="5.67681">
        <ele>420.5</ele>
        <time>2013-11-20T13:41:04Z</time>
      </trkpt>
      <trkpt lat="43.24188" lon="5.67677">
        <ele>418.7</ele>
        <time>2013-11-20T13:41:08Z</time>
      </trkpt>
      <trkpt lat="43.24184" lon="5.67674">
        <ele>416.7</ele>
        <time>2013-11-20T13:41:12Z</time>
      </trkpt>
      <trkpt lat="43.24181" lon="5.67671">
        <ele>416.8</ele>
        <time>2013-11-20T13:41:15Z</time>
      </trkpt>
      <trkpt lat="43.24177" lon="5.67668">
        <ele>417.3</ele>
        <time>2013-11-20T13:41:18Z</time>
      </trkpt>
      <trkpt lat="43.24175" lon="5.67664">
        <ele>417.8</ele>
        <time>2013-11-20T13:41:21Z</time>
      </trkpt>
      <trkpt lat="43.24173" lon="5.6766">
        <ele>418.5</ele>
        <time>2013-11-20T13:41:24Z</time>
      </trkpt>
      <trkpt lat="43.2417" lon="5.67657">
        <ele>419.2</ele>
        <time>2013-11-20T13:41:27Z</time>
      </trkpt>
      <trkpt lat="43.24167" lon="5.67653">
        <ele>419.6</ele>
        <time>2013-11-20T13:41:30Z</time>
      </trkpt>
      <trkpt lat="43.24165" lon="5.67649">
        <ele>419.5</ele>
        <time>2013-11-20T13:41:33Z</time>
      </trkpt>
      <trkpt lat="43.24161" lon="5.67645">
        <ele>418.8</ele>
        <time>2013-11-20T13:41:37Z</time>
      </trkpt>
      <trkpt lat="43.2416" lon="5.67644">
        <ele>418.6</ele>
        <time>2013-11-20T13:41:38Z</time>
      </trkpt>
      <trkpt lat="43.24154" lon="5.6764">
        <ele>415.3</ele>
        <time>2013-11-20T13:41:46Z</time>
      </trkpt>
      <trkpt lat="43.2415" lon="5.6764">
        <ele>413.2</ele>
        <time>2013-11-20T13:41:50Z</time>
      </trkpt>
      <trkpt lat="43.24146" lon="5.67642">
        <ele>410.1</ele>
        <time>2013-11-20T13:41:55Z</time>
      </trkpt>
      <trkpt lat="43.24143" lon="5.67644">
        <ele>407.7</ele>
        <time>2013-11-20T13:41:59Z</time>
      </trkpt>
      <trkpt lat="43.24139" lon="5.67645">
        <ele>408.7</ele>
        <time>2013-11-20T13:42:02Z</time>
      </trkpt>
      <trkpt lat="43.24135" lon="5.67645">
        <ele>411.7</ele>
        <time>2013-11-20T13:42:04Z</time>
      </trkpt>
      <trkpt lat="43.24131" lon="5.67648">
        <ele>410.8</ele>
        <time>2013-11-20T13:42:08Z</time>
      </trkpt>
      <trkpt lat="43.24127" lon="5.67649">
        <ele>412.1</ele>
        <time>2013-11-20T13:42:11Z</time>
      </trkpt>
      <trkpt lat="43.24123" lon="5.67652">
        <ele>411.1</ele>
        <time>2013-11-20T13:42:15Z</time>
      </trkpt>
      <trkpt lat="43.2412" lon="5.67654">
        <ele>409.8</ele>
        <time>2013-11-20T13:42:19Z</time>
      </trkpt>
      <trkpt lat="43.24116" lon="5.67655">
        <ele>407.7</ele>
        <time>2013-11-20T13:42:23Z</time>
      </trkpt>
      <trkpt lat="43.24113" lon="5.67658">
        <ele>406.6</ele>
        <time>2013-11-20T13:42:27Z</time>
      </trkpt>
      <trkpt lat="43.24109" lon="5.67659">
        <ele>403.5</ele>
        <time>2013-11-20T13:42:32Z</time>
      </trkpt>
      <trkpt lat="43.24105" lon="5.67659">
        <ele>403.1</ele>
        <time>2013-11-20T13:42:36Z</time>
      </trkpt>
      <trkpt lat="43.24101" lon="5.67659">
        <ele>404.7</ele>
        <time>2013-11-20T13:42:39Z</time>
      </trkpt>
      <trkpt lat="43.241" lon="5.67659">
        <ele>404.1</ele>
        <time>2013-11-20T13:42:40Z</time>
      </trkpt>
      <trkpt lat="43.24093" lon="5.67655">
        <ele>399.5</ele>
        <time>2013-11-20T13:42:48Z</time>
      </trkpt>
      <trkpt lat="43.24089" lon="5.67653">
        <ele>397.1</ele>
        <time>2013-11-20T13:42:53Z</time>
      </trkpt>
      <trkpt lat="43.24085" lon="5.6765">
        <ele>393.5</ele>
        <time>2013-11-20T13:42:58Z</time>
      </trkpt>
      <trkpt lat="43.24082" lon="5.67649">
        <ele>396.2</ele>
        <time>2013-11-20T13:43:00Z</time>
      </trkpt>
      <trkpt lat="43.24079" lon="5.67648">
        <ele>398.7</ele>
        <time>2013-11-20T13:43:01Z</time>
      </trkpt>
      <trkpt lat="43.24075" lon="5.67646">
        <ele>403</ele>
        <time>2013-11-20T13:43:03Z</time>
      </trkpt>
      <trkpt lat="43.24072" lon="5.67644">
        <ele>405.7</ele>
        <time>2013-11-20T13:43:05Z</time>
      </trkpt>
      <trkpt lat="43.24068" lon="5.6764">
        <ele>407.7</ele>
        <time>2013-11-20T13:43:08Z</time>
      </trkpt>
      <trkpt lat="43.24065" lon="5.67637">
        <ele>407.7</ele>
        <time>2013-11-20T13:43:11Z</time>
      </trkpt>
      <trkpt lat="43.24062" lon="5.67635">
        <ele>408.3</ele>
        <time>2013-11-20T13:43:14Z</time>
      </trkpt>
      <trkpt lat="43.24061" lon="5.6763">
        <ele>409</ele>
        <time>2013-11-20T13:43:17Z</time>
      </trkpt>
      <trkpt lat="43.24059" lon="5.67626">
        <ele>410.7</ele>
        <time>2013-11-20T13:43:20Z</time>
      </trkpt>
      <trkpt lat="43.24057" lon="5.67621">
        <ele>412.2</ele>
        <time>2013-11-20T13:43:23Z</time>
      </trkpt>
      <trkpt lat="43.24056" lon="5.67616">
        <ele>413.5</ele>
        <time>2013-11-20T13:43:26Z</time>
      </trkpt>
      <trkpt lat="43.24056" lon="5.67611">
        <ele>414.1</ele>
        <time>2013-11-20T13:43:29Z</time>
      </trkpt>
      <trkpt lat="43.24055" lon="5.67606">
        <ele>415.5</ele>
        <time>2013-11-20T13:43:33Z</time>
      </trkpt>
      <trkpt lat="43.24054" lon="5.676">
        <ele>415.6</ele>
        <time>2013-11-20T13:43:37Z</time>
      </trkpt>
      <trkpt lat="43.24052" lon="5.67595">
        <ele>416.2</ele>
        <time>2013-11-20T13:43:40Z</time>
      </trkpt>
      <trkpt lat="43.24052" lon="5.67593">
        <ele>416.6</ele>
        <time>2013-11-20T13:43:41Z</time>
      </trkpt>
      <trkpt lat="43.24049" lon="5.67584">
        <ele>417.2</ele>
        <time>2013-11-20T13:43:46Z</time>
      </trkpt>
      <trkpt lat="43.24048" lon="5.67579">
        <ele>418</ele>
        <time>2013-11-20T13:43:49Z</time>
      </trkpt>
      <trkpt lat="43.24047" lon="5.67574">
        <ele>418.3</ele>
        <time>2013-11-20T13:43:52Z</time>
      </trkpt>
      <trkpt lat="43.24046" lon="5.67569">
        <ele>418.3</ele>
        <time>2013-11-20T13:43:55Z</time>
      </trkpt>
      <trkpt lat="43.24044" lon="5.67564">
        <ele>418</ele>
        <time>2013-11-20T13:43:59Z</time>
      </trkpt>
      <trkpt lat="43.24042" lon="5.6756">
        <ele>416.7</ele>
        <time>2013-11-20T13:44:03Z</time>
      </trkpt>
      <trkpt lat="43.24039" lon="5.67556">
        <ele>416.7</ele>
        <time>2013-11-20T13:44:06Z</time>
      </trkpt>
      <trkpt lat="43.24037" lon="5.67553">
        <ele>416.5</ele>
        <time>2013-11-20T13:44:09Z</time>
      </trkpt>
      <trkpt lat="43.24033" lon="5.67549">
        <ele>416.3</ele>
        <time>2013-11-20T13:44:12Z</time>
      </trkpt>
      <trkpt lat="43.2403" lon="5.67545">
        <ele>415</ele>
        <time>2013-11-20T13:44:16Z</time>
      </trkpt>
      <trkpt lat="43.24027" lon="5.67542">
        <ele>413.2</ele>
        <time>2013-11-20T13:44:20Z</time>
      </trkpt>
      <trkpt lat="43.24023" lon="5.67539">
        <ele>413.6</ele>
        <time>2013-11-20T13:44:23Z</time>
      </trkpt>
      <trkpt lat="43.2402" lon="5.67535">
        <ele>414</ele>
        <time>2013-11-20T13:44:26Z</time>
      </trkpt>
      <trkpt lat="43.24017" lon="5.67532">
        <ele>414.2</ele>
        <time>2013-11-20T13:44:29Z</time>
      </trkpt>
      <trkpt lat="43.24013" lon="5.67528">
        <ele>414.2</ele>
        <time>2013-11-20T13:44:32Z</time>
      </trkpt>
      <trkpt lat="43.2401" lon="5.67525">
        <ele>414</ele>
        <time>2013-11-20T13:44:35Z</time>
      </trkpt>
      <trkpt lat="43.24008" lon="5.67522">
        <ele>414</ele>
        <time>2013-11-20T13:44:38Z</time>
      </trkpt>
      <trkpt lat="43.24004" lon="5.67519">
        <ele>413.8</ele>
        <time>2013-11-20T13:44:41Z</time>
      </trkpt>
      <trkpt lat="43.24003" lon="5.67518">
        <ele>413.8</ele>
        <time>2013-11-20T13:44:42Z</time>
      </trkpt>
      <trkpt lat="43.23998" lon="5.67514">
        <ele>413.2</ele>
        <time>2013-11-20T13:44:47Z</time>
      </trkpt>
      <trkpt lat="43.23994" lon="5.6751">
        <ele>412.7</ele>
        <time>2013-11-20T13:44:51Z</time>
      </trkpt>
      <trkpt lat="43.23991" lon="5.67507">
        <ele>411.6</ele>
        <time>2013-11-20T13:44:55Z</time>
      </trkpt>
      <trkpt lat="43.23988" lon="5.67504">
        <ele>411.2</ele>
        <time>2013-11-20T13:44:58Z</time>
      </trkpt>
      <trkpt lat="43.23985" lon="5.67501">
        <ele>411.1</ele>
        <time>2013-11-20T13:45:01Z</time>
      </trkpt>
      <trkpt lat="43.23983" lon="5.67498">
        <ele>411.2</ele>
        <time>2013-11-20T13:45:04Z</time>
      </trkpt>
      <trkpt lat="43.23979" lon="5.67494">
        <ele>411.8</ele>
        <time>2013-11-20T13:45:08Z</time>
      </trkpt>
      <trkpt lat="43.23976" lon="5.6749">
        <ele>412.7</ele>
        <time>2013-11-20T13:45:11Z</time>
      </trkpt>
      <trkpt lat="43.23973" lon="5.67486">
        <ele>412.6</ele>
        <time>2013-11-20T13:45:14Z</time>
      </trkpt>
      <trkpt lat="43.2397" lon="5.67483">
        <ele>412.3</ele>
        <time>2013-11-20T13:45:17Z</time>
      </trkpt>
      <trkpt lat="43.23967" lon="5.6748">
        <ele>412.3</ele>
        <time>2013-11-20T13:45:20Z</time>
      </trkpt>
      <trkpt lat="43.23964" lon="5.67477">
        <ele>411.7</ele>
        <time>2013-11-20T13:45:23Z</time>
      </trkpt>
      <trkpt lat="43.23961" lon="5.67473">
        <ele>411.6</ele>
        <time>2013-11-20T13:45:27Z</time>
      </trkpt>
      <trkpt lat="43.23958" lon="5.6747">
        <ele>411.6</ele>
        <time>2013-11-20T13:45:31Z</time>
      </trkpt>
      <trkpt lat="43.23955" lon="5.67466">
        <ele>411</ele>
        <time>2013-11-20T13:45:35Z</time>
      </trkpt>
      <trkpt lat="43.23952" lon="5.67462">
        <ele>410.2</ele>
        <time>2013-11-20T13:45:39Z</time>
      </trkpt>
      <trkpt lat="43.23949" lon="5.67459">
        <ele>410.2</ele>
        <time>2013-11-20T13:45:42Z</time>
      </trkpt>
      <trkpt lat="43.23948" lon="5.67458">
        <ele>410.2</ele>
        <time>2013-11-20T13:45:43Z</time>
      </trkpt>
      <trkpt lat="43.23943" lon="5.67454">
        <ele>409.2</ele>
        <time>2013-11-20T13:45:48Z</time>
      </trkpt>
      <trkpt lat="43.23939" lon="5.67451">
        <ele>407.7</ele>
        <time>2013-11-20T13:45:52Z</time>
      </trkpt>
      <trkpt lat="43.23935" lon="5.6745">
        <ele>405.5</ele>
        <time>2013-11-20T13:45:57Z</time>
      </trkpt>
      <trkpt lat="43.23932" lon="5.67448">
        <ele>403.3</ele>
        <time>2013-11-20T13:46:01Z</time>
      </trkpt>
      <trkpt lat="43.23928" lon="5.67446">
        <ele>404.7</ele>
        <time>2013-11-20T13:46:04Z</time>
      </trkpt>
      <trkpt lat="43.23924" lon="5.67444">
        <ele>405.8</ele>
        <time>2013-11-20T13:46:07Z</time>
      </trkpt>
      <trkpt lat="43.2392" lon="5.6744">
        <ele>404.2</ele>
        <time>2013-11-20T13:46:11Z</time>
      </trkpt>
      <trkpt lat="43.23918" lon="5.67436">
        <ele>403.3</ele>
        <time>2013-11-20T13:46:14Z</time>
      </trkpt>
      <trkpt lat="43.23915" lon="5.67433">
        <ele>402.3</ele>
        <time>2013-11-20T13:46:17Z</time>
      </trkpt>
      <trkpt lat="43.23912" lon="5.6743">
        <ele>400</ele>
        <time>2013-11-20T13:46:21Z</time>
      </trkpt>
      <trkpt lat="43.23908" lon="5.67427">
        <ele>401.2</ele>
        <time>2013-11-20T13:46:25Z</time>
      </trkpt>
      <trkpt lat="43.23905" lon="5.67424">
        <ele>402.8</ele>
        <time>2013-11-20T13:46:28Z</time>
      </trkpt>
      <trkpt lat="43.23902" lon="5.67421">
        <ele>403.8</ele>
        <time>2013-11-20T13:46:31Z</time>
      </trkpt>
      <trkpt lat="43.23899" lon="5.67417">
        <ele>404.2</ele>
        <time>2013-11-20T13:46:34Z</time>
      </trkpt>
      <trkpt lat="43.23896" lon="5.67413">
        <ele>403.5</ele>
        <time>2013-11-20T13:46:37Z</time>
      </trkpt>
      <trkpt lat="43.23893" lon="5.67409">
        <ele>401.7</ele>
        <time>2013-11-20T13:46:41Z</time>
      </trkpt>
      <trkpt lat="43.2389" lon="5.67405">
        <ele>400.7</ele>
        <time>2013-11-20T13:46:45Z</time>
      </trkpt>
      <trkpt lat="43.23889" lon="5.67403">
        <ele>401.2</ele>
        <time>2013-11-20T13:46:46Z</time>
      </trkpt>
      <trkpt lat="43.23884" lon="5.67398">
        <ele>402.6</ele>
        <time>2013-11-20T13:46:50Z</time>
      </trkpt>
      <trkpt lat="43.23882" lon="5.67395">
        <ele>403</ele>
        <time>2013-11-20T13:46:52Z</time>
      </trkpt>
      <trkpt lat="43.23878" lon="5.67392">
        <ele>403.5</ele>
        <time>2013-11-20T13:46:55Z</time>
      </trkpt>
      <trkpt lat="43.23875" lon="5.67388">
        <ele>404</ele>
        <time>2013-11-20T13:46:58Z</time>
      </trkpt>
      <trkpt lat="43.23873" lon="5.67384">
        <ele>404.2</ele>
        <time>2013-11-20T13:47:01Z</time>
      </trkpt>
      <trkpt lat="43.2387" lon="5.67381">
        <ele>403.7</ele>
        <time>2013-11-20T13:47:04Z</time>
      </trkpt>
      <trkpt lat="43.23867" lon="5.67377">
        <ele>403.2</ele>
        <time>2013-11-20T13:47:08Z</time>
      </trkpt>
      <trkpt lat="43.23864" lon="5.67374">
        <ele>404.2</ele>
        <time>2013-11-20T13:47:11Z</time>
      </trkpt>
      <trkpt lat="43.23861" lon="5.67371">
        <ele>403.7</ele>
        <time>2013-11-20T13:47:15Z</time>
      </trkpt>
      <trkpt lat="43.23858" lon="5.67368">
        <ele>403.6</ele>
        <time>2013-11-20T13:47:18Z</time>
      </trkpt>
      <trkpt lat="43.23855" lon="5.67365">
        <ele>402.8</ele>
        <time>2013-11-20T13:47:22Z</time>
      </trkpt>
      <trkpt lat="43.23852" lon="5.67361">
        <ele>402.6</ele>
        <time>2013-11-20T13:47:25Z</time>
      </trkpt>
      <trkpt lat="43.23848" lon="5.67358">
        <ele>402.5</ele>
        <time>2013-11-20T13:47:28Z</time>
      </trkpt>
      <trkpt lat="43.23844" lon="5.67355">
        <ele>402.5</ele>
        <time>2013-11-20T13:47:31Z</time>
      </trkpt>
      <trkpt lat="43.23841" lon="5.67353">
        <ele>402.5</ele>
        <time>2013-11-20T13:47:34Z</time>
      </trkpt>
      <trkpt lat="43.23837" lon="5.67351">
        <ele>402.5</ele>
        <time>2013-11-20T13:47:37Z</time>
      </trkpt>
      <trkpt lat="43.23833" lon="5.67349">
        <ele>401.6</ele>
        <time>2013-11-20T13:47:41Z</time>
      </trkpt>
      <trkpt lat="43.23829" lon="5.67347">
        <ele>401.2</ele>
        <time>2013-11-20T13:47:44Z</time>
      </trkpt>
      <trkpt lat="43.23826" lon="5.67345">
        <ele>401.1</ele>
        <time>2013-11-20T13:47:47Z</time>
      </trkpt>
      <trkpt lat="43.23825" lon="5.67345">
        <ele>401.1</ele>
        <time>2013-11-20T13:47:48Z</time>
      </trkpt>
      <trkpt lat="43.23819" lon="5.67341">
        <ele>401.3</ele>
        <time>2013-11-20T13:47:53Z</time>
      </trkpt>
      <trkpt lat="43.23816" lon="5.67338">
        <ele>401.2</ele>
        <time>2013-11-20T13:47:56Z</time>
      </trkpt>
      <trkpt lat="43.23814" lon="5.67334">
        <ele>401.2</ele>
        <time>2013-11-20T13:47:59Z</time>
      </trkpt>
      <trkpt lat="43.23811" lon="5.67331">
        <ele>401.3</ele>
        <time>2013-11-20T13:48:02Z</time>
      </trkpt>
      <trkpt lat="43.23808" lon="5.67327">
        <ele>401.2</ele>
        <time>2013-11-20T13:48:05Z</time>
      </trkpt>
      <trkpt lat="43.23805" lon="5.67323">
        <ele>400.8</ele>
        <time>2013-11-20T13:48:08Z</time>
      </trkpt>
      <trkpt lat="43.23802" lon="5.6732">
        <ele>401</ele>
        <time>2013-11-20T13:48:11Z</time>
      </trkpt>
      <trkpt lat="43.238" lon="5.67316">
        <ele>400.7</ele>
        <time>2013-11-20T13:48:14Z</time>
      </trkpt>
      <trkpt lat="43.23797" lon="5.67312">
        <ele>400.5</ele>
        <time>2013-11-20T13:48:17Z</time>
      </trkpt>
      <trkpt lat="43.23794" lon="5.67309">
        <ele>400.2</ele>
        <time>2013-11-20T13:48:20Z</time>
      </trkpt>
      <trkpt lat="43.23791" lon="5.67305">
        <ele>400.3</ele>
        <time>2013-11-20T13:48:23Z</time>
      </trkpt>
      <trkpt lat="43.23788" lon="5.67301">
        <ele>400.3</ele>
        <time>2013-11-20T13:48:26Z</time>
      </trkpt>
      <trkpt lat="43.23785" lon="5.67298">
        <ele>400.6</ele>
        <time>2013-11-20T13:48:29Z</time>
      </trkpt>
      <trkpt lat="43.23783" lon="5.67295">
        <ele>400.8</ele>
        <time>2013-11-20T13:48:32Z</time>
      </trkpt>
      <trkpt lat="43.2378" lon="5.67292">
        <ele>400.5</ele>
        <time>2013-11-20T13:48:35Z</time>
      </trkpt>
      <trkpt lat="43.23777" lon="5.67288">
        <ele>400.2</ele>
        <time>2013-11-20T13:48:38Z</time>
      </trkpt>
      <trkpt lat="43.23774" lon="5.67284">
        <ele>399.5</ele>
        <time>2013-11-20T13:48:42Z</time>
      </trkpt>
      <trkpt lat="43.23771" lon="5.67281">
        <ele>399.2</ele>
        <time>2013-11-20T13:48:46Z</time>
      </trkpt>
      <trkpt lat="43.23768" lon="5.67277">
        <ele>399.2</ele>
        <time>2013-11-20T13:48:49Z</time>
      </trkpt>
      <trkpt lat="43.23768" lon="5.67276">
        <ele>399.2</ele>
        <time>2013-11-20T13:48:50Z</time>
      </trkpt>
      <trkpt lat="43.23763" lon="5.6727">
        <ele>399.2</ele>
        <time>2013-11-20T13:48:55Z</time>
      </trkpt>
      <trkpt lat="43.2376" lon="5.67267">
        <ele>399.2</ele>
        <time>2013-11-20T13:48:58Z</time>
      </trkpt>
      <trkpt lat="43.23757" lon="5.67263">
        <ele>398.7</ele>
        <time>2013-11-20T13:49:02Z</time>
      </trkpt>
      <trkpt lat="43.23753" lon="5.67261">
        <ele>398</ele>
        <time>2013-11-20T13:49:06Z</time>
      </trkpt>
      <trkpt lat="43.2375" lon="5.67257">
        <ele>396.5</ele>
        <time>2013-11-20T13:49:11Z</time>
      </trkpt>
      <trkpt lat="43.23747" lon="5.67253">
        <ele>395.6</ele>
        <time>2013-11-20T13:49:15Z</time>
      </trkpt>
      <trkpt lat="43.23744" lon="5.67249">
        <ele>394.8</ele>
        <time>2013-11-20T13:49:18Z</time>
      </trkpt>
      <trkpt lat="43.23742" lon="5.67246">
        <ele>394.6</ele>
        <time>2013-11-20T13:49:21Z</time>
      </trkpt>
      <trkpt lat="43.23739" lon="5.67241">
        <ele>394.2</ele>
        <time>2013-11-20T13:49:25Z</time>
      </trkpt>
      <trkpt lat="43.23737" lon="5.67238">
        <ele>394.1</ele>
        <time>2013-11-20T13:49:28Z</time>
      </trkpt>
      <trkpt lat="43.23734" lon="5.67234">
        <ele>394</ele>
        <time>2013-11-20T13:49:31Z</time>
      </trkpt>
      <trkpt lat="43.23732" lon="5.67229">
        <ele>393.8</ele>
        <time>2013-11-20T13:49:35Z</time>
      </trkpt>
      <trkpt lat="43.23729" lon="5.67225">
        <ele>393.7</ele>
        <time>2013-11-20T13:49:38Z</time>
      </trkpt>
      <trkpt lat="43.23727" lon="5.67221">
        <ele>393.6</ele>
        <time>2013-11-20T13:49:41Z</time>
      </trkpt>
      <trkpt lat="43.23726" lon="5.67217">
        <ele>393.6</ele>
        <time>2013-11-20T13:49:44Z</time>
      </trkpt>
      <trkpt lat="43.23724" lon="5.67212">
        <ele>393.5</ele>
        <time>2013-11-20T13:49:47Z</time>
      </trkpt>
      <trkpt lat="43.23723" lon="5.67207">
        <ele>393.2</ele>
        <time>2013-11-20T13:49:50Z</time>
      </trkpt>
      <trkpt lat="43.23723" lon="5.67205">
        <ele>393.2</ele>
        <time>2013-11-20T13:49:51Z</time>
      </trkpt>
      <trkpt lat="43.23721" lon="5.67197">
        <ele>393.2</ele>
        <time>2013-11-20T13:49:56Z</time>
      </trkpt>
      <trkpt lat="43.2372" lon="5.67192">
        <ele>392.8</ele>
        <time>2013-11-20T13:49:59Z</time>
      </trkpt>
      <trkpt lat="43.23718" lon="5.67188">
        <ele>392.6</ele>
        <time>2013-11-20T13:50:02Z</time>
      </trkpt>
      <trkpt lat="43.23717" lon="5.67183">
        <ele>392.1</ele>
        <time>2013-11-20T13:50:05Z</time>
      </trkpt>
      <trkpt lat="43.23715" lon="5.67179">
        <ele>391.3</ele>
        <time>2013-11-20T13:50:08Z</time>
      </trkpt>
      <trkpt lat="43.23714" lon="5.67174">
        <ele>391</ele>
        <time>2013-11-20T13:50:11Z</time>
      </trkpt>
      <trkpt lat="43.23712" lon="5.6717">
        <ele>390.7</ele>
        <time>2013-11-20T13:50:14Z</time>
      </trkpt>
      <trkpt lat="43.2371" lon="5.67166">
        <ele>390.7</ele>
        <time>2013-11-20T13:50:17Z</time>
      </trkpt>
      <trkpt lat="43.23709" lon="5.67161">
        <ele>390.7</ele>
        <time>2013-11-20T13:50:20Z</time>
      </trkpt>
      <trkpt lat="43.23707" lon="5.67156">
        <ele>390.5</ele>
        <time>2013-11-20T13:50:23Z</time>
      </trkpt>
      <trkpt lat="43.23706" lon="5.67152">
        <ele>390.3</ele>
        <time>2013-11-20T13:50:26Z</time>
      </trkpt>
      <trkpt lat="43.23705" lon="5.67146">
        <ele>390.2</ele>
        <time>2013-11-20T13:50:29Z</time>
      </trkpt>
      <trkpt lat="43.23704" lon="5.67142">
        <ele>390.1</ele>
        <time>2013-11-20T13:50:32Z</time>
      </trkpt>
      <trkpt lat="43.23702" lon="5.67137">
        <ele>390</ele>
        <time>2013-11-20T13:50:35Z</time>
      </trkpt>
      <trkpt lat="43.23701" lon="5.67132">
        <ele>389.8</ele>
        <time>2013-11-20T13:50:38Z</time>
      </trkpt>
      <trkpt lat="43.237" lon="5.67127">
        <ele>389.7</ele>
        <time>2013-11-20T13:50:41Z</time>
      </trkpt>
      <trkpt lat="43.23699" lon="5.67122">
        <ele>389.5</ele>
        <time>2013-11-20T13:50:44Z</time>
      </trkpt>
      <trkpt lat="43.23699" lon="5.67117">
        <ele>389.5</ele>
        <time>2013-11-20T13:50:47Z</time>
      </trkpt>
      <trkpt lat="43.23698" lon="5.67112">
        <ele>389.7</ele>
        <time>2013-11-20T13:50:50Z</time>
      </trkpt>
      <trkpt lat="43.23697" lon="5.67107">
        <ele>389.7</ele>
        <time>2013-11-20T13:50:53Z</time>
      </trkpt>
      <trkpt lat="43.23697" lon="5.67105">
        <ele>389.7</ele>
        <time>2013-11-20T13:50:54Z</time>
      </trkpt>
      <trkpt lat="43.23696" lon="5.67097">
        <ele>390</ele>
        <time>2013-11-20T13:50:59Z</time>
      </trkpt>
      <trkpt lat="43.23695" lon="5.67092">
        <ele>390.1</ele>
        <time>2013-11-20T13:51:02Z</time>
      </trkpt>
      <trkpt lat="43.23694" lon="5.67088">
        <ele>390.2</ele>
        <time>2013-11-20T13:51:05Z</time>
      </trkpt>
      <trkpt lat="43.23694" lon="5.67083">
        <ele>389.8</ele>
        <time>2013-11-20T13:51:08Z</time>
      </trkpt>
      <trkpt lat="43.23694" lon="5.67078">
        <ele>389.8</ele>
        <time>2013-11-20T13:51:11Z</time>
      </trkpt>
      <trkpt lat="43.23693" lon="5.67073">
        <ele>389.7</ele>
        <time>2013-11-20T13:51:14Z</time>
      </trkpt>
      <trkpt lat="43.23693" lon="5.67068">
        <ele>389.7</ele>
        <time>2013-11-20T13:51:17Z</time>
      </trkpt>
      <trkpt lat="43.23691" lon="5.67063">
        <ele>390.8</ele>
        <time>2013-11-20T13:51:20Z</time>
      </trkpt>
      <trkpt lat="43.23691" lon="5.67058">
        <ele>390.2</ele>
        <time>2013-11-20T13:51:23Z</time>
      </trkpt>
      <trkpt lat="43.2369" lon="5.67053">
        <ele>390.3</ele>
        <time>2013-11-20T13:51:26Z</time>
      </trkpt>
      <trkpt lat="43.23689" lon="5.67047">
        <ele>390.5</ele>
        <time>2013-11-20T13:51:29Z</time>
      </trkpt>
      <trkpt lat="43.23689" lon="5.67042">
        <ele>389.8</ele>
        <time>2013-11-20T13:51:32Z</time>
      </trkpt>
      <trkpt lat="43.23688" lon="5.67037">
        <ele>389.7</ele>
        <time>2013-11-20T13:51:35Z</time>
      </trkpt>
      <trkpt lat="43.23687" lon="5.67032">
        <ele>389.7</ele>
        <time>2013-11-20T13:51:38Z</time>
      </trkpt>
      <trkpt lat="43.23685" lon="5.67028">
        <ele>389.7</ele>
        <time>2013-11-20T13:51:41Z</time>
      </trkpt>
      <trkpt lat="43.23681" lon="5.67026">
        <ele>389.5</ele>
        <time>2013-11-20T13:51:44Z</time>
      </trkpt>
      <trkpt lat="43.23677" lon="5.67025">
        <ele>389.3</ele>
        <time>2013-11-20T13:51:47Z</time>
      </trkpt>
      <trkpt lat="43.23674" lon="5.67025">
        <ele>389.2</ele>
        <time>2013-11-20T13:51:50Z</time>
      </trkpt>
      <trkpt lat="43.23669" lon="5.67026">
        <ele>388.5</ele>
        <time>2013-11-20T13:51:54Z</time>
      </trkpt>
      <trkpt lat="43.23668" lon="5.67027">
        <ele>388.2</ele>
        <time>2013-11-20T13:51:55Z</time>
      </trkpt>
      <trkpt lat="43.23662" lon="5.67029">
        <ele>387.2</ele>
        <time>2013-11-20T13:52:01Z</time>
      </trkpt>
      <trkpt lat="43.23657" lon="5.6703">
        <ele>386.6</ele>
        <time>2013-11-20T13:52:05Z</time>
      </trkpt>
      <trkpt lat="43.23653" lon="5.67033">
        <ele>385.6</ele>
        <time>2013-11-20T13:52:09Z</time>
      </trkpt>
      <trkpt lat="43.23649" lon="5.67035">
        <ele>385</ele>
        <time>2013-11-20T13:52:13Z</time>
      </trkpt>
      <trkpt lat="43.23645" lon="5.67037">
        <ele>384.8</ele>
        <time>2013-11-20T13:52:17Z</time>
      </trkpt>
      <trkpt lat="43.23641" lon="5.67039">
        <ele>383.7</ele>
        <time>2013-11-20T13:52:21Z</time>
      </trkpt>
      <trkpt lat="43.23637" lon="5.67041">
        <ele>382.5</ele>
        <time>2013-11-20T13:52:25Z</time>
      </trkpt>
      <trkpt lat="43.23634" lon="5.67043">
        <ele>382.2</ele>
        <time>2013-11-20T13:52:29Z</time>
      </trkpt>
      <trkpt lat="43.2363" lon="5.67043">
        <ele>382.7</ele>
        <time>2013-11-20T13:52:32Z</time>
      </trkpt>
      <trkpt lat="43.23627" lon="5.67043">
        <ele>383.2</ele>
        <time>2013-11-20T13:52:35Z</time>
      </trkpt>
      <trkpt lat="43.23623" lon="5.67044">
        <ele>383.5</ele>
        <time>2013-11-20T13:52:39Z</time>
      </trkpt>
      <trkpt lat="43.23619" lon="5.67045">
        <ele>384.1</ele>
        <time>2013-11-20T13:52:42Z</time>
      </trkpt>
      <trkpt lat="43.23615" lon="5.67045">
        <ele>383.2</ele>
        <time>2013-11-20T13:52:46Z</time>
      </trkpt>
      <trkpt lat="43.23611" lon="5.67045">
        <ele>382.7</ele>
        <time>2013-11-20T13:52:49Z</time>
      </trkpt>
      <trkpt lat="43.23608" lon="5.67045">
        <ele>382.5</ele>
        <time>2013-11-20T13:52:52Z</time>
      </trkpt>
      <trkpt lat="43.23604" lon="5.67045">
        <ele>382.6</ele>
        <time>2013-11-20T13:52:56Z</time>
      </trkpt>
      <trkpt lat="43.23603" lon="5.67045">
        <ele>383.1</ele>
        <time>2013-11-20T13:52:57Z</time>
      </trkpt>
      <trkpt lat="43.23598" lon="5.67043">
        <ele>382.6</ele>
        <time>2013-11-20T13:53:02Z</time>
      </trkpt>
      <trkpt lat="43.23594" lon="5.67043">
        <ele>383.2</ele>
        <time>2013-11-20T13:53:05Z</time>
      </trkpt>
      <trkpt lat="43.23589" lon="5.67043">
        <ele>385.2</ele>
        <time>2013-11-20T13:53:08Z</time>
      </trkpt>
      <trkpt lat="43.23585" lon="5.67043">
        <ele>385.6</ele>
        <time>2013-11-20T13:53:12Z</time>
      </trkpt>
      <trkpt lat="43.23581" lon="5.67043">
        <ele>385.5</ele>
        <time>2013-11-20T13:53:16Z</time>
      </trkpt>
      <trkpt lat="43.23577" lon="5.67043">
        <ele>386.3</ele>
        <time>2013-11-20T13:53:20Z</time>
      </trkpt>
      <trkpt lat="43.23573" lon="5.67042">
        <ele>386.1</ele>
        <time>2013-11-20T13:53:25Z</time>
      </trkpt>
      <trkpt lat="43.23569" lon="5.67041">
        <ele>387.2</ele>
        <time>2013-11-20T13:53:29Z</time>
      </trkpt>
      <trkpt lat="43.23565" lon="5.67039">
        <ele>387.1</ele>
        <time>2013-11-20T13:53:34Z</time>
      </trkpt>
      <trkpt lat="43.23562" lon="5.67037">
        <ele>387.7</ele>
        <time>2013-11-20T13:53:37Z</time>
      </trkpt>
      <trkpt lat="43.23559" lon="5.67035">
        <ele>387.7</ele>
        <time>2013-11-20T13:53:40Z</time>
      </trkpt>
      <trkpt lat="43.23555" lon="5.67036">
        <ele>388.7</ele>
        <time>2013-11-20T13:53:44Z</time>
      </trkpt>
      <trkpt lat="43.2355" lon="5.67036">
        <ele>388.3</ele>
        <time>2013-11-20T13:53:48Z</time>
      </trkpt>
      <trkpt lat="43.23546" lon="5.67037">
        <ele>387.2</ele>
        <time>2013-11-20T13:53:53Z</time>
      </trkpt>
      <trkpt lat="43.23542" lon="5.67036">
        <ele>387.7</ele>
        <time>2013-11-20T13:53:56Z</time>
      </trkpt>
      <trkpt lat="43.23539" lon="5.67034">
        <ele>388.2</ele>
        <time>2013-11-20T13:53:59Z</time>
      </trkpt>
      <trkpt lat="43.23538" lon="5.67033">
        <ele>388.3</ele>
        <time>2013-11-20T13:54:00Z</time>
      </trkpt>
    </trkseg>
  </trk>
</gpx>